<?xml version="1.0" encoding="UTF-8" standalone="no" ?>
<gpx xmlns="http://www.topografix.com/GPX/1/1" xmlns:xsi="http://www.w3.org/2001/XMLSchema-instance" xsi:schemaLocation="http://www.topografix.com/GPX/1/1 http://www.topografix.com/GPX/1/1/gpx.xsd" version="1.1" creator="VisuGPX - https://www.visugpx.com">
  <metadata>
    <name>RSPG St Geniez TOUR DU dromon: 06 MAI 2021 917</name>
    <desc><![CDATA[A départ de St Geniez place du village prendre le sentier vers la chapelle de Dromon. Continuer ensuite sur le sentier pour rejoindre dans la vallée du Vançon, le hameau de Abros. Remonter ensuite sur le plateau par le sentier pour revenir  au village de St Geniez.]]></desc>
  </metadata>
  <trk>
    <name><![CDATA[ B St geniez TOUR DU dromon: 06 MAI 2021 09:17]]></name>
    <trkseg>
      <trkpt lat="44.24496" lon="6.05268">
        <ele>1099.89</ele>
        <time>2021-05-06T07:17:01Z</time>
      </trkpt>
      <trkpt lat="44.24496" lon="6.05268">
        <ele>1099.89</ele>
        <time>2021-05-06T07:17:02Z</time>
      </trkpt>
      <trkpt lat="44.24496" lon="6.05268">
        <ele>1103.25</ele>
        <time>2021-05-06T07:17:06Z</time>
      </trkpt>
      <trkpt lat="44.24497" lon="6.05267">
        <ele>1103.25</ele>
        <time>2021-05-06T07:17:07Z</time>
      </trkpt>
      <trkpt lat="44.24498" lon="6.05266">
        <ele>1106.61</ele>
        <time>2021-05-06T07:17:13Z</time>
      </trkpt>
      <trkpt lat="44.24496" lon="6.05267">
        <ele>1109.98</ele>
        <time>2021-05-06T07:17:21Z</time>
      </trkpt>
      <trkpt lat="44.24495" lon="6.05266">
        <ele>1112.86</ele>
        <time>2021-05-06T07:17:31Z</time>
      </trkpt>
      <trkpt lat="44.24495" lon="6.05262">
        <ele>1115.75</ele>
        <time>2021-05-06T07:17:45Z</time>
      </trkpt>
      <trkpt lat="44.24498" lon="6.05259">
        <ele>1116.71</ele>
        <time>2021-05-06T07:17:58Z</time>
      </trkpt>
      <trkpt lat="44.24497" lon="6.05259">
        <ele>1118.15</ele>
        <time>2021-05-06T07:18:12Z</time>
      </trkpt>
      <trkpt lat="44.24499" lon="6.05267">
        <ele>1119.59</ele>
        <time>2021-05-06T07:18:29Z</time>
      </trkpt>
      <trkpt lat="44.24499" lon="6.05269">
        <ele>1075.85</ele>
        <time>2021-05-06T07:18:37Z</time>
      </trkpt>
      <trkpt lat="44.24499" lon="6.0527">
        <ele>1120.07</ele>
        <time>2021-05-06T07:18:38Z</time>
      </trkpt>
      <trkpt lat="44.24499" lon="6.05273">
        <ele>1120.07</ele>
        <time>2021-05-06T07:18:54Z</time>
      </trkpt>
      <trkpt lat="44.24504" lon="6.05271">
        <ele>1120.07</ele>
        <time>2021-05-06T07:19:07Z</time>
      </trkpt>
      <trkpt lat="44.24509" lon="6.05267">
        <ele>1121.52</ele>
        <time>2021-05-06T07:19:22Z</time>
      </trkpt>
      <trkpt lat="44.24511" lon="6.05268">
        <ele>1121.03</ele>
        <time>2021-05-06T07:19:42Z</time>
      </trkpt>
      <trkpt lat="44.24506" lon="6.05276">
        <ele>1122.48</ele>
        <time>2021-05-06T07:20:14Z</time>
      </trkpt>
      <trkpt lat="44.245" lon="6.05279">
        <ele>1120.07</ele>
        <time>2021-05-06T07:20:33Z</time>
      </trkpt>
      <trkpt lat="44.245" lon="6.0527">
        <ele>1120.07</ele>
        <time>2021-05-06T07:20:57Z</time>
      </trkpt>
      <trkpt lat="44.245" lon="6.05273">
        <ele>1119.59</ele>
        <time>2021-05-06T07:20:59Z</time>
      </trkpt>
      <trkpt lat="44.24496" lon="6.0526">
        <ele>1119.11</ele>
        <time>2021-05-06T07:21:13Z</time>
      </trkpt>
      <trkpt lat="44.24499" lon="6.05272">
        <ele>1119.11</ele>
        <time>2021-05-06T07:21:33Z</time>
      </trkpt>
      <trkpt lat="44.24497" lon="6.05272">
        <ele>1119.11</ele>
        <time>2021-05-06T07:21:46Z</time>
      </trkpt>
      <trkpt lat="44.24495" lon="6.05276">
        <ele>1119.11</ele>
        <time>2021-05-06T07:22:11Z</time>
      </trkpt>
      <trkpt lat="44.24495" lon="6.05275">
        <ele>1119.11</ele>
        <time>2021-05-06T07:22:33Z</time>
      </trkpt>
      <trkpt lat="44.24496" lon="6.05268">
        <ele>1119.11</ele>
        <time>2021-05-06T07:22:47Z</time>
      </trkpt>
      <trkpt lat="44.24495" lon="6.05266">
        <ele>1119.11</ele>
        <time>2021-05-06T07:23:11Z</time>
      </trkpt>
      <trkpt lat="44.24492" lon="6.05262">
        <ele>1119.11</ele>
        <time>2021-05-06T07:23:36Z</time>
      </trkpt>
      <trkpt lat="44.2449" lon="6.05246">
        <ele>1120.07</ele>
        <time>2021-05-06T07:23:51Z</time>
      </trkpt>
      <trkpt lat="44.2449" lon="6.05242">
        <ele>1119.11</ele>
        <time>2021-05-06T07:23:55Z</time>
      </trkpt>
      <trkpt lat="44.24479" lon="6.0524">
        <ele>1118.15</ele>
        <time>2021-05-06T07:24:12Z</time>
      </trkpt>
      <trkpt lat="44.24476" lon="6.05244">
        <ele>1117.67</ele>
        <time>2021-05-06T07:24:17Z</time>
      </trkpt>
      <trkpt lat="44.24473" lon="6.05246">
        <ele>1117.19</ele>
        <time>2021-05-06T07:24:19Z</time>
      </trkpt>
      <trkpt lat="44.24465" lon="6.05249">
        <ele>1116.23</ele>
        <time>2021-05-06T07:24:29Z</time>
      </trkpt>
      <trkpt lat="44.24461" lon="6.0524">
        <ele>1115.27</ele>
        <time>2021-05-06T07:24:39Z</time>
      </trkpt>
      <trkpt lat="44.24458" lon="6.05236">
        <ele>1115.27</ele>
        <time>2021-05-06T07:24:43Z</time>
      </trkpt>
      <trkpt lat="44.2445" lon="6.05237">
        <ele>1112.38</ele>
        <time>2021-05-06T07:24:57Z</time>
      </trkpt>
      <trkpt lat="44.2445" lon="6.05252">
        <ele>1110.94</ele>
        <time>2021-05-06T07:25:08Z</time>
      </trkpt>
      <trkpt lat="44.24448" lon="6.05262">
        <ele>1110.46</ele>
        <time>2021-05-06T07:25:15Z</time>
      </trkpt>
      <trkpt lat="44.24435" lon="6.05271">
        <ele>1108.06</ele>
        <time>2021-05-06T07:25:27Z</time>
      </trkpt>
      <trkpt lat="44.24419" lon="6.05275">
        <ele>1105.17</ele>
        <time>2021-05-06T07:25:44Z</time>
      </trkpt>
      <trkpt lat="44.24412" lon="6.05276">
        <ele>1104.69</ele>
        <time>2021-05-06T07:26:00Z</time>
      </trkpt>
      <trkpt lat="44.24411" lon="6.05272">
        <ele>1104.69</ele>
        <time>2021-05-06T07:26:13Z</time>
      </trkpt>
      <trkpt lat="44.24402" lon="6.05274">
        <ele>1104.21</ele>
        <time>2021-05-06T07:26:25Z</time>
      </trkpt>
      <trkpt lat="44.2439" lon="6.05272">
        <ele>1102.77</ele>
        <time>2021-05-06T07:26:41Z</time>
      </trkpt>
      <trkpt lat="44.24386" lon="6.05274">
        <ele>1102.29</ele>
        <time>2021-05-06T07:26:53Z</time>
      </trkpt>
      <trkpt lat="44.24371" lon="6.05281">
        <ele>1101.33</ele>
        <time>2021-05-06T07:27:08Z</time>
      </trkpt>
      <trkpt lat="44.24369" lon="6.05283">
        <ele>1100.85</ele>
        <time>2021-05-06T07:27:11Z</time>
      </trkpt>
      <trkpt lat="44.24366" lon="6.05307">
        <ele>1100.37</ele>
        <time>2021-05-06T07:27:29Z</time>
      </trkpt>
      <trkpt lat="44.24366" lon="6.05308">
        <ele>1100.37</ele>
        <time>2021-05-06T07:27:30Z</time>
      </trkpt>
      <trkpt lat="44.24365" lon="6.05332">
        <ele>1100.85</ele>
        <time>2021-05-06T07:27:48Z</time>
      </trkpt>
      <trkpt lat="44.24367" lon="6.05342">
        <ele>1101.81</ele>
        <time>2021-05-06T07:27:57Z</time>
      </trkpt>
      <trkpt lat="44.24373" lon="6.05361">
        <ele>1102.29</ele>
        <time>2021-05-06T07:28:11Z</time>
      </trkpt>
      <trkpt lat="44.24376" lon="6.05375">
        <ele>1103.25</ele>
        <time>2021-05-06T07:28:21Z</time>
      </trkpt>
      <trkpt lat="44.24378" lon="6.05398">
        <ele>1104.21</ele>
        <time>2021-05-06T07:28:38Z</time>
      </trkpt>
      <trkpt lat="44.2438" lon="6.05421">
        <ele>1104.69</ele>
        <time>2021-05-06T07:28:53Z</time>
      </trkpt>
      <trkpt lat="44.24375" lon="6.05437">
        <ele>1105.65</ele>
        <time>2021-05-06T07:29:06Z</time>
      </trkpt>
      <trkpt lat="44.24359" lon="6.0545">
        <ele>1105.17</ele>
        <time>2021-05-06T07:29:23Z</time>
      </trkpt>
      <trkpt lat="44.24343" lon="6.05465">
        <ele>1105.17</ele>
        <time>2021-05-06T07:29:41Z</time>
      </trkpt>
      <trkpt lat="44.24326" lon="6.05481">
        <ele>1105.17</ele>
        <time>2021-05-06T07:29:57Z</time>
      </trkpt>
      <trkpt lat="44.24319" lon="6.05488">
        <ele>1105.17</ele>
        <time>2021-05-06T07:30:04Z</time>
      </trkpt>
      <trkpt lat="44.24311" lon="6.05495">
        <ele>1105.17</ele>
        <time>2021-05-06T07:30:14Z</time>
      </trkpt>
      <trkpt lat="44.24302" lon="6.05516">
        <ele>1105.65</ele>
        <time>2021-05-06T07:30:30Z</time>
      </trkpt>
      <trkpt lat="44.24295" lon="6.0554">
        <ele>1106.13</ele>
        <time>2021-05-06T07:30:47Z</time>
      </trkpt>
      <trkpt lat="44.24288" lon="6.05568">
        <ele>1107.1</ele>
        <time>2021-05-06T07:31:06Z</time>
      </trkpt>
      <trkpt lat="44.24284" lon="6.0558">
        <ele>1107.58</ele>
        <time>2021-05-06T07:31:15Z</time>
      </trkpt>
      <trkpt lat="44.24278" lon="6.05602">
        <ele>1109.02</ele>
        <time>2021-05-06T07:31:32Z</time>
      </trkpt>
      <trkpt lat="44.24269" lon="6.0563">
        <ele>1110.94</ele>
        <time>2021-05-06T07:31:51Z</time>
      </trkpt>
      <trkpt lat="44.24266" lon="6.05652">
        <ele>1110.94</ele>
        <time>2021-05-06T07:32:05Z</time>
      </trkpt>
      <trkpt lat="44.24264" lon="6.05679">
        <ele>1110.46</ele>
        <time>2021-05-06T07:32:21Z</time>
      </trkpt>
      <trkpt lat="44.24264" lon="6.05699">
        <ele>1110.46</ele>
        <time>2021-05-06T07:32:36Z</time>
      </trkpt>
      <trkpt lat="44.24264" lon="6.05724">
        <ele>1109.98</ele>
        <time>2021-05-06T07:32:53Z</time>
      </trkpt>
      <trkpt lat="44.24251" lon="6.05745">
        <ele>1109.98</ele>
        <time>2021-05-06T07:33:11Z</time>
      </trkpt>
      <trkpt lat="44.24239" lon="6.0576">
        <ele>1109.02</ele>
        <time>2021-05-06T07:33:29Z</time>
      </trkpt>
      <trkpt lat="44.24234" lon="6.0577">
        <ele>1108.54</ele>
        <time>2021-05-06T07:33:42Z</time>
      </trkpt>
      <trkpt lat="44.24228" lon="6.05786">
        <ele>1109.02</ele>
        <time>2021-05-06T07:33:55Z</time>
      </trkpt>
      <trkpt lat="44.24221" lon="6.058">
        <ele>1109.5</ele>
        <time>2021-05-06T07:34:07Z</time>
      </trkpt>
      <trkpt lat="44.24212" lon="6.05819">
        <ele>1109.5</ele>
        <time>2021-05-06T07:34:23Z</time>
      </trkpt>
      <trkpt lat="44.24205" lon="6.0584">
        <ele>1110.46</ele>
        <time>2021-05-06T07:34:39Z</time>
      </trkpt>
      <trkpt lat="44.24197" lon="6.05859">
        <ele>1110.94</ele>
        <time>2021-05-06T07:34:54Z</time>
      </trkpt>
      <trkpt lat="44.2419" lon="6.05879">
        <ele>1111.9</ele>
        <time>2021-05-06T07:35:09Z</time>
      </trkpt>
      <trkpt lat="44.24183" lon="6.05899">
        <ele>1112.38</ele>
        <time>2021-05-06T07:35:24Z</time>
      </trkpt>
      <trkpt lat="44.24179" lon="6.0591">
        <ele>1113.34</ele>
        <time>2021-05-06T07:35:36Z</time>
      </trkpt>
      <trkpt lat="44.24177" lon="6.05915">
        <ele>1113.34</ele>
        <time>2021-05-06T07:35:41Z</time>
      </trkpt>
      <trkpt lat="44.24174" lon="6.05921">
        <ele>1113.82</ele>
        <time>2021-05-06T07:35:46Z</time>
      </trkpt>
      <trkpt lat="44.24167" lon="6.05944">
        <ele>1114.79</ele>
        <time>2021-05-06T07:36:03Z</time>
      </trkpt>
      <trkpt lat="44.24161" lon="6.05971">
        <ele>1117.67</ele>
        <time>2021-05-06T07:36:22Z</time>
      </trkpt>
      <trkpt lat="44.24161" lon="6.05994">
        <ele>1117.67</ele>
        <time>2021-05-06T07:36:38Z</time>
      </trkpt>
      <trkpt lat="44.24161" lon="6.05999">
        <ele>1117.67</ele>
        <time>2021-05-06T07:36:42Z</time>
      </trkpt>
      <trkpt lat="44.24163" lon="6.06018">
        <ele>1118.63</ele>
        <time>2021-05-06T07:36:55Z</time>
      </trkpt>
      <trkpt lat="44.24165" lon="6.06035">
        <ele>1120.07</ele>
        <time>2021-05-06T07:37:07Z</time>
      </trkpt>
      <trkpt lat="44.24164" lon="6.06059">
        <ele>1120.55</ele>
        <time>2021-05-06T07:37:24Z</time>
      </trkpt>
      <trkpt lat="44.24164" lon="6.06064">
        <ele>1121.03</ele>
        <time>2021-05-06T07:37:27Z</time>
      </trkpt>
      <trkpt lat="44.24161" lon="6.06083">
        <ele>1121.03</ele>
        <time>2021-05-06T07:37:43Z</time>
      </trkpt>
      <trkpt lat="44.24156" lon="6.06107">
        <ele>1121.03</ele>
        <time>2021-05-06T07:37:59Z</time>
      </trkpt>
      <trkpt lat="44.24152" lon="6.0613">
        <ele>1121.03</ele>
        <time>2021-05-06T07:38:15Z</time>
      </trkpt>
      <trkpt lat="44.24146" lon="6.06156">
        <ele>1121.03</ele>
        <time>2021-05-06T07:38:33Z</time>
      </trkpt>
      <trkpt lat="44.24141" lon="6.06178">
        <ele>1121.03</ele>
        <time>2021-05-06T07:38:51Z</time>
      </trkpt>
      <trkpt lat="44.24141" lon="6.0618">
        <ele>1121.03</ele>
        <time>2021-05-06T07:38:52Z</time>
      </trkpt>
      <trkpt lat="44.24137" lon="6.06206">
        <ele>1120.55</ele>
        <time>2021-05-06T07:39:10Z</time>
      </trkpt>
      <trkpt lat="44.24131" lon="6.06233">
        <ele>1120.55</ele>
        <time>2021-05-06T07:39:29Z</time>
      </trkpt>
      <trkpt lat="44.24127" lon="6.06256">
        <ele>1119.59</ele>
        <time>2021-05-06T07:39:45Z</time>
      </trkpt>
      <trkpt lat="44.24122" lon="6.06279">
        <ele>1119.59</ele>
        <time>2021-05-06T07:40:02Z</time>
      </trkpt>
      <trkpt lat="44.24117" lon="6.06308">
        <ele>1119.59</ele>
        <time>2021-05-06T07:40:22Z</time>
      </trkpt>
      <trkpt lat="44.24113" lon="6.06329">
        <ele>1119.59</ele>
        <time>2021-05-06T07:40:39Z</time>
      </trkpt>
      <trkpt lat="44.24109" lon="6.06357">
        <ele>1119.11</ele>
        <time>2021-05-06T07:40:57Z</time>
      </trkpt>
      <trkpt lat="44.24106" lon="6.06378">
        <ele>1119.11</ele>
        <time>2021-05-06T07:41:12Z</time>
      </trkpt>
      <trkpt lat="44.241" lon="6.064">
        <ele>1119.11</ele>
        <time>2021-05-06T07:41:27Z</time>
      </trkpt>
      <trkpt lat="44.24096" lon="6.0642">
        <ele>1119.11</ele>
        <time>2021-05-06T07:41:42Z</time>
      </trkpt>
      <trkpt lat="44.24089" lon="6.06446">
        <ele>1119.11</ele>
        <time>2021-05-06T07:42:01Z</time>
      </trkpt>
      <trkpt lat="44.24087" lon="6.06451">
        <ele>1119.11</ele>
        <time>2021-05-06T07:42:05Z</time>
      </trkpt>
      <trkpt lat="44.24083" lon="6.06458">
        <ele>1119.59</ele>
        <time>2021-05-06T07:42:11Z</time>
      </trkpt>
      <trkpt lat="44.24079" lon="6.06473">
        <ele>1120.07</ele>
        <time>2021-05-06T07:42:28Z</time>
      </trkpt>
      <trkpt lat="44.24073" lon="6.06484">
        <ele>1120.07</ele>
        <time>2021-05-06T07:42:42Z</time>
      </trkpt>
      <trkpt lat="44.24069" lon="6.06491">
        <ele>1120.55</ele>
        <time>2021-05-06T07:42:55Z</time>
      </trkpt>
      <trkpt lat="44.24076" lon="6.06477">
        <ele>1120.55</ele>
        <time>2021-05-06T07:43:09Z</time>
      </trkpt>
      <trkpt lat="44.24075" lon="6.06469">
        <ele>1119.59</ele>
        <time>2021-05-06T07:43:23Z</time>
      </trkpt>
      <trkpt lat="44.24074" lon="6.06468">
        <ele>1119.59</ele>
        <time>2021-05-06T07:43:59Z</time>
      </trkpt>
      <trkpt lat="44.24071" lon="6.06465">
        <ele>1119.59</ele>
        <time>2021-05-06T07:44:29Z</time>
      </trkpt>
      <trkpt lat="44.24072" lon="6.06466">
        <ele>1119.59</ele>
        <time>2021-05-06T07:45:02Z</time>
      </trkpt>
      <trkpt lat="44.24075" lon="6.06476">
        <ele>1119.59</ele>
        <time>2021-05-06T07:45:13Z</time>
      </trkpt>
      <trkpt lat="44.24068" lon="6.0649">
        <ele>1120.07</ele>
        <time>2021-05-06T07:45:28Z</time>
      </trkpt>
      <trkpt lat="44.24067" lon="6.06497">
        <ele>1120.07</ele>
        <time>2021-05-06T07:45:42Z</time>
      </trkpt>
      <trkpt lat="44.24061" lon="6.06511">
        <ele>1121.03</ele>
        <time>2021-05-06T07:45:57Z</time>
      </trkpt>
      <trkpt lat="44.24052" lon="6.0653">
        <ele>1121.52</ele>
        <time>2021-05-06T07:46:14Z</time>
      </trkpt>
      <trkpt lat="44.24051" lon="6.06534">
        <ele>1121.52</ele>
        <time>2021-05-06T07:46:17Z</time>
      </trkpt>
      <trkpt lat="44.24051" lon="6.06537">
        <ele>1121.52</ele>
        <time>2021-05-06T07:46:20Z</time>
      </trkpt>
      <trkpt lat="44.24046" lon="6.06559">
        <ele>1122.48</ele>
        <time>2021-05-06T07:46:36Z</time>
      </trkpt>
      <trkpt lat="44.24046" lon="6.0656">
        <ele>1122</ele>
        <time>2021-05-06T07:46:37Z</time>
      </trkpt>
      <trkpt lat="44.24042" lon="6.06587">
        <ele>1122.48</ele>
        <time>2021-05-06T07:46:55Z</time>
      </trkpt>
      <trkpt lat="44.24038" lon="6.06613">
        <ele>1122.96</ele>
        <time>2021-05-06T07:47:12Z</time>
      </trkpt>
      <trkpt lat="44.24038" lon="6.06616">
        <ele>1122.96</ele>
        <time>2021-05-06T07:47:14Z</time>
      </trkpt>
      <trkpt lat="44.24035" lon="6.06643">
        <ele>1124.4</ele>
        <time>2021-05-06T07:47:32Z</time>
      </trkpt>
      <trkpt lat="44.24032" lon="6.06666">
        <ele>1124.88</ele>
        <time>2021-05-06T07:47:47Z</time>
      </trkpt>
      <trkpt lat="44.2403" lon="6.06693">
        <ele>1125.84</ele>
        <time>2021-05-06T07:48:05Z</time>
      </trkpt>
      <trkpt lat="44.2403" lon="6.06719">
        <ele>1125.36</ele>
        <time>2021-05-06T07:48:23Z</time>
      </trkpt>
      <trkpt lat="44.2403" lon="6.06743">
        <ele>1124.88</ele>
        <time>2021-05-06T07:48:39Z</time>
      </trkpt>
      <trkpt lat="44.24031" lon="6.06767">
        <ele>1125.36</ele>
        <time>2021-05-06T07:48:55Z</time>
      </trkpt>
      <trkpt lat="44.24031" lon="6.06792">
        <ele>1124.88</ele>
        <time>2021-05-06T07:49:12Z</time>
      </trkpt>
      <trkpt lat="44.24034" lon="6.06818">
        <ele>1125.36</ele>
        <time>2021-05-06T07:49:30Z</time>
      </trkpt>
      <trkpt lat="44.24034" lon="6.06841">
        <ele>1125.84</ele>
        <time>2021-05-06T07:49:47Z</time>
      </trkpt>
      <trkpt lat="44.24034" lon="6.06866">
        <ele>1126.32</ele>
        <time>2021-05-06T07:50:04Z</time>
      </trkpt>
      <trkpt lat="44.24032" lon="6.06873">
        <ele>1125.84</ele>
        <time>2021-05-06T07:50:09Z</time>
      </trkpt>
      <trkpt lat="44.24032" lon="6.06898">
        <ele>1126.8</ele>
        <time>2021-05-06T07:50:26Z</time>
      </trkpt>
      <trkpt lat="44.24032" lon="6.06899">
        <ele>1126.8</ele>
        <time>2021-05-06T07:50:27Z</time>
      </trkpt>
      <trkpt lat="44.24032" lon="6.06902">
        <ele>1126.8</ele>
        <time>2021-05-06T07:50:29Z</time>
      </trkpt>
      <trkpt lat="44.24034" lon="6.06927">
        <ele>1127.28</ele>
        <time>2021-05-06T07:50:46Z</time>
      </trkpt>
      <trkpt lat="44.24034" lon="6.06953">
        <ele>1128.24</ele>
        <time>2021-05-06T07:51:04Z</time>
      </trkpt>
      <trkpt lat="44.24034" lon="6.06962">
        <ele>1128.73</ele>
        <time>2021-05-06T07:51:10Z</time>
      </trkpt>
      <trkpt lat="44.24034" lon="6.06983">
        <ele>1129.21</ele>
        <time>2021-05-06T07:51:26Z</time>
      </trkpt>
      <trkpt lat="44.24034" lon="6.07006">
        <ele>1130.17</ele>
        <time>2021-05-06T07:51:43Z</time>
      </trkpt>
      <trkpt lat="44.24034" lon="6.07026">
        <ele>1130.65</ele>
        <time>2021-05-06T07:51:57Z</time>
      </trkpt>
      <trkpt lat="44.24029" lon="6.07049">
        <ele>1131.61</ele>
        <time>2021-05-06T07:52:15Z</time>
      </trkpt>
      <trkpt lat="44.24023" lon="6.07064">
        <ele>1132.57</ele>
        <time>2021-05-06T07:52:29Z</time>
      </trkpt>
      <trkpt lat="44.24016" lon="6.0708">
        <ele>1133.05</ele>
        <time>2021-05-06T07:52:44Z</time>
      </trkpt>
      <trkpt lat="44.24007" lon="6.07099">
        <ele>1134.01</ele>
        <time>2021-05-06T07:53:00Z</time>
      </trkpt>
      <trkpt lat="44.23999" lon="6.07122">
        <ele>1134.49</ele>
        <time>2021-05-06T07:53:18Z</time>
      </trkpt>
      <trkpt lat="44.23992" lon="6.07142">
        <ele>1135.45</ele>
        <time>2021-05-06T07:53:34Z</time>
      </trkpt>
      <trkpt lat="44.23986" lon="6.07165">
        <ele>1135.94</ele>
        <time>2021-05-06T07:53:51Z</time>
      </trkpt>
      <trkpt lat="44.23982" lon="6.07188">
        <ele>1136.9</ele>
        <time>2021-05-06T07:54:07Z</time>
      </trkpt>
      <trkpt lat="44.23979" lon="6.07212">
        <ele>1137.38</ele>
        <time>2021-05-06T07:54:24Z</time>
      </trkpt>
      <trkpt lat="44.23974" lon="6.07234">
        <ele>1138.34</ele>
        <time>2021-05-06T07:54:41Z</time>
      </trkpt>
      <trkpt lat="44.2397" lon="6.07253">
        <ele>1139.3</ele>
        <time>2021-05-06T07:54:56Z</time>
      </trkpt>
      <trkpt lat="44.23968" lon="6.07258">
        <ele>1139.3</ele>
        <time>2021-05-06T07:55:01Z</time>
      </trkpt>
      <trkpt lat="44.23961" lon="6.07281">
        <ele>1140.74</ele>
        <time>2021-05-06T07:55:19Z</time>
      </trkpt>
      <trkpt lat="44.23955" lon="6.07296">
        <ele>1141.22</ele>
        <time>2021-05-06T07:55:32Z</time>
      </trkpt>
      <trkpt lat="44.23959" lon="6.07314">
        <ele>1142.66</ele>
        <time>2021-05-06T07:55:47Z</time>
      </trkpt>
      <trkpt lat="44.23963" lon="6.07327">
        <ele>1142.66</ele>
        <time>2021-05-06T07:56:01Z</time>
      </trkpt>
      <trkpt lat="44.23964" lon="6.07345">
        <ele>1142.66</ele>
        <time>2021-05-06T07:56:17Z</time>
      </trkpt>
      <trkpt lat="44.23964" lon="6.07366">
        <ele>1143.14</ele>
        <time>2021-05-06T07:56:32Z</time>
      </trkpt>
      <trkpt lat="44.23962" lon="6.07389">
        <ele>1143.14</ele>
        <time>2021-05-06T07:56:49Z</time>
      </trkpt>
      <trkpt lat="44.23956" lon="6.07417">
        <ele>1143.63</ele>
        <time>2021-05-06T07:57:10Z</time>
      </trkpt>
      <trkpt lat="44.23951" lon="6.07438">
        <ele>1144.11</ele>
        <time>2021-05-06T07:57:25Z</time>
      </trkpt>
      <trkpt lat="44.23949" lon="6.07461">
        <ele>1144.11</ele>
        <time>2021-05-06T07:57:41Z</time>
      </trkpt>
      <trkpt lat="44.23949" lon="6.07483">
        <ele>1144.59</ele>
        <time>2021-05-06T07:57:57Z</time>
      </trkpt>
      <trkpt lat="44.23948" lon="6.07484">
        <ele>1144.59</ele>
        <time>2021-05-06T07:58:16Z</time>
      </trkpt>
      <trkpt lat="44.23947" lon="6.07494">
        <ele>1145.07</ele>
        <time>2021-05-06T07:58:29Z</time>
      </trkpt>
      <trkpt lat="44.23949" lon="6.07508">
        <ele>1145.07</ele>
        <time>2021-05-06T07:58:43Z</time>
      </trkpt>
      <trkpt lat="44.2395" lon="6.07523">
        <ele>1145.55</ele>
        <time>2021-05-06T07:58:57Z</time>
      </trkpt>
      <trkpt lat="44.23949" lon="6.07541">
        <ele>1146.51</ele>
        <time>2021-05-06T07:59:11Z</time>
      </trkpt>
      <trkpt lat="44.23947" lon="6.07562">
        <ele>1146.99</ele>
        <time>2021-05-06T07:59:28Z</time>
      </trkpt>
      <trkpt lat="44.23944" lon="6.07584">
        <ele>1147.95</ele>
        <time>2021-05-06T07:59:44Z</time>
      </trkpt>
      <trkpt lat="44.23942" lon="6.07596">
        <ele>1147.95</ele>
        <time>2021-05-06T07:59:53Z</time>
      </trkpt>
      <trkpt lat="44.23939" lon="6.07612">
        <ele>1148.91</ele>
        <time>2021-05-06T08:00:06Z</time>
      </trkpt>
      <trkpt lat="44.23934" lon="6.07636">
        <ele>1148.91</ele>
        <time>2021-05-06T08:00:24Z</time>
      </trkpt>
      <trkpt lat="44.23931" lon="6.07659">
        <ele>1149.87</ele>
        <time>2021-05-06T08:00:42Z</time>
      </trkpt>
      <trkpt lat="44.23926" lon="6.0768">
        <ele>1150.35</ele>
        <time>2021-05-06T08:00:57Z</time>
      </trkpt>
      <trkpt lat="44.23922" lon="6.07702">
        <ele>1150.84</ele>
        <time>2021-05-06T08:01:13Z</time>
      </trkpt>
      <trkpt lat="44.23922" lon="6.07704">
        <ele>1150.84</ele>
        <time>2021-05-06T08:01:15Z</time>
      </trkpt>
      <trkpt lat="44.2392" lon="6.07711">
        <ele>1150.84</ele>
        <time>2021-05-06T08:01:20Z</time>
      </trkpt>
      <trkpt lat="44.23911" lon="6.07733">
        <ele>1151.8</ele>
        <time>2021-05-06T08:01:38Z</time>
      </trkpt>
      <trkpt lat="44.23904" lon="6.07758">
        <ele>1151.32</ele>
        <time>2021-05-06T08:01:56Z</time>
      </trkpt>
      <trkpt lat="44.23898" lon="6.0778">
        <ele>1151.8</ele>
        <time>2021-05-06T08:02:14Z</time>
      </trkpt>
      <trkpt lat="44.23894" lon="6.07799">
        <ele>1152.28</ele>
        <time>2021-05-06T08:02:29Z</time>
      </trkpt>
      <trkpt lat="44.23892" lon="6.07804">
        <ele>1152.28</ele>
        <time>2021-05-06T08:02:45Z</time>
      </trkpt>
      <trkpt lat="44.2389" lon="6.0781">
        <ele>1152.28</ele>
        <time>2021-05-06T08:03:00Z</time>
      </trkpt>
      <trkpt lat="44.23883" lon="6.07819">
        <ele>1152.76</ele>
        <time>2021-05-06T08:03:14Z</time>
      </trkpt>
      <trkpt lat="44.23882" lon="6.0782">
        <ele>1152.76</ele>
        <time>2021-05-06T08:03:15Z</time>
      </trkpt>
      <trkpt lat="44.23872" lon="6.07828">
        <ele>1153.24</ele>
        <time>2021-05-06T08:03:30Z</time>
      </trkpt>
      <trkpt lat="44.23862" lon="6.07834">
        <ele>1154.68</ele>
        <time>2021-05-06T08:03:44Z</time>
      </trkpt>
      <trkpt lat="44.2385" lon="6.0784">
        <ele>1155.16</ele>
        <time>2021-05-06T08:03:59Z</time>
      </trkpt>
      <trkpt lat="44.23843" lon="6.07841">
        <ele>1155.16</ele>
        <time>2021-05-06T08:04:13Z</time>
      </trkpt>
      <trkpt lat="44.23843" lon="6.07842">
        <ele>1155.16</ele>
        <time>2021-05-06T08:04:32Z</time>
      </trkpt>
      <trkpt lat="44.23832" lon="6.07842">
        <ele>1154.2</ele>
        <time>2021-05-06T08:04:46Z</time>
      </trkpt>
      <trkpt lat="44.23816" lon="6.07839">
        <ele>1151.32</ele>
        <time>2021-05-06T08:05:04Z</time>
      </trkpt>
      <trkpt lat="44.23802" lon="6.0784">
        <ele>1149.39</ele>
        <time>2021-05-06T08:05:19Z</time>
      </trkpt>
      <trkpt lat="44.23797" lon="6.07844">
        <ele>1148.91</ele>
        <time>2021-05-06T08:05:24Z</time>
      </trkpt>
      <trkpt lat="44.23794" lon="6.07847">
        <ele>1147.95</ele>
        <time>2021-05-06T08:05:28Z</time>
      </trkpt>
      <trkpt lat="44.23783" lon="6.07866">
        <ele>1146.99</ele>
        <time>2021-05-06T08:05:45Z</time>
      </trkpt>
      <trkpt lat="44.23778" lon="6.07873">
        <ele>1147.47</ele>
        <time>2021-05-06T08:05:53Z</time>
      </trkpt>
      <trkpt lat="44.23766" lon="6.07881">
        <ele>1148.91</ele>
        <time>2021-05-06T08:06:07Z</time>
      </trkpt>
      <trkpt lat="44.23754" lon="6.07885">
        <ele>1149.39</ele>
        <time>2021-05-06T08:06:20Z</time>
      </trkpt>
      <trkpt lat="44.23746" lon="6.07888">
        <ele>1149.87</ele>
        <time>2021-05-06T08:06:29Z</time>
      </trkpt>
      <trkpt lat="44.23744" lon="6.0789">
        <ele>1149.87</ele>
        <time>2021-05-06T08:06:31Z</time>
      </trkpt>
      <trkpt lat="44.23729" lon="6.07898">
        <ele>1151.32</ele>
        <time>2021-05-06T08:06:49Z</time>
      </trkpt>
      <trkpt lat="44.23717" lon="6.07909">
        <ele>1152.76</ele>
        <time>2021-05-06T08:07:05Z</time>
      </trkpt>
      <trkpt lat="44.23707" lon="6.07916">
        <ele>1154.2</ele>
        <time>2021-05-06T08:07:19Z</time>
      </trkpt>
      <trkpt lat="44.23698" lon="6.07925">
        <ele>1155.16</ele>
        <time>2021-05-06T08:07:33Z</time>
      </trkpt>
      <trkpt lat="44.2369" lon="6.07932">
        <ele>1155.64</ele>
        <time>2021-05-06T08:07:42Z</time>
      </trkpt>
      <trkpt lat="44.23686" lon="6.07949">
        <ele>1156.12</ele>
        <time>2021-05-06T08:07:57Z</time>
      </trkpt>
      <trkpt lat="44.23686" lon="6.0795">
        <ele>1156.12</ele>
        <time>2021-05-06T08:07:58Z</time>
      </trkpt>
      <trkpt lat="44.23688" lon="6.07969">
        <ele>1155.16</ele>
        <time>2021-05-06T08:08:13Z</time>
      </trkpt>
      <trkpt lat="44.23689" lon="6.07993">
        <ele>1154.68</ele>
        <time>2021-05-06T08:08:30Z</time>
      </trkpt>
      <trkpt lat="44.23692" lon="6.08011">
        <ele>1155.64</ele>
        <time>2021-05-06T08:08:45Z</time>
      </trkpt>
      <trkpt lat="44.23693" lon="6.08021">
        <ele>1155.64</ele>
        <time>2021-05-06T08:08:53Z</time>
      </trkpt>
      <trkpt lat="44.23696" lon="6.08042">
        <ele>1154.68</ele>
        <time>2021-05-06T08:09:10Z</time>
      </trkpt>
      <trkpt lat="44.23706" lon="6.0806">
        <ele>1155.16</ele>
        <time>2021-05-06T08:09:29Z</time>
      </trkpt>
      <trkpt lat="44.23712" lon="6.08069">
        <ele>1156.12</ele>
        <time>2021-05-06T08:09:43Z</time>
      </trkpt>
      <trkpt lat="44.23712" lon="6.0807">
        <ele>1156.12</ele>
        <time>2021-05-06T08:10:05Z</time>
      </trkpt>
      <trkpt lat="44.23713" lon="6.0807">
        <ele>1156.12</ele>
        <time>2021-05-06T08:10:26Z</time>
      </trkpt>
      <trkpt lat="44.23714" lon="6.0807">
        <ele>1156.6</ele>
        <time>2021-05-06T08:10:52Z</time>
      </trkpt>
      <trkpt lat="44.23715" lon="6.08071">
        <ele>1157.08</ele>
        <time>2021-05-06T08:11:05Z</time>
      </trkpt>
      <trkpt lat="44.23716" lon="6.08072">
        <ele>1156.6</ele>
        <time>2021-05-06T08:11:20Z</time>
      </trkpt>
      <trkpt lat="44.23718" lon="6.08071">
        <ele>1157.56</ele>
        <time>2021-05-06T08:11:48Z</time>
      </trkpt>
      <trkpt lat="44.23716" lon="6.08072">
        <ele>1157.56</ele>
        <time>2021-05-06T08:12:13Z</time>
      </trkpt>
      <trkpt lat="44.23715" lon="6.08072">
        <ele>1157.08</ele>
        <time>2021-05-06T08:12:26Z</time>
      </trkpt>
      <trkpt lat="44.23717" lon="6.08074">
        <ele>1156.6</ele>
        <time>2021-05-06T08:12:44Z</time>
      </trkpt>
      <trkpt lat="44.23712" lon="6.08072">
        <ele>1157.08</ele>
        <time>2021-05-06T08:13:18Z</time>
      </trkpt>
      <trkpt lat="44.2371" lon="6.08072">
        <ele>1157.08</ele>
        <time>2021-05-06T08:13:46Z</time>
      </trkpt>
      <trkpt lat="44.23709" lon="6.08071">
        <ele>1157.08</ele>
        <time>2021-05-06T08:14:18Z</time>
      </trkpt>
      <trkpt lat="44.23707" lon="6.0807">
        <ele>1157.56</ele>
        <time>2021-05-06T08:14:53Z</time>
      </trkpt>
      <trkpt lat="44.23715" lon="6.0807">
        <ele>1157.56</ele>
        <time>2021-05-06T08:15:25Z</time>
      </trkpt>
      <trkpt lat="44.23713" lon="6.0807">
        <ele>1158.05</ele>
        <time>2021-05-06T08:15:45Z</time>
      </trkpt>
      <trkpt lat="44.23712" lon="6.08072">
        <ele>1157.56</ele>
        <time>2021-05-06T08:16:20Z</time>
      </trkpt>
      <trkpt lat="44.23711" lon="6.08069">
        <ele>1158.05</ele>
        <time>2021-05-06T08:17:01Z</time>
      </trkpt>
      <trkpt lat="44.23711" lon="6.0807">
        <ele>1158.05</ele>
        <time>2021-05-06T08:17:28Z</time>
      </trkpt>
      <trkpt lat="44.23711" lon="6.08072">
        <ele>1158.05</ele>
        <time>2021-05-06T08:17:56Z</time>
      </trkpt>
      <trkpt lat="44.2371" lon="6.08071">
        <ele>1158.05</ele>
        <time>2021-05-06T08:18:21Z</time>
      </trkpt>
      <trkpt lat="44.23713" lon="6.08072">
        <ele>1158.53</ele>
        <time>2021-05-06T08:18:59Z</time>
      </trkpt>
      <trkpt lat="44.23715" lon="6.08075">
        <ele>1158.05</ele>
        <time>2021-05-06T08:19:31Z</time>
      </trkpt>
      <trkpt lat="44.23717" lon="6.08075">
        <ele>1158.05</ele>
        <time>2021-05-06T08:20:10Z</time>
      </trkpt>
      <trkpt lat="44.23716" lon="6.08071">
        <ele>1158.05</ele>
        <time>2021-05-06T08:21:01Z</time>
      </trkpt>
      <trkpt lat="44.23714" lon="6.08074">
        <ele>1158.05</ele>
        <time>2021-05-06T08:21:34Z</time>
      </trkpt>
      <trkpt lat="44.23715" lon="6.08076">
        <ele>1158.53</ele>
        <time>2021-05-06T08:22:04Z</time>
      </trkpt>
      <trkpt lat="44.23714" lon="6.08078">
        <ele>1158.05</ele>
        <time>2021-05-06T08:22:35Z</time>
      </trkpt>
      <trkpt lat="44.23714" lon="6.08078">
        <ele>1158.05</ele>
        <time>2021-05-06T08:23:08Z</time>
      </trkpt>
      <trkpt lat="44.23716" lon="6.08079">
        <ele>1158.05</ele>
        <time>2021-05-06T08:23:48Z</time>
      </trkpt>
      <trkpt lat="44.23715" lon="6.08077">
        <ele>1158.05</ele>
        <time>2021-05-06T08:24:29Z</time>
      </trkpt>
      <trkpt lat="44.23715" lon="6.08077">
        <ele>1158.05</ele>
        <time>2021-05-06T08:24:35Z</time>
      </trkpt>
      <trkpt lat="44.23712" lon="6.08077">
        <ele>1158.05</ele>
        <time>2021-05-06T08:24:42Z</time>
      </trkpt>
      <trkpt lat="44.23711" lon="6.08072">
        <ele>1158.05</ele>
        <time>2021-05-06T08:25:02Z</time>
      </trkpt>
      <trkpt lat="44.23712" lon="6.08074">
        <ele>1159.01</ele>
        <time>2021-05-06T08:25:11Z</time>
      </trkpt>
      <trkpt lat="44.23715" lon="6.08073">
        <ele>1159.01</ele>
        <time>2021-05-06T08:25:30Z</time>
      </trkpt>
      <trkpt lat="44.23711" lon="6.08067">
        <ele>1158.53</ele>
        <time>2021-05-06T08:25:54Z</time>
      </trkpt>
      <trkpt lat="44.237" lon="6.08053">
        <ele>1157.08</ele>
        <time>2021-05-06T08:26:11Z</time>
      </trkpt>
      <trkpt lat="44.23697" lon="6.08045">
        <ele>1157.08</ele>
        <time>2021-05-06T08:26:18Z</time>
      </trkpt>
      <trkpt lat="44.23694" lon="6.08026">
        <ele>1157.56</ele>
        <time>2021-05-06T08:26:32Z</time>
      </trkpt>
      <trkpt lat="44.23692" lon="6.08011">
        <ele>1158.05</ele>
        <time>2021-05-06T08:26:45Z</time>
      </trkpt>
      <trkpt lat="44.23693" lon="6.08007">
        <ele>1158.05</ele>
        <time>2021-05-06T08:26:49Z</time>
      </trkpt>
      <trkpt lat="44.23692" lon="6.08">
        <ele>1158.05</ele>
        <time>2021-05-06T08:26:54Z</time>
      </trkpt>
      <trkpt lat="44.23691" lon="6.07983">
        <ele>1157.08</ele>
        <time>2021-05-06T08:27:07Z</time>
      </trkpt>
      <trkpt lat="44.23688" lon="6.07967">
        <ele>1157.08</ele>
        <time>2021-05-06T08:27:19Z</time>
      </trkpt>
      <trkpt lat="44.23688" lon="6.07949">
        <ele>1158.53</ele>
        <time>2021-05-06T08:27:33Z</time>
      </trkpt>
      <trkpt lat="44.23688" lon="6.07934">
        <ele>1158.05</ele>
        <time>2021-05-06T08:27:45Z</time>
      </trkpt>
      <trkpt lat="44.23697" lon="6.07923">
        <ele>1157.56</ele>
        <time>2021-05-06T08:27:58Z</time>
      </trkpt>
      <trkpt lat="44.23704" lon="6.07917">
        <ele>1156.6</ele>
        <time>2021-05-06T08:28:06Z</time>
      </trkpt>
      <trkpt lat="44.23718" lon="6.07908">
        <ele>1155.16</ele>
        <time>2021-05-06T08:28:22Z</time>
      </trkpt>
      <trkpt lat="44.23727" lon="6.07899">
        <ele>1153.72</ele>
        <time>2021-05-06T08:28:35Z</time>
      </trkpt>
      <trkpt lat="44.23742" lon="6.07889">
        <ele>1151.8</ele>
        <time>2021-05-06T08:28:52Z</time>
      </trkpt>
      <trkpt lat="44.23757" lon="6.07882">
        <ele>1150.84</ele>
        <time>2021-05-06T08:29:08Z</time>
      </trkpt>
      <trkpt lat="44.23774" lon="6.07875">
        <ele>1149.87</ele>
        <time>2021-05-06T08:29:26Z</time>
      </trkpt>
      <trkpt lat="44.23784" lon="6.0786">
        <ele>1148.43</ele>
        <time>2021-05-06T08:29:41Z</time>
      </trkpt>
      <trkpt lat="44.23791" lon="6.07849">
        <ele>1148.91</ele>
        <time>2021-05-06T08:29:51Z</time>
      </trkpt>
      <trkpt lat="44.23792" lon="6.07847">
        <ele>1148.91</ele>
        <time>2021-05-06T08:29:53Z</time>
      </trkpt>
      <trkpt lat="44.23798" lon="6.07841">
        <ele>1149.39</ele>
        <time>2021-05-06T08:30:00Z</time>
      </trkpt>
      <trkpt lat="44.2381" lon="6.07837">
        <ele>1150.84</ele>
        <time>2021-05-06T08:30:14Z</time>
      </trkpt>
      <trkpt lat="44.23825" lon="6.07839">
        <ele>1152.76</ele>
        <time>2021-05-06T08:30:31Z</time>
      </trkpt>
      <trkpt lat="44.23835" lon="6.0784">
        <ele>1154.2</ele>
        <time>2021-05-06T08:30:45Z</time>
      </trkpt>
      <trkpt lat="44.23843" lon="6.07839">
        <ele>1156.12</ele>
        <time>2021-05-06T08:30:59Z</time>
      </trkpt>
      <trkpt lat="44.23849" lon="6.07839">
        <ele>1155.64</ele>
        <time>2021-05-06T08:31:12Z</time>
      </trkpt>
      <trkpt lat="44.23861" lon="6.07833">
        <ele>1156.12</ele>
        <time>2021-05-06T08:31:26Z</time>
      </trkpt>
      <trkpt lat="44.23871" lon="6.07827">
        <ele>1154.68</ele>
        <time>2021-05-06T08:31:40Z</time>
      </trkpt>
      <trkpt lat="44.23884" lon="6.07818">
        <ele>1153.72</ele>
        <time>2021-05-06T08:31:55Z</time>
      </trkpt>
      <trkpt lat="44.23889" lon="6.07812">
        <ele>1153.24</ele>
        <time>2021-05-06T08:32:02Z</time>
      </trkpt>
      <trkpt lat="44.23896" lon="6.07812">
        <ele>1152.28</ele>
        <time>2021-05-06T08:32:12Z</time>
      </trkpt>
      <trkpt lat="44.23891" lon="6.07834">
        <ele>1151.8</ele>
        <time>2021-05-06T08:32:28Z</time>
      </trkpt>
      <trkpt lat="44.23884" lon="6.07855">
        <ele>1151.8</ele>
        <time>2021-05-06T08:32:45Z</time>
      </trkpt>
      <trkpt lat="44.23879" lon="6.07878">
        <ele>1150.84</ele>
        <time>2021-05-06T08:33:03Z</time>
      </trkpt>
      <trkpt lat="44.23889" lon="6.07894">
        <ele>1148.91</ele>
        <time>2021-05-06T08:33:20Z</time>
      </trkpt>
      <trkpt lat="44.23898" lon="6.0791">
        <ele>1146.99</ele>
        <time>2021-05-06T08:33:36Z</time>
      </trkpt>
      <trkpt lat="44.23909" lon="6.07926">
        <ele>1145.07</ele>
        <time>2021-05-06T08:33:55Z</time>
      </trkpt>
      <trkpt lat="44.23916" lon="6.0793">
        <ele>1144.59</ele>
        <time>2021-05-06T08:34:03Z</time>
      </trkpt>
      <trkpt lat="44.23919" lon="6.0794">
        <ele>1143.14</ele>
        <time>2021-05-06T08:34:12Z</time>
      </trkpt>
      <trkpt lat="44.23907" lon="6.07945">
        <ele>1141.22</ele>
        <time>2021-05-06T08:34:28Z</time>
      </trkpt>
      <trkpt lat="44.23896" lon="6.07944">
        <ele>1139.78</ele>
        <time>2021-05-06T08:34:43Z</time>
      </trkpt>
      <trkpt lat="44.23887" lon="6.07949">
        <ele>1138.34</ele>
        <time>2021-05-06T08:34:54Z</time>
      </trkpt>
      <trkpt lat="44.23871" lon="6.07958">
        <ele>1135.94</ele>
        <time>2021-05-06T08:35:13Z</time>
      </trkpt>
      <trkpt lat="44.23855" lon="6.07958">
        <ele>1133.53</ele>
        <time>2021-05-06T08:35:32Z</time>
      </trkpt>
      <trkpt lat="44.23848" lon="6.07959">
        <ele>1132.09</ele>
        <time>2021-05-06T08:35:41Z</time>
      </trkpt>
      <trkpt lat="44.23842" lon="6.07964">
        <ele>1131.13</ele>
        <time>2021-05-06T08:35:48Z</time>
      </trkpt>
      <trkpt lat="44.23839" lon="6.07983">
        <ele>1129.21</ele>
        <time>2021-05-06T08:36:05Z</time>
      </trkpt>
      <trkpt lat="44.23839" lon="6.07996">
        <ele>1127.76</ele>
        <time>2021-05-06T08:36:22Z</time>
      </trkpt>
      <trkpt lat="44.23838" lon="6.08018">
        <ele>1125.36</ele>
        <time>2021-05-06T08:36:40Z</time>
      </trkpt>
      <trkpt lat="44.23835" lon="6.08039">
        <ele>1122.96</ele>
        <time>2021-05-06T08:36:56Z</time>
      </trkpt>
      <trkpt lat="44.2383" lon="6.0806">
        <ele>1121.03</ele>
        <time>2021-05-06T08:37:12Z</time>
      </trkpt>
      <trkpt lat="44.2382" lon="6.08083">
        <ele>1119.11</ele>
        <time>2021-05-06T08:37:31Z</time>
      </trkpt>
      <trkpt lat="44.23813" lon="6.08101">
        <ele>1116.23</ele>
        <time>2021-05-06T08:37:49Z</time>
      </trkpt>
      <trkpt lat="44.23814" lon="6.08116">
        <ele>1114.31</ele>
        <time>2021-05-06T08:38:02Z</time>
      </trkpt>
      <trkpt lat="44.23812" lon="6.08131">
        <ele>1112.86</ele>
        <time>2021-05-06T08:38:17Z</time>
      </trkpt>
      <trkpt lat="44.23805" lon="6.08146">
        <ele>1109.5</ele>
        <time>2021-05-06T08:38:33Z</time>
      </trkpt>
      <trkpt lat="44.23792" lon="6.0816">
        <ele>1107.1</ele>
        <time>2021-05-06T08:38:50Z</time>
      </trkpt>
      <trkpt lat="44.23779" lon="6.08173">
        <ele>1103.73</ele>
        <time>2021-05-06T08:39:07Z</time>
      </trkpt>
      <trkpt lat="44.23765" lon="6.08186">
        <ele>1100.85</ele>
        <time>2021-05-06T08:39:25Z</time>
      </trkpt>
      <trkpt lat="44.2375" lon="6.08198">
        <ele>1097.96</ele>
        <time>2021-05-06T08:39:43Z</time>
      </trkpt>
      <trkpt lat="44.23744" lon="6.08205">
        <ele>1096.52</ele>
        <time>2021-05-06T08:39:51Z</time>
      </trkpt>
      <trkpt lat="44.23742" lon="6.08207">
        <ele>1096.04</ele>
        <time>2021-05-06T08:39:54Z</time>
      </trkpt>
      <trkpt lat="44.23727" lon="6.08222">
        <ele>1093.16</ele>
        <time>2021-05-06T08:40:14Z</time>
      </trkpt>
      <trkpt lat="44.23714" lon="6.08233">
        <ele>1090.75</ele>
        <time>2021-05-06T08:40:31Z</time>
      </trkpt>
      <trkpt lat="44.23701" lon="6.08242">
        <ele>1088.35</ele>
        <time>2021-05-06T08:40:49Z</time>
      </trkpt>
      <trkpt lat="44.23694" lon="6.08249">
        <ele>1086.91</ele>
        <time>2021-05-06T08:41:03Z</time>
      </trkpt>
      <trkpt lat="44.23687" lon="6.08248">
        <ele>1085.95</ele>
        <time>2021-05-06T08:41:13Z</time>
      </trkpt>
      <trkpt lat="44.23676" lon="6.0825">
        <ele>1085.95</ele>
        <time>2021-05-06T08:41:27Z</time>
      </trkpt>
      <trkpt lat="44.23672" lon="6.08257">
        <ele>1085.95</ele>
        <time>2021-05-06T08:41:35Z</time>
      </trkpt>
      <trkpt lat="44.2366" lon="6.08264">
        <ele>1084.99</ele>
        <time>2021-05-06T08:41:50Z</time>
      </trkpt>
      <trkpt lat="44.23646" lon="6.08268">
        <ele>1084.5</ele>
        <time>2021-05-06T08:42:07Z</time>
      </trkpt>
      <trkpt lat="44.23633" lon="6.08277">
        <ele>1083.54</ele>
        <time>2021-05-06T08:42:22Z</time>
      </trkpt>
      <trkpt lat="44.23622" lon="6.0828">
        <ele>1083.54</ele>
        <time>2021-05-06T08:42:36Z</time>
      </trkpt>
      <trkpt lat="44.2362" lon="6.08281">
        <ele>1083.54</ele>
        <time>2021-05-06T08:42:38Z</time>
      </trkpt>
      <trkpt lat="44.23608" lon="6.08285">
        <ele>1084.5</ele>
        <time>2021-05-06T08:42:52Z</time>
      </trkpt>
      <trkpt lat="44.23595" lon="6.08291">
        <ele>1083.54</ele>
        <time>2021-05-06T08:43:08Z</time>
      </trkpt>
      <trkpt lat="44.23577" lon="6.08288">
        <ele>1084.02</ele>
        <time>2021-05-06T08:43:26Z</time>
      </trkpt>
      <trkpt lat="44.23572" lon="6.08287">
        <ele>1084.5</ele>
        <time>2021-05-06T08:43:32Z</time>
      </trkpt>
      <trkpt lat="44.23559" lon="6.08286">
        <ele>1085.95</ele>
        <time>2021-05-06T08:43:48Z</time>
      </trkpt>
      <trkpt lat="44.2355" lon="6.08286">
        <ele>1086.91</ele>
        <time>2021-05-06T08:43:59Z</time>
      </trkpt>
      <trkpt lat="44.23539" lon="6.08291">
        <ele>1087.87</ele>
        <time>2021-05-06T08:44:12Z</time>
      </trkpt>
      <trkpt lat="44.23527" lon="6.08292">
        <ele>1089.79</ele>
        <time>2021-05-06T08:44:27Z</time>
      </trkpt>
      <trkpt lat="44.23527" lon="6.08291">
        <ele>1089.79</ele>
        <time>2021-05-06T08:44:57Z</time>
      </trkpt>
      <trkpt lat="44.23526" lon="6.08291">
        <ele>1089.79</ele>
        <time>2021-05-06T08:45:23Z</time>
      </trkpt>
      <trkpt lat="44.23526" lon="6.08292">
        <ele>1089.79</ele>
        <time>2021-05-06T08:45:43Z</time>
      </trkpt>
      <trkpt lat="44.23526" lon="6.08291">
        <ele>1089.79</ele>
        <time>2021-05-06T08:46:13Z</time>
      </trkpt>
      <trkpt lat="44.23525" lon="6.08292">
        <ele>1090.27</ele>
        <time>2021-05-06T08:46:45Z</time>
      </trkpt>
      <trkpt lat="44.23527" lon="6.08293">
        <ele>1089.79</ele>
        <time>2021-05-06T08:47:14Z</time>
      </trkpt>
      <trkpt lat="44.23525" lon="6.0829">
        <ele>1090.27</ele>
        <time>2021-05-06T08:47:37Z</time>
      </trkpt>
      <trkpt lat="44.23509" lon="6.08291">
        <ele>1091.23</ele>
        <time>2021-05-06T08:47:54Z</time>
      </trkpt>
      <trkpt lat="44.235" lon="6.0829">
        <ele>1092.68</ele>
        <time>2021-05-06T08:48:10Z</time>
      </trkpt>
      <trkpt lat="44.23492" lon="6.08287">
        <ele>1092.68</ele>
        <time>2021-05-06T08:48:26Z</time>
      </trkpt>
      <trkpt lat="44.23476" lon="6.08273">
        <ele>1092.2</ele>
        <time>2021-05-06T08:48:42Z</time>
      </trkpt>
      <trkpt lat="44.23458" lon="6.08259">
        <ele>1091.23</ele>
        <time>2021-05-06T08:49:00Z</time>
      </trkpt>
      <trkpt lat="44.23441" lon="6.08247">
        <ele>1091.71</ele>
        <time>2021-05-06T08:49:16Z</time>
      </trkpt>
      <trkpt lat="44.23421" lon="6.08233">
        <ele>1091.23</ele>
        <time>2021-05-06T08:49:35Z</time>
      </trkpt>
      <trkpt lat="44.234" lon="6.0822">
        <ele>1088.35</ele>
        <time>2021-05-06T08:49:55Z</time>
      </trkpt>
      <trkpt lat="44.23378" lon="6.08212">
        <ele>1087.39</ele>
        <time>2021-05-06T08:50:15Z</time>
      </trkpt>
      <trkpt lat="44.23361" lon="6.08214">
        <ele>1086.43</ele>
        <time>2021-05-06T08:50:31Z</time>
      </trkpt>
      <trkpt lat="44.23348" lon="6.08214">
        <ele>1088.35</ele>
        <time>2021-05-06T08:50:45Z</time>
      </trkpt>
      <trkpt lat="44.23328" lon="6.08222">
        <ele>1087.87</ele>
        <time>2021-05-06T08:51:04Z</time>
      </trkpt>
      <trkpt lat="44.23322" lon="6.08222">
        <ele>1087.87</ele>
        <time>2021-05-06T08:51:11Z</time>
      </trkpt>
      <trkpt lat="44.2331" lon="6.08223">
        <ele>1085.95</ele>
        <time>2021-05-06T08:51:25Z</time>
      </trkpt>
      <trkpt lat="44.23308" lon="6.08222">
        <ele>1085.95</ele>
        <time>2021-05-06T08:51:27Z</time>
      </trkpt>
      <trkpt lat="44.2329" lon="6.08221">
        <ele>1084.5</ele>
        <time>2021-05-06T08:51:46Z</time>
      </trkpt>
      <trkpt lat="44.23285" lon="6.08217">
        <ele>1084.5</ele>
        <time>2021-05-06T08:51:58Z</time>
      </trkpt>
      <trkpt lat="44.2328" lon="6.08199">
        <ele>1083.54</ele>
        <time>2021-05-06T08:52:14Z</time>
      </trkpt>
      <trkpt lat="44.23276" lon="6.08185">
        <ele>1083.54</ele>
        <time>2021-05-06T08:52:31Z</time>
      </trkpt>
      <trkpt lat="44.23273" lon="6.08172">
        <ele>1084.5</ele>
        <time>2021-05-06T08:52:42Z</time>
      </trkpt>
      <trkpt lat="44.23264" lon="6.08153">
        <ele>1085.95</ele>
        <time>2021-05-06T08:53:00Z</time>
      </trkpt>
      <trkpt lat="44.23256" lon="6.0813">
        <ele>1084.5</ele>
        <time>2021-05-06T08:53:17Z</time>
      </trkpt>
      <trkpt lat="44.23244" lon="6.08114">
        <ele>1082.58</ele>
        <time>2021-05-06T08:53:33Z</time>
      </trkpt>
      <trkpt lat="44.23235" lon="6.08098">
        <ele>1083.54</ele>
        <time>2021-05-06T08:53:47Z</time>
      </trkpt>
      <trkpt lat="44.23217" lon="6.08089">
        <ele>1081.14</ele>
        <time>2021-05-06T08:54:05Z</time>
      </trkpt>
      <trkpt lat="44.23204" lon="6.08079">
        <ele>1080.66</ele>
        <time>2021-05-06T08:54:21Z</time>
      </trkpt>
      <trkpt lat="44.23194" lon="6.08075">
        <ele>1079.7</ele>
        <time>2021-05-06T08:54:34Z</time>
      </trkpt>
      <trkpt lat="44.23191" lon="6.08074">
        <ele>1078.74</ele>
        <time>2021-05-06T08:54:38Z</time>
      </trkpt>
      <trkpt lat="44.23177" lon="6.08065">
        <ele>1077.78</ele>
        <time>2021-05-06T08:54:55Z</time>
      </trkpt>
      <trkpt lat="44.23166" lon="6.08056">
        <ele>1075.37</ele>
        <time>2021-05-06T08:55:11Z</time>
      </trkpt>
      <trkpt lat="44.23162" lon="6.08065">
        <ele>1075.37</ele>
        <time>2021-05-06T08:55:19Z</time>
      </trkpt>
      <trkpt lat="44.23158" lon="6.08067">
        <ele>1074.89</ele>
        <time>2021-05-06T08:55:23Z</time>
      </trkpt>
      <trkpt lat="44.23139" lon="6.08058">
        <ele>1073.45</ele>
        <time>2021-05-06T08:55:42Z</time>
      </trkpt>
      <trkpt lat="44.23125" lon="6.08056">
        <ele>1072.01</ele>
        <time>2021-05-06T08:55:58Z</time>
      </trkpt>
      <trkpt lat="44.23112" lon="6.08049">
        <ele>1070.08</ele>
        <time>2021-05-06T08:56:14Z</time>
      </trkpt>
      <trkpt lat="44.23096" lon="6.08039">
        <ele>1068.16</ele>
        <time>2021-05-06T08:56:33Z</time>
      </trkpt>
      <trkpt lat="44.23088" lon="6.08034">
        <ele>1068.16</ele>
        <time>2021-05-06T08:56:47Z</time>
      </trkpt>
      <trkpt lat="44.2308" lon="6.08031">
        <ele>1068.16</ele>
        <time>2021-05-06T08:56:57Z</time>
      </trkpt>
      <trkpt lat="44.23073" lon="6.08018">
        <ele>1067.2</ele>
        <time>2021-05-06T08:57:13Z</time>
      </trkpt>
      <trkpt lat="44.23063" lon="6.0801">
        <ele>1064.32</ele>
        <time>2021-05-06T08:57:28Z</time>
      </trkpt>
      <trkpt lat="44.23048" lon="6.08008">
        <ele>1062.87</ele>
        <time>2021-05-06T08:57:44Z</time>
      </trkpt>
      <trkpt lat="44.23043" lon="6.08007">
        <ele>1062.39</ele>
        <time>2021-05-06T08:57:58Z</time>
      </trkpt>
      <trkpt lat="44.23031" lon="6.08003">
        <ele>1062.39</ele>
        <time>2021-05-06T08:58:10Z</time>
      </trkpt>
      <trkpt lat="44.23025" lon="6.08002">
        <ele>1062.87</ele>
        <time>2021-05-06T08:58:16Z</time>
      </trkpt>
      <trkpt lat="44.23012" lon="6.07987">
        <ele>1063.36</ele>
        <time>2021-05-06T08:58:32Z</time>
      </trkpt>
      <trkpt lat="44.23004" lon="6.07973">
        <ele>1061.43</ele>
        <time>2021-05-06T08:58:48Z</time>
      </trkpt>
      <trkpt lat="44.22992" lon="6.0797">
        <ele>1060.47</ele>
        <time>2021-05-06T08:59:01Z</time>
      </trkpt>
      <trkpt lat="44.22979" lon="6.07978">
        <ele>1060.95</ele>
        <time>2021-05-06T08:59:18Z</time>
      </trkpt>
      <trkpt lat="44.22972" lon="6.07974">
        <ele>1059.03</ele>
        <time>2021-05-06T08:59:32Z</time>
      </trkpt>
      <trkpt lat="44.22969" lon="6.07967">
        <ele>1058.07</ele>
        <time>2021-05-06T08:59:44Z</time>
      </trkpt>
      <trkpt lat="44.22966" lon="6.07965">
        <ele>1057.11</ele>
        <time>2021-05-06T08:59:48Z</time>
      </trkpt>
      <trkpt lat="44.22947" lon="6.07956">
        <ele>1054.7</ele>
        <time>2021-05-06T09:00:08Z</time>
      </trkpt>
      <trkpt lat="44.22935" lon="6.07957">
        <ele>1053.74</ele>
        <time>2021-05-06T09:00:21Z</time>
      </trkpt>
      <trkpt lat="44.22929" lon="6.07954">
        <ele>1053.74</ele>
        <time>2021-05-06T09:00:27Z</time>
      </trkpt>
      <trkpt lat="44.22915" lon="6.0796">
        <ele>1054.22</ele>
        <time>2021-05-06T09:00:42Z</time>
      </trkpt>
      <trkpt lat="44.22914" lon="6.0796">
        <ele>1054.22</ele>
        <time>2021-05-06T09:00:43Z</time>
      </trkpt>
      <trkpt lat="44.22899" lon="6.07963">
        <ele>1055.67</ele>
        <time>2021-05-06T09:01:00Z</time>
      </trkpt>
      <trkpt lat="44.22889" lon="6.0796">
        <ele>1057.59</ele>
        <time>2021-05-06T09:01:14Z</time>
      </trkpt>
      <trkpt lat="44.22875" lon="6.07968">
        <ele>1058.07</ele>
        <time>2021-05-06T09:01:30Z</time>
      </trkpt>
      <trkpt lat="44.22864" lon="6.07974">
        <ele>1057.11</ele>
        <time>2021-05-06T09:01:46Z</time>
      </trkpt>
      <trkpt lat="44.2286" lon="6.07975">
        <ele>1056.63</ele>
        <time>2021-05-06T09:01:54Z</time>
      </trkpt>
      <trkpt lat="44.22844" lon="6.07974">
        <ele>1053.74</ele>
        <time>2021-05-06T09:02:13Z</time>
      </trkpt>
      <trkpt lat="44.22832" lon="6.07974">
        <ele>1052.78</ele>
        <time>2021-05-06T09:02:30Z</time>
      </trkpt>
      <trkpt lat="44.22821" lon="6.07975">
        <ele>1051.34</ele>
        <time>2021-05-06T09:02:46Z</time>
      </trkpt>
      <trkpt lat="44.22817" lon="6.07978">
        <ele>1050.86</ele>
        <time>2021-05-06T09:03:01Z</time>
      </trkpt>
      <trkpt lat="44.22805" lon="6.07982">
        <ele>1048.45</ele>
        <time>2021-05-06T09:03:16Z</time>
      </trkpt>
      <trkpt lat="44.2279" lon="6.07994">
        <ele>1046.53</ele>
        <time>2021-05-06T09:03:34Z</time>
      </trkpt>
      <trkpt lat="44.22775" lon="6.08007">
        <ele>1045.57</ele>
        <time>2021-05-06T09:03:51Z</time>
      </trkpt>
      <trkpt lat="44.22765" lon="6.08018">
        <ele>1046.05</ele>
        <time>2021-05-06T09:04:07Z</time>
      </trkpt>
      <trkpt lat="44.22757" lon="6.0803">
        <ele>1045.09</ele>
        <time>2021-05-06T09:04:22Z</time>
      </trkpt>
      <trkpt lat="44.22748" lon="6.08037">
        <ele>1044.13</ele>
        <time>2021-05-06T09:04:34Z</time>
      </trkpt>
      <trkpt lat="44.22743" lon="6.08038">
        <ele>1042.69</ele>
        <time>2021-05-06T09:04:41Z</time>
      </trkpt>
      <trkpt lat="44.22726" lon="6.08039">
        <ele>1040.28</ele>
        <time>2021-05-06T09:05:00Z</time>
      </trkpt>
      <trkpt lat="44.22716" lon="6.08043">
        <ele>1038.84</ele>
        <time>2021-05-06T09:05:16Z</time>
      </trkpt>
      <trkpt lat="44.22708" lon="6.08045">
        <ele>1036.92</ele>
        <time>2021-05-06T09:05:31Z</time>
      </trkpt>
      <trkpt lat="44.22709" lon="6.08054">
        <ele>1034.52</ele>
        <time>2021-05-06T09:05:44Z</time>
      </trkpt>
      <trkpt lat="44.22708" lon="6.08054">
        <ele>1034.52</ele>
        <time>2021-05-06T09:05:45Z</time>
      </trkpt>
      <trkpt lat="44.22693" lon="6.08046">
        <ele>1032.59</ele>
        <time>2021-05-06T09:06:01Z</time>
      </trkpt>
      <trkpt lat="44.22678" lon="6.08036">
        <ele>1032.11</ele>
        <time>2021-05-06T09:06:18Z</time>
      </trkpt>
      <trkpt lat="44.2267" lon="6.08031">
        <ele>1032.11</ele>
        <time>2021-05-06T09:06:31Z</time>
      </trkpt>
      <trkpt lat="44.2266" lon="6.08021">
        <ele>1030.67</ele>
        <time>2021-05-06T09:06:45Z</time>
      </trkpt>
      <trkpt lat="44.22654" lon="6.08019">
        <ele>1029.71</ele>
        <time>2021-05-06T09:06:52Z</time>
      </trkpt>
      <trkpt lat="44.22639" lon="6.08016">
        <ele>1027.31</ele>
        <time>2021-05-06T09:07:09Z</time>
      </trkpt>
      <trkpt lat="44.22629" lon="6.08016">
        <ele>1024.9</ele>
        <time>2021-05-06T09:07:24Z</time>
      </trkpt>
      <trkpt lat="44.22625" lon="6.08015">
        <ele>1023.94</ele>
        <time>2021-05-06T09:07:29Z</time>
      </trkpt>
      <trkpt lat="44.22616" lon="6.0801">
        <ele>1022.98</ele>
        <time>2021-05-06T09:07:38Z</time>
      </trkpt>
      <trkpt lat="44.22605" lon="6.07991">
        <ele>1022.98</ele>
        <time>2021-05-06T09:07:56Z</time>
      </trkpt>
      <trkpt lat="44.22598" lon="6.07985">
        <ele>1021.54</ele>
        <time>2021-05-06T09:08:10Z</time>
      </trkpt>
      <trkpt lat="44.22594" lon="6.07979">
        <ele>1020.58</ele>
        <time>2021-05-06T09:08:27Z</time>
      </trkpt>
      <trkpt lat="44.22589" lon="6.07971">
        <ele>1019.13</ele>
        <time>2021-05-06T09:08:44Z</time>
      </trkpt>
      <trkpt lat="44.22577" lon="6.07953">
        <ele>1018.17</ele>
        <time>2021-05-06T09:09:01Z</time>
      </trkpt>
      <trkpt lat="44.22565" lon="6.07947">
        <ele>1015.77</ele>
        <time>2021-05-06T09:09:19Z</time>
      </trkpt>
      <trkpt lat="44.22548" lon="6.07936">
        <ele>1013.85</ele>
        <time>2021-05-06T09:09:37Z</time>
      </trkpt>
      <trkpt lat="44.22541" lon="6.07926">
        <ele>1012.89</ele>
        <time>2021-05-06T09:09:49Z</time>
      </trkpt>
      <trkpt lat="44.22532" lon="6.07913">
        <ele>1010.96</ele>
        <time>2021-05-06T09:10:06Z</time>
      </trkpt>
      <trkpt lat="44.22524" lon="6.07915">
        <ele>1009.04</ele>
        <time>2021-05-06T09:10:20Z</time>
      </trkpt>
      <trkpt lat="44.22516" lon="6.07906">
        <ele>1008.08</ele>
        <time>2021-05-06T09:10:35Z</time>
      </trkpt>
      <trkpt lat="44.22513" lon="6.07906">
        <ele>1008.08</ele>
        <time>2021-05-06T09:10:38Z</time>
      </trkpt>
      <trkpt lat="44.22505" lon="6.07902">
        <ele>1006.16</ele>
        <time>2021-05-06T09:10:54Z</time>
      </trkpt>
      <trkpt lat="44.22505" lon="6.07901">
        <ele>1006.16</ele>
        <time>2021-05-06T09:10:55Z</time>
      </trkpt>
      <trkpt lat="44.22498" lon="6.07894">
        <ele>1004.23</ele>
        <time>2021-05-06T09:11:10Z</time>
      </trkpt>
      <trkpt lat="44.22486" lon="6.07889">
        <ele>1001.35</ele>
        <time>2021-05-06T09:11:26Z</time>
      </trkpt>
      <trkpt lat="44.22485" lon="6.07889">
        <ele>1001.35</ele>
        <time>2021-05-06T09:11:27Z</time>
      </trkpt>
      <trkpt lat="44.22474" lon="6.07891">
        <ele>1001.83</ele>
        <time>2021-05-06T09:11:41Z</time>
      </trkpt>
      <trkpt lat="44.22473" lon="6.07891">
        <ele>1001.83</ele>
        <time>2021-05-06T09:11:42Z</time>
      </trkpt>
      <trkpt lat="44.22465" lon="6.07885">
        <ele>1003.27</ele>
        <time>2021-05-06T09:11:56Z</time>
      </trkpt>
      <trkpt lat="44.22451" lon="6.07885">
        <ele>1004.23</ele>
        <time>2021-05-06T09:12:10Z</time>
      </trkpt>
      <trkpt lat="44.2244" lon="6.07886">
        <ele>1004.23</ele>
        <time>2021-05-06T09:12:25Z</time>
      </trkpt>
      <trkpt lat="44.22428" lon="6.07882">
        <ele>1003.75</ele>
        <time>2021-05-06T09:12:45Z</time>
      </trkpt>
      <trkpt lat="44.22415" lon="6.07888">
        <ele>1001.83</ele>
        <time>2021-05-06T09:13:02Z</time>
      </trkpt>
      <trkpt lat="44.22414" lon="6.07889">
        <ele>1001.83</ele>
        <time>2021-05-06T09:13:04Z</time>
      </trkpt>
      <trkpt lat="44.22411" lon="6.0789">
        <ele>1001.35</ele>
        <time>2021-05-06T09:13:07Z</time>
      </trkpt>
      <trkpt lat="44.22402" lon="6.07891">
        <ele>999.91</ele>
        <time>2021-05-06T09:13:15Z</time>
      </trkpt>
      <trkpt lat="44.22386" lon="6.07884">
        <ele>997.99</ele>
        <time>2021-05-06T09:13:34Z</time>
      </trkpt>
      <trkpt lat="44.22375" lon="6.07888">
        <ele>996.54</ele>
        <time>2021-05-06T09:13:51Z</time>
      </trkpt>
      <trkpt lat="44.22369" lon="6.07889">
        <ele>995.1</ele>
        <time>2021-05-06T09:14:05Z</time>
      </trkpt>
      <trkpt lat="44.22362" lon="6.07898">
        <ele>992.7</ele>
        <time>2021-05-06T09:14:20Z</time>
      </trkpt>
      <trkpt lat="44.22372" lon="6.079">
        <ele>990.78</ele>
        <time>2021-05-06T09:14:35Z</time>
      </trkpt>
      <trkpt lat="44.22366" lon="6.07905">
        <ele>988.85</ele>
        <time>2021-05-06T09:14:45Z</time>
      </trkpt>
      <trkpt lat="44.22356" lon="6.07908">
        <ele>986.45</ele>
        <time>2021-05-06T09:15:00Z</time>
      </trkpt>
      <trkpt lat="44.22347" lon="6.07913">
        <ele>983.57</ele>
        <time>2021-05-06T09:15:16Z</time>
      </trkpt>
      <trkpt lat="44.2234" lon="6.07914">
        <ele>982.12</ele>
        <time>2021-05-06T09:15:30Z</time>
      </trkpt>
      <trkpt lat="44.22333" lon="6.07917">
        <ele>979.72</ele>
        <time>2021-05-06T09:15:43Z</time>
      </trkpt>
      <trkpt lat="44.22328" lon="6.07924">
        <ele>977.32</ele>
        <time>2021-05-06T09:15:56Z</time>
      </trkpt>
      <trkpt lat="44.22323" lon="6.07928">
        <ele>975.39</ele>
        <time>2021-05-06T09:16:09Z</time>
      </trkpt>
      <trkpt lat="44.22317" lon="6.07939">
        <ele>972.51</ele>
        <time>2021-05-06T09:16:22Z</time>
      </trkpt>
      <trkpt lat="44.22311" lon="6.07944">
        <ele>971.07</ele>
        <time>2021-05-06T09:16:30Z</time>
      </trkpt>
      <trkpt lat="44.22304" lon="6.07947">
        <ele>970.11</ele>
        <time>2021-05-06T09:16:46Z</time>
      </trkpt>
      <trkpt lat="44.22301" lon="6.07948">
        <ele>969.63</ele>
        <time>2021-05-06T09:17:02Z</time>
      </trkpt>
      <trkpt lat="44.22298" lon="6.07956">
        <ele>968.67</ele>
        <time>2021-05-06T09:17:18Z</time>
      </trkpt>
      <trkpt lat="44.22291" lon="6.07965">
        <ele>966.74</ele>
        <time>2021-05-06T09:17:32Z</time>
      </trkpt>
      <trkpt lat="44.22286" lon="6.07971">
        <ele>965.3</ele>
        <time>2021-05-06T09:17:47Z</time>
      </trkpt>
      <trkpt lat="44.2228" lon="6.0798">
        <ele>964.82</ele>
        <time>2021-05-06T09:18:11Z</time>
      </trkpt>
      <trkpt lat="44.22279" lon="6.07981">
        <ele>964.34</ele>
        <time>2021-05-06T09:18:12Z</time>
      </trkpt>
      <trkpt lat="44.22274" lon="6.07998">
        <ele>963.86</ele>
        <time>2021-05-06T09:18:29Z</time>
      </trkpt>
      <trkpt lat="44.22277" lon="6.08005">
        <ele>962.9</ele>
        <time>2021-05-06T09:18:36Z</time>
      </trkpt>
      <trkpt lat="44.22284" lon="6.08019">
        <ele>961.46</ele>
        <time>2021-05-06T09:18:52Z</time>
      </trkpt>
      <trkpt lat="44.22291" lon="6.08011">
        <ele>960.49</ele>
        <time>2021-05-06T09:19:09Z</time>
      </trkpt>
      <trkpt lat="44.22294" lon="6.08007">
        <ele>960.01</ele>
        <time>2021-05-06T09:19:13Z</time>
      </trkpt>
      <trkpt lat="44.22307" lon="6.08">
        <ele>959.53</ele>
        <time>2021-05-06T09:19:30Z</time>
      </trkpt>
      <trkpt lat="44.22312" lon="6.07998">
        <ele>959.53</ele>
        <time>2021-05-06T09:19:43Z</time>
      </trkpt>
      <trkpt lat="44.22325" lon="6.07993">
        <ele>959.05</ele>
        <time>2021-05-06T09:20:00Z</time>
      </trkpt>
      <trkpt lat="44.22338" lon="6.0799">
        <ele>957.13</ele>
        <time>2021-05-06T09:20:17Z</time>
      </trkpt>
      <trkpt lat="44.22347" lon="6.07995">
        <ele>956.17</ele>
        <time>2021-05-06T09:20:31Z</time>
      </trkpt>
      <trkpt lat="44.22348" lon="6.07999">
        <ele>956.17</ele>
        <time>2021-05-06T09:20:35Z</time>
      </trkpt>
      <trkpt lat="44.22358" lon="6.08006">
        <ele>956.17</ele>
        <time>2021-05-06T09:20:48Z</time>
      </trkpt>
      <trkpt lat="44.22365" lon="6.08012">
        <ele>957.13</ele>
        <time>2021-05-06T09:20:57Z</time>
      </trkpt>
      <trkpt lat="44.22375" lon="6.0802">
        <ele>958.57</ele>
        <time>2021-05-06T09:21:11Z</time>
      </trkpt>
      <trkpt lat="44.22385" lon="6.08026">
        <ele>959.53</ele>
        <time>2021-05-06T09:21:26Z</time>
      </trkpt>
      <trkpt lat="44.22399" lon="6.08036">
        <ele>960.49</ele>
        <time>2021-05-06T09:21:42Z</time>
      </trkpt>
      <trkpt lat="44.22406" lon="6.08047">
        <ele>958.57</ele>
        <time>2021-05-06T09:21:57Z</time>
      </trkpt>
      <trkpt lat="44.22409" lon="6.08051">
        <ele>958.57</ele>
        <time>2021-05-06T09:22:02Z</time>
      </trkpt>
      <trkpt lat="44.22422" lon="6.08047">
        <ele>959.05</ele>
        <time>2021-05-06T09:22:17Z</time>
      </trkpt>
      <trkpt lat="44.22432" lon="6.08062">
        <ele>959.05</ele>
        <time>2021-05-06T09:22:33Z</time>
      </trkpt>
      <trkpt lat="44.22441" lon="6.0808">
        <ele>959.05</ele>
        <time>2021-05-06T09:22:48Z</time>
      </trkpt>
      <trkpt lat="44.22452" lon="6.08097">
        <ele>960.01</ele>
        <time>2021-05-06T09:23:06Z</time>
      </trkpt>
      <trkpt lat="44.22456" lon="6.08111">
        <ele>960.98</ele>
        <time>2021-05-06T09:23:19Z</time>
      </trkpt>
      <trkpt lat="44.22464" lon="6.08127">
        <ele>960.49</ele>
        <time>2021-05-06T09:23:36Z</time>
      </trkpt>
      <trkpt lat="44.22456" lon="6.0815">
        <ele>960.01</ele>
        <time>2021-05-06T09:23:54Z</time>
      </trkpt>
      <trkpt lat="44.2246" lon="6.08154">
        <ele>960.01</ele>
        <time>2021-05-06T09:24:01Z</time>
      </trkpt>
      <trkpt lat="44.22464" lon="6.08172">
        <ele>960.01</ele>
        <time>2021-05-06T09:24:16Z</time>
      </trkpt>
      <trkpt lat="44.2247" lon="6.0818">
        <ele>958.57</ele>
        <time>2021-05-06T09:24:24Z</time>
      </trkpt>
      <trkpt lat="44.22485" lon="6.08196">
        <ele>957.13</ele>
        <time>2021-05-06T09:24:43Z</time>
      </trkpt>
      <trkpt lat="44.22495" lon="6.08208">
        <ele>957.13</ele>
        <time>2021-05-06T09:24:58Z</time>
      </trkpt>
      <trkpt lat="44.225" lon="6.08222">
        <ele>956.65</ele>
        <time>2021-05-06T09:25:12Z</time>
      </trkpt>
      <trkpt lat="44.22504" lon="6.08242">
        <ele>955.69</ele>
        <time>2021-05-06T09:25:27Z</time>
      </trkpt>
      <trkpt lat="44.22514" lon="6.0826">
        <ele>955.69</ele>
        <time>2021-05-06T09:25:42Z</time>
      </trkpt>
      <trkpt lat="44.22524" lon="6.08276">
        <ele>955.21</ele>
        <time>2021-05-06T09:25:57Z</time>
      </trkpt>
      <trkpt lat="44.22534" lon="6.08295">
        <ele>953.28</ele>
        <time>2021-05-06T09:26:14Z</time>
      </trkpt>
      <trkpt lat="44.22545" lon="6.0831">
        <ele>950.88</ele>
        <time>2021-05-06T09:26:31Z</time>
      </trkpt>
      <trkpt lat="44.22555" lon="6.08321">
        <ele>948.48</ele>
        <time>2021-05-06T09:26:46Z</time>
      </trkpt>
      <trkpt lat="44.22566" lon="6.08328">
        <ele>947.52</ele>
        <time>2021-05-06T09:26:59Z</time>
      </trkpt>
      <trkpt lat="44.22586" lon="6.08328">
        <ele>949.44</ele>
        <time>2021-05-06T09:27:20Z</time>
      </trkpt>
      <trkpt lat="44.2259" lon="6.08328">
        <ele>949.44</ele>
        <time>2021-05-06T09:27:25Z</time>
      </trkpt>
      <trkpt lat="44.22604" lon="6.08332">
        <ele>948</ele>
        <time>2021-05-06T09:27:40Z</time>
      </trkpt>
      <trkpt lat="44.22622" lon="6.08328">
        <ele>947.52</ele>
        <time>2021-05-06T09:27:58Z</time>
      </trkpt>
      <trkpt lat="44.22633" lon="6.08326">
        <ele>945.11</ele>
        <time>2021-05-06T09:28:12Z</time>
      </trkpt>
      <trkpt lat="44.22647" lon="6.08329">
        <ele>942.71</ele>
        <time>2021-05-06T09:28:29Z</time>
      </trkpt>
      <trkpt lat="44.2265" lon="6.08329">
        <ele>942.23</ele>
        <time>2021-05-06T09:28:47Z</time>
      </trkpt>
      <trkpt lat="44.22653" lon="6.08331">
        <ele>941.27</ele>
        <time>2021-05-06T09:29:10Z</time>
      </trkpt>
      <trkpt lat="44.22663" lon="6.08341">
        <ele>938.86</ele>
        <time>2021-05-06T09:29:25Z</time>
      </trkpt>
      <trkpt lat="44.22666" lon="6.08343">
        <ele>938.38</ele>
        <time>2021-05-06T09:29:40Z</time>
      </trkpt>
      <trkpt lat="44.22673" lon="6.0835">
        <ele>935.02</ele>
        <time>2021-05-06T09:29:56Z</time>
      </trkpt>
      <trkpt lat="44.22678" lon="6.08358">
        <ele>934.06</ele>
        <time>2021-05-06T09:30:10Z</time>
      </trkpt>
      <trkpt lat="44.22678" lon="6.0837">
        <ele>932.14</ele>
        <time>2021-05-06T09:30:26Z</time>
      </trkpt>
      <trkpt lat="44.22678" lon="6.08375">
        <ele>930.69</ele>
        <time>2021-05-06T09:30:39Z</time>
      </trkpt>
      <trkpt lat="44.22681" lon="6.08384">
        <ele>927.33</ele>
        <time>2021-05-06T09:30:55Z</time>
      </trkpt>
      <trkpt lat="44.2268" lon="6.08405">
        <ele>924.93</ele>
        <time>2021-05-06T09:31:13Z</time>
      </trkpt>
      <trkpt lat="44.22679" lon="6.08413">
        <ele>924.93</ele>
        <time>2021-05-06T09:31:27Z</time>
      </trkpt>
      <trkpt lat="44.22678" lon="6.08421">
        <ele>923.96</ele>
        <time>2021-05-06T09:31:40Z</time>
      </trkpt>
      <trkpt lat="44.22674" lon="6.08432">
        <ele>920.6</ele>
        <time>2021-05-06T09:31:55Z</time>
      </trkpt>
      <trkpt lat="44.22673" lon="6.08437">
        <ele>919.16</ele>
        <time>2021-05-06T09:32:09Z</time>
      </trkpt>
      <trkpt lat="44.2267" lon="6.08445">
        <ele>916.75</ele>
        <time>2021-05-06T09:32:23Z</time>
      </trkpt>
      <trkpt lat="44.2267" lon="6.08447">
        <ele>917.24</ele>
        <time>2021-05-06T09:32:36Z</time>
      </trkpt>
      <trkpt lat="44.2267" lon="6.08454">
        <ele>915.79</ele>
        <time>2021-05-06T09:32:47Z</time>
      </trkpt>
      <trkpt lat="44.22667" lon="6.0846">
        <ele>913.39</ele>
        <time>2021-05-06T09:32:59Z</time>
      </trkpt>
      <trkpt lat="44.22665" lon="6.0847">
        <ele>910.99</ele>
        <time>2021-05-06T09:33:15Z</time>
      </trkpt>
      <trkpt lat="44.22667" lon="6.08475">
        <ele>910.03</ele>
        <time>2021-05-06T09:33:31Z</time>
      </trkpt>
      <trkpt lat="44.22664" lon="6.08483">
        <ele>908.1</ele>
        <time>2021-05-06T09:33:44Z</time>
      </trkpt>
      <trkpt lat="44.22656" lon="6.08491">
        <ele>905.22</ele>
        <time>2021-05-06T09:34:01Z</time>
      </trkpt>
      <trkpt lat="44.22655" lon="6.08497">
        <ele>902.82</ele>
        <time>2021-05-06T09:34:16Z</time>
      </trkpt>
      <trkpt lat="44.22654" lon="6.08509">
        <ele>900.89</ele>
        <time>2021-05-06T09:34:31Z</time>
      </trkpt>
      <trkpt lat="44.22651" lon="6.08522">
        <ele>898.49</ele>
        <time>2021-05-06T09:34:46Z</time>
      </trkpt>
      <trkpt lat="44.22648" lon="6.0853">
        <ele>896.09</ele>
        <time>2021-05-06T09:35:00Z</time>
      </trkpt>
      <trkpt lat="44.22648" lon="6.08532">
        <ele>895.61</ele>
        <time>2021-05-06T09:35:16Z</time>
      </trkpt>
      <trkpt lat="44.22646" lon="6.08534">
        <ele>895.12</ele>
        <time>2021-05-06T09:35:37Z</time>
      </trkpt>
      <trkpt lat="44.22646" lon="6.08533">
        <ele>895.12</ele>
        <time>2021-05-06T09:36:05Z</time>
      </trkpt>
      <trkpt lat="44.22645" lon="6.08539">
        <ele>893.68</ele>
        <time>2021-05-06T09:36:24Z</time>
      </trkpt>
      <trkpt lat="44.22644" lon="6.08548">
        <ele>891.28</ele>
        <time>2021-05-06T09:36:33Z</time>
      </trkpt>
      <trkpt lat="44.22641" lon="6.08562">
        <ele>887.91</ele>
        <time>2021-05-06T09:36:47Z</time>
      </trkpt>
      <trkpt lat="44.2264" lon="6.08578">
        <ele>884.55</ele>
        <time>2021-05-06T09:37:00Z</time>
      </trkpt>
      <trkpt lat="44.2264" lon="6.08582">
        <ele>884.07</ele>
        <time>2021-05-06T09:37:03Z</time>
      </trkpt>
      <trkpt lat="44.22639" lon="6.08599">
        <ele>881.19</ele>
        <time>2021-05-06T09:37:19Z</time>
      </trkpt>
      <trkpt lat="44.2264" lon="6.08609">
        <ele>878.3</ele>
        <time>2021-05-06T09:37:35Z</time>
      </trkpt>
      <trkpt lat="44.22637" lon="6.08616">
        <ele>875.9</ele>
        <time>2021-05-06T09:37:46Z</time>
      </trkpt>
      <trkpt lat="44.22638" lon="6.08617">
        <ele>874.46</ele>
        <time>2021-05-06T09:38:01Z</time>
      </trkpt>
      <trkpt lat="44.22644" lon="6.08616">
        <ele>872.53</ele>
        <time>2021-05-06T09:38:18Z</time>
      </trkpt>
      <trkpt lat="44.22643" lon="6.08622">
        <ele>872.05</ele>
        <time>2021-05-06T09:38:31Z</time>
      </trkpt>
      <trkpt lat="44.22643" lon="6.08625">
        <ele>871.09</ele>
        <time>2021-05-06T09:38:49Z</time>
      </trkpt>
      <trkpt lat="44.22644" lon="6.08628">
        <ele>870.61</ele>
        <time>2021-05-06T09:39:05Z</time>
      </trkpt>
      <trkpt lat="44.2264" lon="6.08629">
        <ele>869.17</ele>
        <time>2021-05-06T09:39:22Z</time>
      </trkpt>
      <trkpt lat="44.22642" lon="6.08629">
        <ele>869.65</ele>
        <time>2021-05-06T09:39:47Z</time>
      </trkpt>
      <trkpt lat="44.22643" lon="6.08631">
        <ele>868.21</ele>
        <time>2021-05-06T09:40:00Z</time>
      </trkpt>
      <trkpt lat="44.22646" lon="6.08633">
        <ele>866.77</ele>
        <time>2021-05-06T09:40:11Z</time>
      </trkpt>
      <trkpt lat="44.22648" lon="6.08636">
        <ele>864.84</ele>
        <time>2021-05-06T09:40:25Z</time>
      </trkpt>
      <trkpt lat="44.22648" lon="6.08641">
        <ele>863.88</ele>
        <time>2021-05-06T09:40:38Z</time>
      </trkpt>
      <trkpt lat="44.2265" lon="6.08641">
        <ele>863.4</ele>
        <time>2021-05-06T09:40:47Z</time>
      </trkpt>
      <trkpt lat="44.2265" lon="6.08645">
        <ele>861.96</ele>
        <time>2021-05-06T09:40:58Z</time>
      </trkpt>
      <trkpt lat="44.22657" lon="6.08641">
        <ele>859.56</ele>
        <time>2021-05-06T09:41:12Z</time>
      </trkpt>
      <trkpt lat="44.22656" lon="6.08648">
        <ele>858.11</ele>
        <time>2021-05-06T09:41:22Z</time>
      </trkpt>
      <trkpt lat="44.22652" lon="6.08654">
        <ele>857.63</ele>
        <time>2021-05-06T09:41:29Z</time>
      </trkpt>
      <trkpt lat="44.2264" lon="6.08662">
        <ele>856.19</ele>
        <time>2021-05-06T09:41:44Z</time>
      </trkpt>
      <trkpt lat="44.22642" lon="6.08664">
        <ele>854.27</ele>
        <time>2021-05-06T09:41:57Z</time>
      </trkpt>
      <trkpt lat="44.22643" lon="6.08663">
        <ele>854.27</ele>
        <time>2021-05-06T09:41:58Z</time>
      </trkpt>
      <trkpt lat="44.22658" lon="6.08665">
        <ele>851.38</ele>
        <time>2021-05-06T09:42:17Z</time>
      </trkpt>
      <trkpt lat="44.2266" lon="6.08673">
        <ele>848.98</ele>
        <time>2021-05-06T09:42:30Z</time>
      </trkpt>
      <trkpt lat="44.2265" lon="6.08683">
        <ele>845.62</ele>
        <time>2021-05-06T09:42:45Z</time>
      </trkpt>
      <trkpt lat="44.22649" lon="6.08684">
        <ele>845.14</ele>
        <time>2021-05-06T09:42:47Z</time>
      </trkpt>
      <trkpt lat="44.22643" lon="6.08695">
        <ele>843.21</ele>
        <time>2021-05-06T09:43:00Z</time>
      </trkpt>
      <trkpt lat="44.22638" lon="6.087">
        <ele>842.25</ele>
        <time>2021-05-06T09:43:07Z</time>
      </trkpt>
      <trkpt lat="44.22624" lon="6.08702">
        <ele>839.85</ele>
        <time>2021-05-06T09:43:24Z</time>
      </trkpt>
      <trkpt lat="44.22612" lon="6.08701">
        <ele>837.45</ele>
        <time>2021-05-06T09:43:38Z</time>
      </trkpt>
      <trkpt lat="44.22604" lon="6.08699">
        <ele>836</ele>
        <time>2021-05-06T09:43:54Z</time>
      </trkpt>
      <trkpt lat="44.22596" lon="6.08694">
        <ele>834.08</ele>
        <time>2021-05-06T09:44:10Z</time>
      </trkpt>
      <trkpt lat="44.22585" lon="6.08688">
        <ele>831.68</ele>
        <time>2021-05-06T09:44:25Z</time>
      </trkpt>
      <trkpt lat="44.22574" lon="6.08684">
        <ele>830.24</ele>
        <time>2021-05-06T09:44:39Z</time>
      </trkpt>
      <trkpt lat="44.22571" lon="6.08685">
        <ele>829.27</ele>
        <time>2021-05-06T09:44:43Z</time>
      </trkpt>
      <trkpt lat="44.22563" lon="6.08702">
        <ele>826.87</ele>
        <time>2021-05-06T09:44:57Z</time>
      </trkpt>
      <trkpt lat="44.2256" lon="6.08724">
        <ele>824.47</ele>
        <time>2021-05-06T09:45:13Z</time>
      </trkpt>
      <trkpt lat="44.22555" lon="6.08745">
        <ele>823.03</ele>
        <time>2021-05-06T09:45:28Z</time>
      </trkpt>
      <trkpt lat="44.22545" lon="6.08756">
        <ele>821.1</ele>
        <time>2021-05-06T09:45:44Z</time>
      </trkpt>
      <trkpt lat="44.22537" lon="6.08752">
        <ele>819.66</ele>
        <time>2021-05-06T09:45:58Z</time>
      </trkpt>
      <trkpt lat="44.22529" lon="6.08748">
        <ele>817.74</ele>
        <time>2021-05-06T09:46:11Z</time>
      </trkpt>
      <trkpt lat="44.22526" lon="6.08749">
        <ele>816.78</ele>
        <time>2021-05-06T09:46:16Z</time>
      </trkpt>
      <trkpt lat="44.22519" lon="6.08754">
        <ele>814.85</ele>
        <time>2021-05-06T09:46:29Z</time>
      </trkpt>
      <trkpt lat="44.22514" lon="6.08757">
        <ele>813.41</ele>
        <time>2021-05-06T09:46:37Z</time>
      </trkpt>
      <trkpt lat="44.22504" lon="6.08762">
        <ele>811.97</ele>
        <time>2021-05-06T09:46:49Z</time>
      </trkpt>
      <trkpt lat="44.22498" lon="6.08771">
        <ele>811.01</ele>
        <time>2021-05-06T09:47:05Z</time>
      </trkpt>
      <trkpt lat="44.22494" lon="6.08775">
        <ele>810.53</ele>
        <time>2021-05-06T09:47:19Z</time>
      </trkpt>
      <trkpt lat="44.22488" lon="6.08781">
        <ele>810.53</ele>
        <time>2021-05-06T09:47:31Z</time>
      </trkpt>
      <trkpt lat="44.22488" lon="6.08783">
        <ele>810.53</ele>
        <time>2021-05-06T09:47:50Z</time>
      </trkpt>
      <trkpt lat="44.2248" lon="6.08775">
        <ele>809.57</ele>
        <time>2021-05-06T09:48:04Z</time>
      </trkpt>
      <trkpt lat="44.22475" lon="6.08772">
        <ele>807.64</ele>
        <time>2021-05-06T09:48:19Z</time>
      </trkpt>
      <trkpt lat="44.22469" lon="6.08764">
        <ele>805.24</ele>
        <time>2021-05-06T09:48:34Z</time>
      </trkpt>
      <trkpt lat="44.22464" lon="6.08757">
        <ele>803.8</ele>
        <time>2021-05-06T09:48:43Z</time>
      </trkpt>
      <trkpt lat="44.2246" lon="6.08746">
        <ele>802.84</ele>
        <time>2021-05-06T09:48:56Z</time>
      </trkpt>
      <trkpt lat="44.22459" lon="6.08743">
        <ele>802.36</ele>
        <time>2021-05-06T09:49:10Z</time>
      </trkpt>
      <trkpt lat="44.22457" lon="6.08745">
        <ele>802.36</ele>
        <time>2021-05-06T09:49:24Z</time>
      </trkpt>
      <trkpt lat="44.22455" lon="6.08748">
        <ele>802.36</ele>
        <time>2021-05-06T09:49:48Z</time>
      </trkpt>
      <trkpt lat="44.22453" lon="6.08747">
        <ele>801.88</ele>
        <time>2021-05-06T09:49:51Z</time>
      </trkpt>
      <trkpt lat="44.22444" lon="6.08733">
        <ele>800.44</ele>
        <time>2021-05-06T09:50:06Z</time>
      </trkpt>
      <trkpt lat="44.22438" lon="6.08724">
        <ele>798.51</ele>
        <time>2021-05-06T09:50:20Z</time>
      </trkpt>
      <trkpt lat="44.22433" lon="6.08711">
        <ele>796.11</ele>
        <time>2021-05-06T09:50:36Z</time>
      </trkpt>
      <trkpt lat="44.22426" lon="6.08701">
        <ele>794.19</ele>
        <time>2021-05-06T09:50:51Z</time>
      </trkpt>
      <trkpt lat="44.22417" lon="6.08696">
        <ele>792.26</ele>
        <time>2021-05-06T09:51:04Z</time>
      </trkpt>
      <trkpt lat="44.22407" lon="6.0869">
        <ele>789.86</ele>
        <time>2021-05-06T09:51:19Z</time>
      </trkpt>
      <trkpt lat="44.22399" lon="6.08685">
        <ele>787.94</ele>
        <time>2021-05-06T09:51:33Z</time>
      </trkpt>
      <trkpt lat="44.22397" lon="6.08683">
        <ele>787.46</ele>
        <time>2021-05-06T09:51:36Z</time>
      </trkpt>
      <trkpt lat="44.2239" lon="6.08668">
        <ele>785.53</ele>
        <time>2021-05-06T09:51:50Z</time>
      </trkpt>
      <trkpt lat="44.22385" lon="6.08656">
        <ele>783.61</ele>
        <time>2021-05-06T09:52:02Z</time>
      </trkpt>
      <trkpt lat="44.22376" lon="6.08646">
        <ele>781.21</ele>
        <time>2021-05-06T09:52:15Z</time>
      </trkpt>
      <trkpt lat="44.2237" lon="6.08642">
        <ele>779.29</ele>
        <time>2021-05-06T09:52:29Z</time>
      </trkpt>
      <trkpt lat="44.22363" lon="6.08642">
        <ele>779.29</ele>
        <time>2021-05-06T09:52:54Z</time>
      </trkpt>
      <trkpt lat="44.2236" lon="6.08637">
        <ele>778.81</ele>
        <time>2021-05-06T09:53:08Z</time>
      </trkpt>
      <trkpt lat="44.22357" lon="6.08631">
        <ele>778.81</ele>
        <time>2021-05-06T09:53:17Z</time>
      </trkpt>
      <trkpt lat="44.22347" lon="6.08621">
        <ele>777.36</ele>
        <time>2021-05-06T09:53:31Z</time>
      </trkpt>
      <trkpt lat="44.22339" lon="6.08607">
        <ele>775.92</ele>
        <time>2021-05-06T09:53:46Z</time>
      </trkpt>
      <trkpt lat="44.22333" lon="6.08592">
        <ele>774.48</ele>
        <time>2021-05-06T09:54:01Z</time>
      </trkpt>
      <trkpt lat="44.22332" lon="6.0859">
        <ele>774.48</ele>
        <time>2021-05-06T09:54:03Z</time>
      </trkpt>
      <trkpt lat="44.22325" lon="6.08576">
        <ele>774</ele>
        <time>2021-05-06T09:54:15Z</time>
      </trkpt>
      <trkpt lat="44.22323" lon="6.0857">
        <ele>773.04</ele>
        <time>2021-05-06T09:54:20Z</time>
      </trkpt>
      <trkpt lat="44.22313" lon="6.08559">
        <ele>774</ele>
        <time>2021-05-06T09:54:33Z</time>
      </trkpt>
      <trkpt lat="44.22308" lon="6.08546">
        <ele>774.48</ele>
        <time>2021-05-06T09:54:46Z</time>
      </trkpt>
      <trkpt lat="44.22307" lon="6.08545">
        <ele>774.48</ele>
        <time>2021-05-06T09:54:47Z</time>
      </trkpt>
      <trkpt lat="44.22291" lon="6.08557">
        <ele>774</ele>
        <time>2021-05-06T09:55:03Z</time>
      </trkpt>
      <trkpt lat="44.22282" lon="6.08562">
        <ele>774</ele>
        <time>2021-05-06T09:55:13Z</time>
      </trkpt>
      <trkpt lat="44.22276" lon="6.0856">
        <ele>774.96</ele>
        <time>2021-05-06T09:55:19Z</time>
      </trkpt>
      <trkpt lat="44.22271" lon="6.08557">
        <ele>774.96</ele>
        <time>2021-05-06T09:55:23Z</time>
      </trkpt>
      <trkpt lat="44.22253" lon="6.08555">
        <ele>775.44</ele>
        <time>2021-05-06T09:55:40Z</time>
      </trkpt>
      <trkpt lat="44.22241" lon="6.08553">
        <ele>774.96</ele>
        <time>2021-05-06T09:55:53Z</time>
      </trkpt>
      <trkpt lat="44.22233" lon="6.08553">
        <ele>774.96</ele>
        <time>2021-05-06T09:56:01Z</time>
      </trkpt>
      <trkpt lat="44.22223" lon="6.08554">
        <ele>774</ele>
        <time>2021-05-06T09:56:10Z</time>
      </trkpt>
      <trkpt lat="44.2221" lon="6.08562">
        <ele>773.04</ele>
        <time>2021-05-06T09:56:25Z</time>
      </trkpt>
      <trkpt lat="44.22206" lon="6.08566">
        <ele>772.08</ele>
        <time>2021-05-06T09:56:31Z</time>
      </trkpt>
      <trkpt lat="44.22197" lon="6.08567">
        <ele>771.11</ele>
        <time>2021-05-06T09:56:40Z</time>
      </trkpt>
      <trkpt lat="44.22181" lon="6.0856">
        <ele>768.71</ele>
        <time>2021-05-06T09:56:54Z</time>
      </trkpt>
      <trkpt lat="44.22169" lon="6.08549">
        <ele>765.83</ele>
        <time>2021-05-06T09:57:09Z</time>
      </trkpt>
      <trkpt lat="44.22162" lon="6.08536">
        <ele>762.94</ele>
        <time>2021-05-06T09:57:26Z</time>
      </trkpt>
      <trkpt lat="44.22162" lon="6.08528">
        <ele>762.94</ele>
        <time>2021-05-06T09:57:47Z</time>
      </trkpt>
      <trkpt lat="44.22159" lon="6.08524">
        <ele>762.46</ele>
        <time>2021-05-06T09:58:00Z</time>
      </trkpt>
      <trkpt lat="44.2216" lon="6.08524">
        <ele>762.46</ele>
        <time>2021-05-06T09:58:16Z</time>
      </trkpt>
      <trkpt lat="44.22158" lon="6.08513">
        <ele>761.02</ele>
        <time>2021-05-06T09:58:30Z</time>
      </trkpt>
      <trkpt lat="44.22157" lon="6.08503">
        <ele>760.54</ele>
        <time>2021-05-06T09:58:45Z</time>
      </trkpt>
      <trkpt lat="44.2215" lon="6.08502">
        <ele>760.06</ele>
        <time>2021-05-06T09:58:55Z</time>
      </trkpt>
      <trkpt lat="44.22144" lon="6.08503">
        <ele>758.62</ele>
        <time>2021-05-06T09:59:02Z</time>
      </trkpt>
      <trkpt lat="44.22132" lon="6.08494">
        <ele>757.18</ele>
        <time>2021-05-06T09:59:17Z</time>
      </trkpt>
      <trkpt lat="44.22119" lon="6.0849">
        <ele>755.25</ele>
        <time>2021-05-06T09:59:32Z</time>
      </trkpt>
      <trkpt lat="44.22107" lon="6.08481">
        <ele>754.29</ele>
        <time>2021-05-06T09:59:46Z</time>
      </trkpt>
      <trkpt lat="44.221" lon="6.08466">
        <ele>754.77</ele>
        <time>2021-05-06T10:00:00Z</time>
      </trkpt>
      <trkpt lat="44.22085" lon="6.08455">
        <ele>752.37</ele>
        <time>2021-05-06T10:00:16Z</time>
      </trkpt>
      <trkpt lat="44.22079" lon="6.08442">
        <ele>752.37</ele>
        <time>2021-05-06T10:00:28Z</time>
      </trkpt>
      <trkpt lat="44.22072" lon="6.08433">
        <ele>750.93</ele>
        <time>2021-05-06T10:00:37Z</time>
      </trkpt>
      <trkpt lat="44.22067" lon="6.08422">
        <ele>749.97</ele>
        <time>2021-05-06T10:00:46Z</time>
      </trkpt>
      <trkpt lat="44.22064" lon="6.08404">
        <ele>748.04</ele>
        <time>2021-05-06T10:01:00Z</time>
      </trkpt>
      <trkpt lat="44.22063" lon="6.08397">
        <ele>747.08</ele>
        <time>2021-05-06T10:01:06Z</time>
      </trkpt>
      <trkpt lat="44.22062" lon="6.08395">
        <ele>747.08</ele>
        <time>2021-05-06T10:01:08Z</time>
      </trkpt>
      <trkpt lat="44.22054" lon="6.08383">
        <ele>747.08</ele>
        <time>2021-05-06T10:01:18Z</time>
      </trkpt>
      <trkpt lat="44.22045" lon="6.08374">
        <ele>747.56</ele>
        <time>2021-05-06T10:01:31Z</time>
      </trkpt>
      <trkpt lat="44.22036" lon="6.08364">
        <ele>745.16</ele>
        <time>2021-05-06T10:01:45Z</time>
      </trkpt>
      <trkpt lat="44.22027" lon="6.08348">
        <ele>743.72</ele>
        <time>2021-05-06T10:02:00Z</time>
      </trkpt>
      <trkpt lat="44.2202" lon="6.08336">
        <ele>741.79</ele>
        <time>2021-05-06T10:02:14Z</time>
      </trkpt>
      <trkpt lat="44.22016" lon="6.08333">
        <ele>741.31</ele>
        <time>2021-05-06T10:02:18Z</time>
      </trkpt>
      <trkpt lat="44.22007" lon="6.08323">
        <ele>741.31</ele>
        <time>2021-05-06T10:02:30Z</time>
      </trkpt>
      <trkpt lat="44.21997" lon="6.08311">
        <ele>738.91</ele>
        <time>2021-05-06T10:02:45Z</time>
      </trkpt>
      <trkpt lat="44.2199" lon="6.08297">
        <ele>736.99</ele>
        <time>2021-05-06T10:02:59Z</time>
      </trkpt>
      <trkpt lat="44.21979" lon="6.0829">
        <ele>735.55</ele>
        <time>2021-05-06T10:03:12Z</time>
      </trkpt>
      <trkpt lat="44.21967" lon="6.08285">
        <ele>733.62</ele>
        <time>2021-05-06T10:03:28Z</time>
      </trkpt>
      <trkpt lat="44.21958" lon="6.0828">
        <ele>733.14</ele>
        <time>2021-05-06T10:03:40Z</time>
      </trkpt>
      <trkpt lat="44.2195" lon="6.08267">
        <ele>731.7</ele>
        <time>2021-05-06T10:03:52Z</time>
      </trkpt>
      <trkpt lat="44.21939" lon="6.08258">
        <ele>730.26</ele>
        <time>2021-05-06T10:04:06Z</time>
      </trkpt>
      <trkpt lat="44.2193" lon="6.08253">
        <ele>729.3</ele>
        <time>2021-05-06T10:04:16Z</time>
      </trkpt>
      <trkpt lat="44.21919" lon="6.08241">
        <ele>728.34</ele>
        <time>2021-05-06T10:04:29Z</time>
      </trkpt>
      <trkpt lat="44.21904" lon="6.0823">
        <ele>728.34</ele>
        <time>2021-05-06T10:04:45Z</time>
      </trkpt>
      <trkpt lat="44.21901" lon="6.08226">
        <ele>727.86</ele>
        <time>2021-05-06T10:04:49Z</time>
      </trkpt>
      <trkpt lat="44.21896" lon="6.08201">
        <ele>727.37</ele>
        <time>2021-05-06T10:05:07Z</time>
      </trkpt>
      <trkpt lat="44.21892" lon="6.08182">
        <ele>727.37</ele>
        <time>2021-05-06T10:05:21Z</time>
      </trkpt>
      <trkpt lat="44.21892" lon="6.0818">
        <ele>727.37</ele>
        <time>2021-05-06T10:05:22Z</time>
      </trkpt>
      <trkpt lat="44.21889" lon="6.08168">
        <ele>727.37</ele>
        <time>2021-05-06T10:05:31Z</time>
      </trkpt>
      <trkpt lat="44.21885" lon="6.08144">
        <ele>726.89</ele>
        <time>2021-05-06T10:05:47Z</time>
      </trkpt>
      <trkpt lat="44.21885" lon="6.08143">
        <ele>726.89</ele>
        <time>2021-05-06T10:05:48Z</time>
      </trkpt>
      <trkpt lat="44.21887" lon="6.08133">
        <ele>726.41</ele>
        <time>2021-05-06T10:05:54Z</time>
      </trkpt>
      <trkpt lat="44.21891" lon="6.08116">
        <ele>727.37</ele>
        <time>2021-05-06T10:06:03Z</time>
      </trkpt>
      <trkpt lat="44.21888" lon="6.08112">
        <ele>725.93</ele>
        <time>2021-05-06T10:06:06Z</time>
      </trkpt>
      <trkpt lat="44.21883" lon="6.08109">
        <ele>725.45</ele>
        <time>2021-05-06T10:06:10Z</time>
      </trkpt>
      <trkpt lat="44.21869" lon="6.08097">
        <ele>724.01</ele>
        <time>2021-05-06T10:06:25Z</time>
      </trkpt>
      <trkpt lat="44.21859" lon="6.0808">
        <ele>723.05</ele>
        <time>2021-05-06T10:06:38Z</time>
      </trkpt>
      <trkpt lat="44.21851" lon="6.08061">
        <ele>721.61</ele>
        <time>2021-05-06T10:06:53Z</time>
      </trkpt>
      <trkpt lat="44.2185" lon="6.08059">
        <ele>721.61</ele>
        <time>2021-05-06T10:06:54Z</time>
      </trkpt>
      <trkpt lat="44.21849" lon="6.08045">
        <ele>721.61</ele>
        <time>2021-05-06T10:07:02Z</time>
      </trkpt>
      <trkpt lat="44.21835" lon="6.0803">
        <ele>722.09</ele>
        <time>2021-05-06T10:07:18Z</time>
      </trkpt>
      <trkpt lat="44.21821" lon="6.08016">
        <ele>722.09</ele>
        <time>2021-05-06T10:07:32Z</time>
      </trkpt>
      <trkpt lat="44.21808" lon="6.07997">
        <ele>721.13</ele>
        <time>2021-05-06T10:07:50Z</time>
      </trkpt>
      <trkpt lat="44.21803" lon="6.07979">
        <ele>718.72</ele>
        <time>2021-05-06T10:08:05Z</time>
      </trkpt>
      <trkpt lat="44.218" lon="6.07968">
        <ele>717.28</ele>
        <time>2021-05-06T10:08:20Z</time>
      </trkpt>
      <trkpt lat="44.21796" lon="6.07959">
        <ele>716.32</ele>
        <time>2021-05-06T10:08:35Z</time>
      </trkpt>
      <trkpt lat="44.21795" lon="6.07958">
        <ele>716.8</ele>
        <time>2021-05-06T10:08:36Z</time>
      </trkpt>
      <trkpt lat="44.21792" lon="6.07945">
        <ele>715.84</ele>
        <time>2021-05-06T10:08:49Z</time>
      </trkpt>
      <trkpt lat="44.21795" lon="6.07935">
        <ele>716.32</ele>
        <time>2021-05-06T10:09:00Z</time>
      </trkpt>
      <trkpt lat="44.21797" lon="6.07931">
        <ele>716.32</ele>
        <time>2021-05-06T10:09:06Z</time>
      </trkpt>
      <trkpt lat="44.21797" lon="6.07924">
        <ele>716.8</ele>
        <time>2021-05-06T10:09:12Z</time>
      </trkpt>
      <trkpt lat="44.21796" lon="6.07915">
        <ele>716.8</ele>
        <time>2021-05-06T10:09:18Z</time>
      </trkpt>
      <trkpt lat="44.21796" lon="6.07911">
        <ele>716.8</ele>
        <time>2021-05-06T10:09:21Z</time>
      </trkpt>
      <trkpt lat="44.21795" lon="6.07891">
        <ele>717.28</ele>
        <time>2021-05-06T10:09:36Z</time>
      </trkpt>
      <trkpt lat="44.21796" lon="6.07873">
        <ele>717.76</ele>
        <time>2021-05-06T10:09:50Z</time>
      </trkpt>
      <trkpt lat="44.21797" lon="6.07858">
        <ele>717.76</ele>
        <time>2021-05-06T10:10:04Z</time>
      </trkpt>
      <trkpt lat="44.21796" lon="6.07834">
        <ele>720.16</ele>
        <time>2021-05-06T10:10:21Z</time>
      </trkpt>
      <trkpt lat="44.21791" lon="6.07818">
        <ele>720.65</ele>
        <time>2021-05-06T10:10:34Z</time>
      </trkpt>
      <trkpt lat="44.21789" lon="6.078">
        <ele>721.13</ele>
        <time>2021-05-06T10:10:49Z</time>
      </trkpt>
      <trkpt lat="44.21784" lon="6.07787">
        <ele>721.13</ele>
        <time>2021-05-06T10:11:03Z</time>
      </trkpt>
      <trkpt lat="44.21777" lon="6.07769">
        <ele>722.09</ele>
        <time>2021-05-06T10:11:17Z</time>
      </trkpt>
      <trkpt lat="44.21777" lon="6.07768">
        <ele>722.09</ele>
        <time>2021-05-06T10:11:18Z</time>
      </trkpt>
      <trkpt lat="44.21774" lon="6.07763">
        <ele>722.09</ele>
        <time>2021-05-06T10:11:22Z</time>
      </trkpt>
      <trkpt lat="44.21771" lon="6.07751">
        <ele>722.57</ele>
        <time>2021-05-06T10:11:31Z</time>
      </trkpt>
      <trkpt lat="44.21769" lon="6.07748">
        <ele>722.57</ele>
        <time>2021-05-06T10:11:33Z</time>
      </trkpt>
      <trkpt lat="44.21764" lon="6.07731">
        <ele>722.09</ele>
        <time>2021-05-06T10:11:46Z</time>
      </trkpt>
      <trkpt lat="44.21762" lon="6.07729">
        <ele>722.09</ele>
        <time>2021-05-06T10:11:48Z</time>
      </trkpt>
      <trkpt lat="44.2175" lon="6.07716">
        <ele>722.09</ele>
        <time>2021-05-06T10:12:02Z</time>
      </trkpt>
      <trkpt lat="44.21743" lon="6.07701">
        <ele>721.61</ele>
        <time>2021-05-06T10:12:13Z</time>
      </trkpt>
      <trkpt lat="44.21736" lon="6.07686">
        <ele>721.61</ele>
        <time>2021-05-06T10:12:25Z</time>
      </trkpt>
      <trkpt lat="44.2173" lon="6.07675">
        <ele>721.61</ele>
        <time>2021-05-06T10:12:36Z</time>
      </trkpt>
      <trkpt lat="44.21727" lon="6.07673">
        <ele>721.61</ele>
        <time>2021-05-06T10:12:39Z</time>
      </trkpt>
      <trkpt lat="44.21725" lon="6.07655">
        <ele>721.61</ele>
        <time>2021-05-06T10:12:50Z</time>
      </trkpt>
      <trkpt lat="44.21724" lon="6.07632">
        <ele>721.61</ele>
        <time>2021-05-06T10:13:04Z</time>
      </trkpt>
      <trkpt lat="44.21723" lon="6.07627">
        <ele>721.61</ele>
        <time>2021-05-06T10:13:07Z</time>
      </trkpt>
      <trkpt lat="44.21721" lon="6.07605">
        <ele>721.61</ele>
        <time>2021-05-06T10:13:22Z</time>
      </trkpt>
      <trkpt lat="44.21721" lon="6.07603">
        <ele>721.61</ele>
        <time>2021-05-06T10:13:23Z</time>
      </trkpt>
      <trkpt lat="44.21718" lon="6.07582">
        <ele>722.57</ele>
        <time>2021-05-06T10:13:40Z</time>
      </trkpt>
      <trkpt lat="44.21721" lon="6.07557">
        <ele>723.05</ele>
        <time>2021-05-06T10:13:55Z</time>
      </trkpt>
      <trkpt lat="44.2172" lon="6.07547">
        <ele>723.05</ele>
        <time>2021-05-06T10:14:02Z</time>
      </trkpt>
      <trkpt lat="44.21721" lon="6.07536">
        <ele>723.53</ele>
        <time>2021-05-06T10:14:10Z</time>
      </trkpt>
      <trkpt lat="44.21719" lon="6.07528">
        <ele>723.53</ele>
        <time>2021-05-06T10:14:16Z</time>
      </trkpt>
      <trkpt lat="44.2172" lon="6.07502">
        <ele>723.53</ele>
        <time>2021-05-06T10:14:32Z</time>
      </trkpt>
      <trkpt lat="44.21714" lon="6.0748">
        <ele>723.05</ele>
        <time>2021-05-06T10:14:48Z</time>
      </trkpt>
      <trkpt lat="44.21708" lon="6.07471">
        <ele>722.57</ele>
        <time>2021-05-06T10:15:03Z</time>
      </trkpt>
      <trkpt lat="44.21706" lon="6.07458">
        <ele>722.57</ele>
        <time>2021-05-06T10:15:20Z</time>
      </trkpt>
      <trkpt lat="44.21699" lon="6.07445">
        <ele>722.57</ele>
        <time>2021-05-06T10:15:35Z</time>
      </trkpt>
      <trkpt lat="44.21692" lon="6.07426">
        <ele>722.09</ele>
        <time>2021-05-06T10:15:52Z</time>
      </trkpt>
      <trkpt lat="44.21688" lon="6.07414">
        <ele>722.09</ele>
        <time>2021-05-06T10:16:03Z</time>
      </trkpt>
      <trkpt lat="44.21684" lon="6.07398">
        <ele>721.61</ele>
        <time>2021-05-06T10:16:17Z</time>
      </trkpt>
      <trkpt lat="44.2168" lon="6.07379">
        <ele>721.13</ele>
        <time>2021-05-06T10:16:32Z</time>
      </trkpt>
      <trkpt lat="44.21679" lon="6.07375">
        <ele>721.13</ele>
        <time>2021-05-06T10:16:35Z</time>
      </trkpt>
      <trkpt lat="44.21671" lon="6.07353">
        <ele>721.13</ele>
        <time>2021-05-06T10:16:51Z</time>
      </trkpt>
      <trkpt lat="44.21666" lon="6.07345">
        <ele>721.61</ele>
        <time>2021-05-06T10:17:05Z</time>
      </trkpt>
      <trkpt lat="44.21669" lon="6.07347">
        <ele>721.61</ele>
        <time>2021-05-06T10:17:09Z</time>
      </trkpt>
      <trkpt lat="44.21679" lon="6.07353">
        <ele>722.57</ele>
        <time>2021-05-06T10:17:22Z</time>
      </trkpt>
      <trkpt lat="44.21688" lon="6.07367">
        <ele>724.01</ele>
        <time>2021-05-06T10:17:39Z</time>
      </trkpt>
      <trkpt lat="44.21691" lon="6.07377">
        <ele>724.97</ele>
        <time>2021-05-06T10:17:52Z</time>
      </trkpt>
      <trkpt lat="44.21691" lon="6.07377">
        <ele>726.41</ele>
        <time>2021-05-06T10:18:05Z</time>
      </trkpt>
      <trkpt lat="44.21697" lon="6.07362">
        <ele>728.34</ele>
        <time>2021-05-06T10:18:19Z</time>
      </trkpt>
      <trkpt lat="44.21704" lon="6.07353">
        <ele>730.26</ele>
        <time>2021-05-06T10:18:34Z</time>
      </trkpt>
      <trkpt lat="44.21709" lon="6.07346">
        <ele>731.22</ele>
        <time>2021-05-06T10:18:49Z</time>
      </trkpt>
      <trkpt lat="44.21712" lon="6.0734">
        <ele>732.66</ele>
        <time>2021-05-06T10:19:01Z</time>
      </trkpt>
      <trkpt lat="44.21714" lon="6.0733">
        <ele>733.14</ele>
        <time>2021-05-06T10:19:15Z</time>
      </trkpt>
      <trkpt lat="44.21717" lon="6.07321">
        <ele>733.62</ele>
        <time>2021-05-06T10:19:29Z</time>
      </trkpt>
      <trkpt lat="44.21716" lon="6.07312">
        <ele>734.1</ele>
        <time>2021-05-06T10:19:44Z</time>
      </trkpt>
      <trkpt lat="44.21715" lon="6.07311">
        <ele>734.1</ele>
        <time>2021-05-06T10:20:05Z</time>
      </trkpt>
      <trkpt lat="44.21714" lon="6.07306">
        <ele>734.1</ele>
        <time>2021-05-06T10:20:21Z</time>
      </trkpt>
      <trkpt lat="44.21712" lon="6.07305">
        <ele>734.1</ele>
        <time>2021-05-06T10:20:37Z</time>
      </trkpt>
      <trkpt lat="44.21711" lon="6.07301">
        <ele>734.1</ele>
        <time>2021-05-06T10:20:56Z</time>
      </trkpt>
      <trkpt lat="44.2171" lon="6.07296">
        <ele>734.1</ele>
        <time>2021-05-06T10:21:19Z</time>
      </trkpt>
      <trkpt lat="44.21702" lon="6.0729">
        <ele>733.14</ele>
        <time>2021-05-06T10:21:35Z</time>
      </trkpt>
      <trkpt lat="44.21708" lon="6.07285">
        <ele>733.62</ele>
        <time>2021-05-06T10:21:59Z</time>
      </trkpt>
      <trkpt lat="44.21707" lon="6.07289">
        <ele>733.62</ele>
        <time>2021-05-06T10:22:25Z</time>
      </trkpt>
      <trkpt lat="44.21707" lon="6.07291">
        <ele>734.1</ele>
        <time>2021-05-06T10:22:45Z</time>
      </trkpt>
      <trkpt lat="44.21704" lon="6.07294">
        <ele>734.1</ele>
        <time>2021-05-06T10:23:05Z</time>
      </trkpt>
      <trkpt lat="44.21705" lon="6.07293">
        <ele>734.1</ele>
        <time>2021-05-06T10:23:36Z</time>
      </trkpt>
      <trkpt lat="44.21708" lon="6.07296">
        <ele>734.58</ele>
        <time>2021-05-06T10:24:05Z</time>
      </trkpt>
      <trkpt lat="44.21708" lon="6.07292">
        <ele>734.1</ele>
        <time>2021-05-06T10:24:34Z</time>
      </trkpt>
      <trkpt lat="44.21712" lon="6.07287">
        <ele>734.58</ele>
        <time>2021-05-06T10:25:00Z</time>
      </trkpt>
      <trkpt lat="44.21712" lon="6.07294">
        <ele>734.58</ele>
        <time>2021-05-06T10:25:20Z</time>
      </trkpt>
      <trkpt lat="44.21715" lon="6.07298">
        <ele>735.07</ele>
        <time>2021-05-06T10:25:35Z</time>
      </trkpt>
      <trkpt lat="44.21716" lon="6.07304">
        <ele>735.07</ele>
        <time>2021-05-06T10:25:48Z</time>
      </trkpt>
      <trkpt lat="44.21716" lon="6.07299">
        <ele>734.1</ele>
        <time>2021-05-06T10:26:03Z</time>
      </trkpt>
      <trkpt lat="44.2172" lon="6.07303">
        <ele>734.58</ele>
        <time>2021-05-06T10:26:18Z</time>
      </trkpt>
      <trkpt lat="44.21719" lon="6.07305">
        <ele>733.62</ele>
        <time>2021-05-06T10:26:42Z</time>
      </trkpt>
      <trkpt lat="44.21718" lon="6.07307">
        <ele>734.1</ele>
        <time>2021-05-06T10:27:16Z</time>
      </trkpt>
      <trkpt lat="44.21715" lon="6.07308">
        <ele>734.1</ele>
        <time>2021-05-06T10:27:47Z</time>
      </trkpt>
      <trkpt lat="44.21719" lon="6.07307">
        <ele>733.62</ele>
        <time>2021-05-06T10:28:24Z</time>
      </trkpt>
      <trkpt lat="44.21713" lon="6.07303">
        <ele>733.62</ele>
        <time>2021-05-06T10:28:48Z</time>
      </trkpt>
      <trkpt lat="44.21715" lon="6.07303">
        <ele>733.62</ele>
        <time>2021-05-06T10:29:17Z</time>
      </trkpt>
      <trkpt lat="44.21718" lon="6.07302">
        <ele>733.62</ele>
        <time>2021-05-06T10:29:47Z</time>
      </trkpt>
      <trkpt lat="44.21718" lon="6.07301">
        <ele>733.62</ele>
        <time>2021-05-06T10:30:16Z</time>
      </trkpt>
      <trkpt lat="44.21716" lon="6.07303">
        <ele>733.62</ele>
        <time>2021-05-06T10:30:52Z</time>
      </trkpt>
      <trkpt lat="44.2172" lon="6.073">
        <ele>733.62</ele>
        <time>2021-05-06T10:31:28Z</time>
      </trkpt>
      <trkpt lat="44.21724" lon="6.07306">
        <ele>734.1</ele>
        <time>2021-05-06T10:31:57Z</time>
      </trkpt>
      <trkpt lat="44.21716" lon="6.07309">
        <ele>734.1</ele>
        <time>2021-05-06T10:32:23Z</time>
      </trkpt>
      <trkpt lat="44.21718" lon="6.07308">
        <ele>734.1</ele>
        <time>2021-05-06T10:33:00Z</time>
      </trkpt>
      <trkpt lat="44.21712" lon="6.07306">
        <ele>734.1</ele>
        <time>2021-05-06T10:33:35Z</time>
      </trkpt>
      <trkpt lat="44.21711" lon="6.07306">
        <ele>734.1</ele>
        <time>2021-05-06T10:34:02Z</time>
      </trkpt>
      <trkpt lat="44.21715" lon="6.07305">
        <ele>734.1</ele>
        <time>2021-05-06T10:34:42Z</time>
      </trkpt>
      <trkpt lat="44.21714" lon="6.07309">
        <ele>734.1</ele>
        <time>2021-05-06T10:35:13Z</time>
      </trkpt>
      <trkpt lat="44.21719" lon="6.07308">
        <ele>734.1</ele>
        <time>2021-05-06T10:35:46Z</time>
      </trkpt>
      <trkpt lat="44.21716" lon="6.07299">
        <ele>734.1</ele>
        <time>2021-05-06T10:36:14Z</time>
      </trkpt>
      <trkpt lat="44.2172" lon="6.07304">
        <ele>734.1</ele>
        <time>2021-05-06T10:36:44Z</time>
      </trkpt>
      <trkpt lat="44.21726" lon="6.07302">
        <ele>734.1</ele>
        <time>2021-05-06T10:37:16Z</time>
      </trkpt>
      <trkpt lat="44.21726" lon="6.07302">
        <ele>733.62</ele>
        <time>2021-05-06T10:37:41Z</time>
      </trkpt>
      <trkpt lat="44.21726" lon="6.07303">
        <ele>733.62</ele>
        <time>2021-05-06T10:38:08Z</time>
      </trkpt>
      <trkpt lat="44.2172" lon="6.07303">
        <ele>733.62</ele>
        <time>2021-05-06T10:38:29Z</time>
      </trkpt>
      <trkpt lat="44.21718" lon="6.07302">
        <ele>733.62</ele>
        <time>2021-05-06T10:38:55Z</time>
      </trkpt>
      <trkpt lat="44.21705" lon="6.07302">
        <ele>733.62</ele>
        <time>2021-05-06T10:39:35Z</time>
      </trkpt>
      <trkpt lat="44.21705" lon="6.07305">
        <ele>733.62</ele>
        <time>2021-05-06T10:40:13Z</time>
      </trkpt>
      <trkpt lat="44.21703" lon="6.07296">
        <ele>733.62</ele>
        <time>2021-05-06T10:40:49Z</time>
      </trkpt>
      <trkpt lat="44.21712" lon="6.07301">
        <ele>733.62</ele>
        <time>2021-05-06T10:41:21Z</time>
      </trkpt>
      <trkpt lat="44.21721" lon="6.07303">
        <ele>734.1</ele>
        <time>2021-05-06T10:41:58Z</time>
      </trkpt>
      <trkpt lat="44.21725" lon="6.07303">
        <ele>734.1</ele>
        <time>2021-05-06T10:42:33Z</time>
      </trkpt>
      <trkpt lat="44.21729" lon="6.07306">
        <ele>734.1</ele>
        <time>2021-05-06T10:42:58Z</time>
      </trkpt>
      <trkpt lat="44.21713" lon="6.07301">
        <ele>734.1</ele>
        <time>2021-05-06T10:43:34Z</time>
      </trkpt>
      <trkpt lat="44.21707" lon="6.07306">
        <ele>735.07</ele>
        <time>2021-05-06T10:44:12Z</time>
      </trkpt>
      <trkpt lat="44.21708" lon="6.07303">
        <ele>735.07</ele>
        <time>2021-05-06T10:44:44Z</time>
      </trkpt>
      <trkpt lat="44.21716" lon="6.07307">
        <ele>735.55</ele>
        <time>2021-05-06T10:45:18Z</time>
      </trkpt>
      <trkpt lat="44.21718" lon="6.07304">
        <ele>735.55</ele>
        <time>2021-05-06T10:45:47Z</time>
      </trkpt>
      <trkpt lat="44.21714" lon="6.07299">
        <ele>736.03</ele>
        <time>2021-05-06T10:46:20Z</time>
      </trkpt>
      <trkpt lat="44.21701" lon="6.07307">
        <ele>735.55</ele>
        <time>2021-05-06T10:46:53Z</time>
      </trkpt>
      <trkpt lat="44.2172" lon="6.07305">
        <ele>736.03</ele>
        <time>2021-05-06T10:47:26Z</time>
      </trkpt>
      <trkpt lat="44.21718" lon="6.073">
        <ele>736.03</ele>
        <time>2021-05-06T10:48:08Z</time>
      </trkpt>
      <trkpt lat="44.21717" lon="6.07301">
        <ele>736.03</ele>
        <time>2021-05-06T10:48:46Z</time>
      </trkpt>
      <trkpt lat="44.21718" lon="6.07311">
        <ele>736.03</ele>
        <time>2021-05-06T10:49:18Z</time>
      </trkpt>
      <trkpt lat="44.21713" lon="6.07309">
        <ele>736.03</ele>
        <time>2021-05-06T10:49:52Z</time>
      </trkpt>
      <trkpt lat="44.21735" lon="6.07313">
        <ele>736.03</ele>
        <time>2021-05-06T10:50:30Z</time>
      </trkpt>
      <trkpt lat="44.21734" lon="6.07313">
        <ele>736.03</ele>
        <time>2021-05-06T10:51:03Z</time>
      </trkpt>
      <trkpt lat="44.21756" lon="6.0731">
        <ele>735.55</ele>
        <time>2021-05-06T10:51:37Z</time>
      </trkpt>
      <trkpt lat="44.21744" lon="6.07313">
        <ele>735.55</ele>
        <time>2021-05-06T10:52:12Z</time>
      </trkpt>
      <trkpt lat="44.21761" lon="6.07315">
        <ele>735.07</ele>
        <time>2021-05-06T10:52:43Z</time>
      </trkpt>
      <trkpt lat="44.21739" lon="6.07303">
        <ele>735.07</ele>
        <time>2021-05-06T10:53:11Z</time>
      </trkpt>
      <trkpt lat="44.21754" lon="6.07316">
        <ele>734.58</ele>
        <time>2021-05-06T10:53:45Z</time>
      </trkpt>
      <trkpt lat="44.21744" lon="6.07313">
        <ele>734.58</ele>
        <time>2021-05-06T10:54:21Z</time>
      </trkpt>
      <trkpt lat="44.21725" lon="6.0731">
        <ele>734.58</ele>
        <time>2021-05-06T10:54:58Z</time>
      </trkpt>
      <trkpt lat="44.21718" lon="6.07308">
        <ele>734.1</ele>
        <time>2021-05-06T10:55:37Z</time>
      </trkpt>
      <trkpt lat="44.21712" lon="6.07301">
        <ele>734.1</ele>
        <time>2021-05-06T10:56:15Z</time>
      </trkpt>
      <trkpt lat="44.21721" lon="6.07306">
        <ele>734.1</ele>
        <time>2021-05-06T10:56:56Z</time>
      </trkpt>
      <trkpt lat="44.21724" lon="6.07304">
        <ele>734.1</ele>
        <time>2021-05-06T10:57:34Z</time>
      </trkpt>
      <trkpt lat="44.21719" lon="6.07305">
        <ele>734.1</ele>
        <time>2021-05-06T10:58:04Z</time>
      </trkpt>
      <trkpt lat="44.21732" lon="6.07308">
        <ele>734.1</ele>
        <time>2021-05-06T10:58:32Z</time>
      </trkpt>
      <trkpt lat="44.21722" lon="6.07298">
        <ele>734.1</ele>
        <time>2021-05-06T10:58:56Z</time>
      </trkpt>
      <trkpt lat="44.2172" lon="6.07298">
        <ele>734.1</ele>
        <time>2021-05-06T10:59:28Z</time>
      </trkpt>
      <trkpt lat="44.21723" lon="6.07308">
        <ele>734.1</ele>
        <time>2021-05-06T11:00:08Z</time>
      </trkpt>
      <trkpt lat="44.21721" lon="6.07305">
        <ele>734.1</ele>
        <time>2021-05-06T11:00:41Z</time>
      </trkpt>
      <trkpt lat="44.21729" lon="6.07302">
        <ele>734.1</ele>
        <time>2021-05-06T11:01:14Z</time>
      </trkpt>
      <trkpt lat="44.21718" lon="6.07302">
        <ele>734.1</ele>
        <time>2021-05-06T11:01:48Z</time>
      </trkpt>
      <trkpt lat="44.21723" lon="6.07303">
        <ele>734.1</ele>
        <time>2021-05-06T11:02:14Z</time>
      </trkpt>
      <trkpt lat="44.21717" lon="6.073">
        <ele>734.1</ele>
        <time>2021-05-06T11:02:33Z</time>
      </trkpt>
      <trkpt lat="44.21704" lon="6.07294">
        <ele>733.62</ele>
        <time>2021-05-06T11:02:56Z</time>
      </trkpt>
      <trkpt lat="44.2172" lon="6.07299">
        <ele>733.62</ele>
        <time>2021-05-06T11:03:29Z</time>
      </trkpt>
      <trkpt lat="44.21714" lon="6.07297">
        <ele>733.62</ele>
        <time>2021-05-06T11:04:00Z</time>
      </trkpt>
      <trkpt lat="44.21723" lon="6.07301">
        <ele>733.62</ele>
        <time>2021-05-06T11:04:31Z</time>
      </trkpt>
      <trkpt lat="44.21724" lon="6.07299">
        <ele>733.62</ele>
        <time>2021-05-06T11:05:02Z</time>
      </trkpt>
      <trkpt lat="44.21727" lon="6.07294">
        <ele>733.62</ele>
        <time>2021-05-06T11:05:41Z</time>
      </trkpt>
      <trkpt lat="44.21722" lon="6.07294">
        <ele>733.14</ele>
        <time>2021-05-06T11:06:19Z</time>
      </trkpt>
      <trkpt lat="44.21719" lon="6.07298">
        <ele>733.14</ele>
        <time>2021-05-06T11:07:06Z</time>
      </trkpt>
      <trkpt lat="44.2172" lon="6.07302">
        <ele>733.14</ele>
        <time>2021-05-06T11:07:26Z</time>
      </trkpt>
      <trkpt lat="44.21711" lon="6.07299">
        <ele>733.62</ele>
        <time>2021-05-06T11:07:55Z</time>
      </trkpt>
      <trkpt lat="44.21719" lon="6.073">
        <ele>734.1</ele>
        <time>2021-05-06T11:08:30Z</time>
      </trkpt>
      <trkpt lat="44.21714" lon="6.07301">
        <ele>734.58</ele>
        <time>2021-05-06T11:08:42Z</time>
      </trkpt>
      <trkpt lat="44.21715" lon="6.07297">
        <ele>734.58</ele>
        <time>2021-05-06T11:09:06Z</time>
      </trkpt>
      <trkpt lat="44.21715" lon="6.07298">
        <ele>734.58</ele>
        <time>2021-05-06T11:09:34Z</time>
      </trkpt>
      <trkpt lat="44.21718" lon="6.073">
        <ele>734.58</ele>
        <time>2021-05-06T11:09:57Z</time>
      </trkpt>
      <trkpt lat="44.21715" lon="6.07305">
        <ele>734.1</ele>
        <time>2021-05-06T11:10:19Z</time>
      </trkpt>
      <trkpt lat="44.21711" lon="6.07309">
        <ele>734.1</ele>
        <time>2021-05-06T11:10:43Z</time>
      </trkpt>
      <trkpt lat="44.21713" lon="6.073">
        <ele>734.58</ele>
        <time>2021-05-06T11:11:00Z</time>
      </trkpt>
      <trkpt lat="44.21709" lon="6.07298">
        <ele>734.58</ele>
        <time>2021-05-06T11:11:29Z</time>
      </trkpt>
      <trkpt lat="44.21711" lon="6.07295">
        <ele>734.58</ele>
        <time>2021-05-06T11:12:03Z</time>
      </trkpt>
      <trkpt lat="44.21706" lon="6.07293">
        <ele>735.07</ele>
        <time>2021-05-06T11:12:36Z</time>
      </trkpt>
      <trkpt lat="44.21708" lon="6.07293">
        <ele>735.55</ele>
        <time>2021-05-06T11:13:08Z</time>
      </trkpt>
      <trkpt lat="44.21705" lon="6.07291">
        <ele>735.55</ele>
        <time>2021-05-06T11:13:36Z</time>
      </trkpt>
      <trkpt lat="44.21702" lon="6.07293">
        <ele>736.99</ele>
        <time>2021-05-06T11:14:10Z</time>
      </trkpt>
      <trkpt lat="44.21706" lon="6.07289">
        <ele>736.03</ele>
        <time>2021-05-06T11:14:34Z</time>
      </trkpt>
      <trkpt lat="44.21717" lon="6.07296">
        <ele>736.03</ele>
        <time>2021-05-06T11:15:09Z</time>
      </trkpt>
      <trkpt lat="44.21709" lon="6.07295">
        <ele>736.51</ele>
        <time>2021-05-06T11:15:31Z</time>
      </trkpt>
      <trkpt lat="44.21713" lon="6.07307">
        <ele>736.51</ele>
        <time>2021-05-06T11:15:51Z</time>
      </trkpt>
      <trkpt lat="44.21714" lon="6.07309">
        <ele>736.51</ele>
        <time>2021-05-06T11:16:16Z</time>
      </trkpt>
      <trkpt lat="44.21715" lon="6.07314">
        <ele>736.99</ele>
        <time>2021-05-06T11:16:46Z</time>
      </trkpt>
      <trkpt lat="44.21713" lon="6.07323">
        <ele>736.51</ele>
        <time>2021-05-06T11:17:01Z</time>
      </trkpt>
      <trkpt lat="44.2171" lon="6.07337">
        <ele>736.03</ele>
        <time>2021-05-06T11:17:14Z</time>
      </trkpt>
      <trkpt lat="44.21707" lon="6.07352">
        <ele>734.58</ele>
        <time>2021-05-06T11:17:29Z</time>
      </trkpt>
      <trkpt lat="44.21703" lon="6.07359">
        <ele>733.14</ele>
        <time>2021-05-06T11:17:44Z</time>
      </trkpt>
      <trkpt lat="44.21698" lon="6.07366">
        <ele>731.7</ele>
        <time>2021-05-06T11:17:57Z</time>
      </trkpt>
      <trkpt lat="44.21692" lon="6.07369">
        <ele>730.74</ele>
        <time>2021-05-06T11:18:11Z</time>
      </trkpt>
      <trkpt lat="44.21687" lon="6.07379">
        <ele>728.34</ele>
        <time>2021-05-06T11:18:27Z</time>
      </trkpt>
      <trkpt lat="44.21682" lon="6.07366">
        <ele>726.41</ele>
        <time>2021-05-06T11:18:42Z</time>
      </trkpt>
      <trkpt lat="44.21681" lon="6.07364">
        <ele>726.41</ele>
        <time>2021-05-06T11:18:44Z</time>
      </trkpt>
      <trkpt lat="44.21674" lon="6.07354">
        <ele>724.97</ele>
        <time>2021-05-06T11:19:00Z</time>
      </trkpt>
      <trkpt lat="44.21663" lon="6.07342">
        <ele>723.53</ele>
        <time>2021-05-06T11:19:19Z</time>
      </trkpt>
      <trkpt lat="44.21652" lon="6.07332">
        <ele>723.05</ele>
        <time>2021-05-06T11:19:34Z</time>
      </trkpt>
      <trkpt lat="44.21643" lon="6.07315">
        <ele>722.57</ele>
        <time>2021-05-06T11:19:50Z</time>
      </trkpt>
      <trkpt lat="44.21632" lon="6.07302">
        <ele>722.57</ele>
        <time>2021-05-06T11:20:06Z</time>
      </trkpt>
      <trkpt lat="44.21628" lon="6.07295">
        <ele>724.01</ele>
        <time>2021-05-06T11:20:13Z</time>
      </trkpt>
      <trkpt lat="44.21621" lon="6.0729">
        <ele>723.05</ele>
        <time>2021-05-06T11:20:19Z</time>
      </trkpt>
      <trkpt lat="44.21615" lon="6.07286">
        <ele>722.57</ele>
        <time>2021-05-06T11:20:25Z</time>
      </trkpt>
      <trkpt lat="44.21601" lon="6.07275">
        <ele>722.57</ele>
        <time>2021-05-06T11:20:40Z</time>
      </trkpt>
      <trkpt lat="44.21587" lon="6.07263">
        <ele>722.09</ele>
        <time>2021-05-06T11:20:56Z</time>
      </trkpt>
      <trkpt lat="44.21574" lon="6.07258">
        <ele>721.61</ele>
        <time>2021-05-06T11:21:09Z</time>
      </trkpt>
      <trkpt lat="44.2157" lon="6.07256">
        <ele>721.13</ele>
        <time>2021-05-06T11:21:13Z</time>
      </trkpt>
      <trkpt lat="44.21555" lon="6.07245">
        <ele>720.65</ele>
        <time>2021-05-06T11:21:30Z</time>
      </trkpt>
      <trkpt lat="44.21545" lon="6.07239">
        <ele>720.16</ele>
        <time>2021-05-06T11:21:38Z</time>
      </trkpt>
      <trkpt lat="44.21528" lon="6.07217">
        <ele>719.68</ele>
        <time>2021-05-06T11:21:57Z</time>
      </trkpt>
      <trkpt lat="44.21519" lon="6.07199">
        <ele>718.72</ele>
        <time>2021-05-06T11:22:13Z</time>
      </trkpt>
      <trkpt lat="44.21519" lon="6.07198">
        <ele>720.16</ele>
        <time>2021-05-06T11:22:14Z</time>
      </trkpt>
      <trkpt lat="44.21518" lon="6.07197">
        <ele>718.72</ele>
        <time>2021-05-06T11:22:15Z</time>
      </trkpt>
      <trkpt lat="44.21512" lon="6.07177">
        <ele>719.2</ele>
        <time>2021-05-06T11:22:31Z</time>
      </trkpt>
      <trkpt lat="44.21499" lon="6.07156">
        <ele>719.2</ele>
        <time>2021-05-06T11:22:48Z</time>
      </trkpt>
      <trkpt lat="44.21487" lon="6.0714">
        <ele>717.76</ele>
        <time>2021-05-06T11:23:04Z</time>
      </trkpt>
      <trkpt lat="44.21474" lon="6.07118">
        <ele>716.8</ele>
        <time>2021-05-06T11:23:24Z</time>
      </trkpt>
      <trkpt lat="44.21464" lon="6.07096">
        <ele>715.36</ele>
        <time>2021-05-06T11:23:41Z</time>
      </trkpt>
      <trkpt lat="44.21457" lon="6.07069">
        <ele>713.92</ele>
        <time>2021-05-06T11:24:01Z</time>
      </trkpt>
      <trkpt lat="44.21451" lon="6.07048">
        <ele>714.88</ele>
        <time>2021-05-06T11:24:16Z</time>
      </trkpt>
      <trkpt lat="44.21451" lon="6.07046">
        <ele>713.44</ele>
        <time>2021-05-06T11:24:17Z</time>
      </trkpt>
      <trkpt lat="44.21447" lon="6.07025">
        <ele>712.95</ele>
        <time>2021-05-06T11:24:34Z</time>
      </trkpt>
      <trkpt lat="44.2144" lon="6.06998">
        <ele>711.51</ele>
        <time>2021-05-06T11:24:54Z</time>
      </trkpt>
      <trkpt lat="44.21432" lon="6.06973">
        <ele>709.59</ele>
        <time>2021-05-06T11:25:13Z</time>
      </trkpt>
      <trkpt lat="44.21432" lon="6.06953">
        <ele>708.15</ele>
        <time>2021-05-06T11:25:27Z</time>
      </trkpt>
      <trkpt lat="44.21436" lon="6.06935">
        <ele>706.71</ele>
        <time>2021-05-06T11:25:43Z</time>
      </trkpt>
      <trkpt lat="44.21441" lon="6.06913">
        <ele>705.26</ele>
        <time>2021-05-06T11:25:58Z</time>
      </trkpt>
      <trkpt lat="44.21439" lon="6.06905">
        <ele>704.78</ele>
        <time>2021-05-06T11:26:15Z</time>
      </trkpt>
      <trkpt lat="44.21438" lon="6.06903">
        <ele>706.23</ele>
        <time>2021-05-06T11:26:17Z</time>
      </trkpt>
      <trkpt lat="44.21421" lon="6.06888">
        <ele>702.86</ele>
        <time>2021-05-06T11:26:35Z</time>
      </trkpt>
      <trkpt lat="44.21405" lon="6.06873">
        <ele>702.38</ele>
        <time>2021-05-06T11:26:52Z</time>
      </trkpt>
      <trkpt lat="44.21388" lon="6.0686">
        <ele>701.42</ele>
        <time>2021-05-06T11:27:09Z</time>
      </trkpt>
      <trkpt lat="44.2137" lon="6.06847">
        <ele>700.46</ele>
        <time>2021-05-06T11:27:27Z</time>
      </trkpt>
      <trkpt lat="44.21356" lon="6.06833">
        <ele>699.5</ele>
        <time>2021-05-06T11:27:44Z</time>
      </trkpt>
      <trkpt lat="44.21341" lon="6.06814">
        <ele>699.02</ele>
        <time>2021-05-06T11:28:02Z</time>
      </trkpt>
      <trkpt lat="44.2133" lon="6.068">
        <ele>699.02</ele>
        <time>2021-05-06T11:28:21Z</time>
      </trkpt>
      <trkpt lat="44.21328" lon="6.06794">
        <ele>698.53</ele>
        <time>2021-05-06T11:28:37Z</time>
      </trkpt>
      <trkpt lat="44.21325" lon="6.06788">
        <ele>698.05</ele>
        <time>2021-05-06T11:28:53Z</time>
      </trkpt>
      <trkpt lat="44.21324" lon="6.0679">
        <ele>697.57</ele>
        <time>2021-05-06T11:29:05Z</time>
      </trkpt>
      <trkpt lat="44.21325" lon="6.0679">
        <ele>697.09</ele>
        <time>2021-05-06T11:29:18Z</time>
      </trkpt>
      <trkpt lat="44.21324" lon="6.06793">
        <ele>697.57</ele>
        <time>2021-05-06T11:29:37Z</time>
      </trkpt>
      <trkpt lat="44.2132" lon="6.06791">
        <ele>698.05</ele>
        <time>2021-05-06T11:29:51Z</time>
      </trkpt>
      <trkpt lat="44.21321" lon="6.0678">
        <ele>698.05</ele>
        <time>2021-05-06T11:30:13Z</time>
      </trkpt>
      <trkpt lat="44.21322" lon="6.06788">
        <ele>697.57</ele>
        <time>2021-05-06T11:30:35Z</time>
      </trkpt>
      <trkpt lat="44.21324" lon="6.06793">
        <ele>697.57</ele>
        <time>2021-05-06T11:31:00Z</time>
      </trkpt>
      <trkpt lat="44.21325" lon="6.06799">
        <ele>697.57</ele>
        <time>2021-05-06T11:31:19Z</time>
      </trkpt>
      <trkpt lat="44.21326" lon="6.0678">
        <ele>699.02</ele>
        <time>2021-05-06T11:31:34Z</time>
      </trkpt>
      <trkpt lat="44.21327" lon="6.06769">
        <ele>700.46</ele>
        <time>2021-05-06T11:31:47Z</time>
      </trkpt>
      <trkpt lat="44.21328" lon="6.06762">
        <ele>702.38</ele>
        <time>2021-05-06T11:32:03Z</time>
      </trkpt>
      <trkpt lat="44.2133" lon="6.06757">
        <ele>704.3</ele>
        <time>2021-05-06T11:32:18Z</time>
      </trkpt>
      <trkpt lat="44.21331" lon="6.06758">
        <ele>705.75</ele>
        <time>2021-05-06T11:32:20Z</time>
      </trkpt>
      <trkpt lat="44.21339" lon="6.06766">
        <ele>705.75</ele>
        <time>2021-05-06T11:32:36Z</time>
      </trkpt>
      <trkpt lat="44.21346" lon="6.06769">
        <ele>706.71</ele>
        <time>2021-05-06T11:32:52Z</time>
      </trkpt>
      <trkpt lat="44.21346" lon="6.0678">
        <ele>707.67</ele>
        <time>2021-05-06T11:33:06Z</time>
      </trkpt>
      <trkpt lat="44.2135" lon="6.06778">
        <ele>709.11</ele>
        <time>2021-05-06T11:33:17Z</time>
      </trkpt>
      <trkpt lat="44.21353" lon="6.0677">
        <ele>709.59</ele>
        <time>2021-05-06T11:33:31Z</time>
      </trkpt>
      <trkpt lat="44.21359" lon="6.06775">
        <ele>711.03</ele>
        <time>2021-05-06T11:33:44Z</time>
      </trkpt>
      <trkpt lat="44.21364" lon="6.06783">
        <ele>712.95</ele>
        <time>2021-05-06T11:34:02Z</time>
      </trkpt>
      <trkpt lat="44.21373" lon="6.06781">
        <ele>714.4</ele>
        <time>2021-05-06T11:34:14Z</time>
      </trkpt>
      <trkpt lat="44.21377" lon="6.06786">
        <ele>716.32</ele>
        <time>2021-05-06T11:34:22Z</time>
      </trkpt>
      <trkpt lat="44.2138" lon="6.06801">
        <ele>715.84</ele>
        <time>2021-05-06T11:34:36Z</time>
      </trkpt>
      <trkpt lat="44.21384" lon="6.06797">
        <ele>716.8</ele>
        <time>2021-05-06T11:34:49Z</time>
      </trkpt>
      <trkpt lat="44.21386" lon="6.06793">
        <ele>717.76</ele>
        <time>2021-05-06T11:35:02Z</time>
      </trkpt>
      <trkpt lat="44.21392" lon="6.06791">
        <ele>719.2</ele>
        <time>2021-05-06T11:35:14Z</time>
      </trkpt>
      <trkpt lat="44.21394" lon="6.06797">
        <ele>720.65</ele>
        <time>2021-05-06T11:35:28Z</time>
      </trkpt>
      <trkpt lat="44.21397" lon="6.06788">
        <ele>722.09</ele>
        <time>2021-05-06T11:35:41Z</time>
      </trkpt>
      <trkpt lat="44.214" lon="6.06792">
        <ele>723.05</ele>
        <time>2021-05-06T11:35:53Z</time>
      </trkpt>
      <trkpt lat="44.21401" lon="6.06795">
        <ele>723.53</ele>
        <time>2021-05-06T11:36:05Z</time>
      </trkpt>
      <trkpt lat="44.21403" lon="6.06799">
        <ele>724.01</ele>
        <time>2021-05-06T11:36:10Z</time>
      </trkpt>
      <trkpt lat="44.21406" lon="6.06807">
        <ele>726.89</ele>
        <time>2021-05-06T11:36:22Z</time>
      </trkpt>
      <trkpt lat="44.21407" lon="6.06807">
        <ele>726.89</ele>
        <time>2021-05-06T11:36:23Z</time>
      </trkpt>
      <trkpt lat="44.21425" lon="6.06813">
        <ele>726.89</ele>
        <time>2021-05-06T11:36:36Z</time>
      </trkpt>
      <trkpt lat="44.21433" lon="6.06817">
        <ele>728.34</ele>
        <time>2021-05-06T11:36:49Z</time>
      </trkpt>
      <trkpt lat="44.21439" lon="6.06811">
        <ele>729.78</ele>
        <time>2021-05-06T11:37:03Z</time>
      </trkpt>
      <trkpt lat="44.21437" lon="6.06799">
        <ele>731.22</ele>
        <time>2021-05-06T11:37:18Z</time>
      </trkpt>
      <trkpt lat="44.21445" lon="6.06799">
        <ele>732.66</ele>
        <time>2021-05-06T11:37:30Z</time>
      </trkpt>
      <trkpt lat="44.21453" lon="6.06808">
        <ele>733.62</ele>
        <time>2021-05-06T11:37:45Z</time>
      </trkpt>
      <trkpt lat="44.21459" lon="6.06819">
        <ele>735.07</ele>
        <time>2021-05-06T11:37:59Z</time>
      </trkpt>
      <trkpt lat="44.21461" lon="6.06834">
        <ele>736.51</ele>
        <time>2021-05-06T11:38:15Z</time>
      </trkpt>
      <trkpt lat="44.21464" lon="6.06832">
        <ele>737.95</ele>
        <time>2021-05-06T11:38:30Z</time>
      </trkpt>
      <trkpt lat="44.21471" lon="6.06835">
        <ele>739.87</ele>
        <time>2021-05-06T11:38:45Z</time>
      </trkpt>
      <trkpt lat="44.2148" lon="6.06842">
        <ele>741.79</ele>
        <time>2021-05-06T11:39:02Z</time>
      </trkpt>
      <trkpt lat="44.21489" lon="6.06851">
        <ele>743.24</ele>
        <time>2021-05-06T11:39:17Z</time>
      </trkpt>
      <trkpt lat="44.21495" lon="6.06858">
        <ele>745.16</ele>
        <time>2021-05-06T11:39:34Z</time>
      </trkpt>
      <trkpt lat="44.21504" lon="6.06856">
        <ele>746.6</ele>
        <time>2021-05-06T11:39:51Z</time>
      </trkpt>
      <trkpt lat="44.21502" lon="6.06844">
        <ele>748.04</ele>
        <time>2021-05-06T11:40:07Z</time>
      </trkpt>
      <trkpt lat="44.21497" lon="6.06834">
        <ele>749.49</ele>
        <time>2021-05-06T11:40:21Z</time>
      </trkpt>
      <trkpt lat="44.21496" lon="6.0682">
        <ele>750.93</ele>
        <time>2021-05-06T11:40:40Z</time>
      </trkpt>
      <trkpt lat="44.21491" lon="6.06808">
        <ele>752.37</ele>
        <time>2021-05-06T11:40:56Z</time>
      </trkpt>
      <trkpt lat="44.21484" lon="6.068">
        <ele>753.33</ele>
        <time>2021-05-06T11:41:08Z</time>
      </trkpt>
      <trkpt lat="44.21485" lon="6.06784">
        <ele>753.81</ele>
        <time>2021-05-06T11:41:22Z</time>
      </trkpt>
      <trkpt lat="44.21491" lon="6.06788">
        <ele>756.21</ele>
        <time>2021-05-06T11:41:39Z</time>
      </trkpt>
      <trkpt lat="44.21497" lon="6.06778">
        <ele>757.66</ele>
        <time>2021-05-06T11:41:53Z</time>
      </trkpt>
      <trkpt lat="44.21497" lon="6.06767">
        <ele>759.58</ele>
        <time>2021-05-06T11:42:08Z</time>
      </trkpt>
      <trkpt lat="44.21494" lon="6.06757">
        <ele>761.5</ele>
        <time>2021-05-06T11:42:25Z</time>
      </trkpt>
      <trkpt lat="44.21498" lon="6.06751">
        <ele>762.94</ele>
        <time>2021-05-06T11:42:39Z</time>
      </trkpt>
      <trkpt lat="44.21506" lon="6.06761">
        <ele>764.87</ele>
        <time>2021-05-06T11:42:54Z</time>
      </trkpt>
      <trkpt lat="44.21513" lon="6.06773">
        <ele>765.83</ele>
        <time>2021-05-06T11:43:09Z</time>
      </trkpt>
      <trkpt lat="44.21516" lon="6.06783">
        <ele>766.79</ele>
        <time>2021-05-06T11:43:22Z</time>
      </trkpt>
      <trkpt lat="44.21514" lon="6.06796">
        <ele>768.23</ele>
        <time>2021-05-06T11:43:38Z</time>
      </trkpt>
      <trkpt lat="44.2152" lon="6.06794">
        <ele>770.15</ele>
        <time>2021-05-06T11:43:54Z</time>
      </trkpt>
      <trkpt lat="44.21524" lon="6.06781">
        <ele>771.6</ele>
        <time>2021-05-06T11:44:11Z</time>
      </trkpt>
      <trkpt lat="44.21522" lon="6.06771">
        <ele>773.52</ele>
        <time>2021-05-06T11:44:28Z</time>
      </trkpt>
      <trkpt lat="44.21524" lon="6.06754">
        <ele>774.48</ele>
        <time>2021-05-06T11:44:44Z</time>
      </trkpt>
      <trkpt lat="44.2152" lon="6.06739">
        <ele>775.44</ele>
        <time>2021-05-06T11:44:59Z</time>
      </trkpt>
      <trkpt lat="44.2152" lon="6.06727">
        <ele>776.88</ele>
        <time>2021-05-06T11:45:13Z</time>
      </trkpt>
      <trkpt lat="44.21525" lon="6.0672">
        <ele>777.84</ele>
        <time>2021-05-06T11:45:29Z</time>
      </trkpt>
      <trkpt lat="44.21526" lon="6.06711">
        <ele>778.81</ele>
        <time>2021-05-06T11:45:45Z</time>
      </trkpt>
      <trkpt lat="44.21522" lon="6.06708">
        <ele>780.25</ele>
        <time>2021-05-06T11:46:03Z</time>
      </trkpt>
      <trkpt lat="44.21518" lon="6.06699">
        <ele>781.69</ele>
        <time>2021-05-06T11:46:16Z</time>
      </trkpt>
      <trkpt lat="44.21513" lon="6.0669">
        <ele>783.13</ele>
        <time>2021-05-06T11:46:28Z</time>
      </trkpt>
      <trkpt lat="44.21511" lon="6.06682">
        <ele>785.05</ele>
        <time>2021-05-06T11:46:42Z</time>
      </trkpt>
      <trkpt lat="44.21506" lon="6.06671">
        <ele>786.98</ele>
        <time>2021-05-06T11:46:56Z</time>
      </trkpt>
      <trkpt lat="44.21502" lon="6.0666">
        <ele>788.42</ele>
        <time>2021-05-06T11:47:10Z</time>
      </trkpt>
      <trkpt lat="44.21511" lon="6.06663">
        <ele>790.82</ele>
        <time>2021-05-06T11:47:27Z</time>
      </trkpt>
      <trkpt lat="44.21519" lon="6.06667">
        <ele>792.74</ele>
        <time>2021-05-06T11:47:44Z</time>
      </trkpt>
      <trkpt lat="44.21525" lon="6.06674">
        <ele>795.15</ele>
        <time>2021-05-06T11:48:00Z</time>
      </trkpt>
      <trkpt lat="44.21533" lon="6.06681">
        <ele>797.07</ele>
        <time>2021-05-06T11:48:17Z</time>
      </trkpt>
      <trkpt lat="44.21539" lon="6.06676">
        <ele>798.99</ele>
        <time>2021-05-06T11:48:31Z</time>
      </trkpt>
      <trkpt lat="44.21541" lon="6.06664">
        <ele>800.44</ele>
        <time>2021-05-06T11:48:46Z</time>
      </trkpt>
      <trkpt lat="44.21544" lon="6.06659">
        <ele>801.4</ele>
        <time>2021-05-06T11:49:04Z</time>
      </trkpt>
      <trkpt lat="44.2155" lon="6.06664">
        <ele>803.32</ele>
        <time>2021-05-06T11:49:20Z</time>
      </trkpt>
      <trkpt lat="44.21559" lon="6.06665">
        <ele>804.76</ele>
        <time>2021-05-06T11:49:38Z</time>
      </trkpt>
      <trkpt lat="44.21565" lon="6.06684">
        <ele>804.28</ele>
        <time>2021-05-06T11:49:54Z</time>
      </trkpt>
      <trkpt lat="44.2157" lon="6.06702">
        <ele>805.24</ele>
        <time>2021-05-06T11:50:10Z</time>
      </trkpt>
      <trkpt lat="44.21575" lon="6.06711">
        <ele>806.68</ele>
        <time>2021-05-06T11:50:25Z</time>
      </trkpt>
      <trkpt lat="44.2158" lon="6.06724">
        <ele>807.16</ele>
        <time>2021-05-06T11:50:40Z</time>
      </trkpt>
      <trkpt lat="44.21588" lon="6.06731">
        <ele>808.61</ele>
        <time>2021-05-06T11:50:54Z</time>
      </trkpt>
      <trkpt lat="44.21594" lon="6.06739">
        <ele>810.05</ele>
        <time>2021-05-06T11:51:08Z</time>
      </trkpt>
      <trkpt lat="44.21601" lon="6.06739">
        <ele>811.49</ele>
        <time>2021-05-06T11:51:24Z</time>
      </trkpt>
      <trkpt lat="44.21608" lon="6.06735">
        <ele>812.93</ele>
        <time>2021-05-06T11:51:38Z</time>
      </trkpt>
      <trkpt lat="44.21617" lon="6.06729">
        <ele>814.85</ele>
        <time>2021-05-06T11:51:53Z</time>
      </trkpt>
      <trkpt lat="44.21627" lon="6.06731">
        <ele>815.82</ele>
        <time>2021-05-06T11:52:07Z</time>
      </trkpt>
      <trkpt lat="44.21635" lon="6.06732">
        <ele>817.26</ele>
        <time>2021-05-06T11:52:20Z</time>
      </trkpt>
      <trkpt lat="44.21642" lon="6.06727">
        <ele>818.22</ele>
        <time>2021-05-06T11:52:34Z</time>
      </trkpt>
      <trkpt lat="44.21654" lon="6.06725">
        <ele>818.7</ele>
        <time>2021-05-06T11:52:49Z</time>
      </trkpt>
      <trkpt lat="44.21664" lon="6.06728">
        <ele>819.18</ele>
        <time>2021-05-06T11:53:03Z</time>
      </trkpt>
      <trkpt lat="44.21672" lon="6.06724">
        <ele>820.62</ele>
        <time>2021-05-06T11:53:18Z</time>
      </trkpt>
      <trkpt lat="44.2168" lon="6.06722">
        <ele>822.06</ele>
        <time>2021-05-06T11:53:32Z</time>
      </trkpt>
      <trkpt lat="44.21691" lon="6.06719">
        <ele>823.03</ele>
        <time>2021-05-06T11:53:46Z</time>
      </trkpt>
      <trkpt lat="44.21697" lon="6.06717">
        <ele>823.99</ele>
        <time>2021-05-06T11:53:58Z</time>
      </trkpt>
      <trkpt lat="44.21706" lon="6.06713">
        <ele>825.91</ele>
        <time>2021-05-06T11:54:12Z</time>
      </trkpt>
      <trkpt lat="44.21715" lon="6.06712">
        <ele>826.87</ele>
        <time>2021-05-06T11:54:29Z</time>
      </trkpt>
      <trkpt lat="44.21708" lon="6.06707">
        <ele>828.31</ele>
        <time>2021-05-06T11:54:43Z</time>
      </trkpt>
      <trkpt lat="44.21703" lon="6.06696">
        <ele>829.27</ele>
        <time>2021-05-06T11:54:57Z</time>
      </trkpt>
      <trkpt lat="44.21709" lon="6.06687">
        <ele>831.2</ele>
        <time>2021-05-06T11:55:10Z</time>
      </trkpt>
      <trkpt lat="44.21712" lon="6.06677">
        <ele>832.64</ele>
        <time>2021-05-06T11:55:25Z</time>
      </trkpt>
      <trkpt lat="44.21706" lon="6.06668">
        <ele>835.04</ele>
        <time>2021-05-06T11:55:43Z</time>
      </trkpt>
      <trkpt lat="44.21702" lon="6.0666">
        <ele>836.48</ele>
        <time>2021-05-06T11:55:56Z</time>
      </trkpt>
      <trkpt lat="44.21701" lon="6.06659">
        <ele>836.96</ele>
        <time>2021-05-06T11:56:14Z</time>
      </trkpt>
      <trkpt lat="44.21703" lon="6.06662">
        <ele>836</ele>
        <time>2021-05-06T11:56:32Z</time>
      </trkpt>
      <trkpt lat="44.217" lon="6.06659">
        <ele>836</ele>
        <time>2021-05-06T11:57:07Z</time>
      </trkpt>
      <trkpt lat="44.21701" lon="6.06669">
        <ele>836.96</ele>
        <time>2021-05-06T11:57:30Z</time>
      </trkpt>
      <trkpt lat="44.21694" lon="6.06666">
        <ele>836.96</ele>
        <time>2021-05-06T11:57:50Z</time>
      </trkpt>
      <trkpt lat="44.21693" lon="6.06662">
        <ele>837.45</ele>
        <time>2021-05-06T11:58:19Z</time>
      </trkpt>
      <trkpt lat="44.21696" lon="6.06661">
        <ele>837.93</ele>
        <time>2021-05-06T11:58:38Z</time>
      </trkpt>
      <trkpt lat="44.21696" lon="6.06655">
        <ele>839.37</ele>
        <time>2021-05-06T11:59:01Z</time>
      </trkpt>
      <trkpt lat="44.21692" lon="6.06643">
        <ele>841.77</ele>
        <time>2021-05-06T11:59:17Z</time>
      </trkpt>
      <trkpt lat="44.21688" lon="6.06629">
        <ele>843.69</ele>
        <time>2021-05-06T11:59:32Z</time>
      </trkpt>
      <trkpt lat="44.21697" lon="6.06627">
        <ele>844.66</ele>
        <time>2021-05-06T11:59:46Z</time>
      </trkpt>
      <trkpt lat="44.21707" lon="6.06624">
        <ele>845.62</ele>
        <time>2021-05-06T12:00:00Z</time>
      </trkpt>
      <trkpt lat="44.21714" lon="6.06625">
        <ele>846.1</ele>
        <time>2021-05-06T12:00:13Z</time>
      </trkpt>
      <trkpt lat="44.21721" lon="6.06621">
        <ele>847.06</ele>
        <time>2021-05-06T12:00:28Z</time>
      </trkpt>
      <trkpt lat="44.21731" lon="6.06624">
        <ele>848.02</ele>
        <time>2021-05-06T12:00:43Z</time>
      </trkpt>
      <trkpt lat="44.21741" lon="6.06628">
        <ele>849.46</ele>
        <time>2021-05-06T12:00:59Z</time>
      </trkpt>
      <trkpt lat="44.21751" lon="6.06624">
        <ele>850.42</ele>
        <time>2021-05-06T12:01:14Z</time>
      </trkpt>
      <trkpt lat="44.21762" lon="6.06628">
        <ele>851.38</ele>
        <time>2021-05-06T12:01:26Z</time>
      </trkpt>
      <trkpt lat="44.21771" lon="6.06632">
        <ele>852.35</ele>
        <time>2021-05-06T12:01:40Z</time>
      </trkpt>
      <trkpt lat="44.21777" lon="6.06638">
        <ele>854.27</ele>
        <time>2021-05-06T12:01:54Z</time>
      </trkpt>
      <trkpt lat="44.21782" lon="6.06633">
        <ele>855.71</ele>
        <time>2021-05-06T12:02:09Z</time>
      </trkpt>
      <trkpt lat="44.21775" lon="6.06625">
        <ele>857.63</ele>
        <time>2021-05-06T12:02:24Z</time>
      </trkpt>
      <trkpt lat="44.21772" lon="6.06614">
        <ele>859.08</ele>
        <time>2021-05-06T12:02:39Z</time>
      </trkpt>
      <trkpt lat="44.21767" lon="6.06599">
        <ele>860.52</ele>
        <time>2021-05-06T12:02:55Z</time>
      </trkpt>
      <trkpt lat="44.21763" lon="6.06586">
        <ele>861.48</ele>
        <time>2021-05-06T12:03:10Z</time>
      </trkpt>
      <trkpt lat="44.21756" lon="6.06574">
        <ele>862.92</ele>
        <time>2021-05-06T12:03:24Z</time>
      </trkpt>
      <trkpt lat="44.21751" lon="6.0656">
        <ele>864.36</ele>
        <time>2021-05-06T12:03:39Z</time>
      </trkpt>
      <trkpt lat="44.21763" lon="6.06561">
        <ele>866.29</ele>
        <time>2021-05-06T12:03:54Z</time>
      </trkpt>
      <trkpt lat="44.21774" lon="6.06564">
        <ele>867.73</ele>
        <time>2021-05-06T12:04:10Z</time>
      </trkpt>
      <trkpt lat="44.21781" lon="6.06572">
        <ele>869.17</ele>
        <time>2021-05-06T12:04:24Z</time>
      </trkpt>
      <trkpt lat="44.21791" lon="6.06579">
        <ele>871.09</ele>
        <time>2021-05-06T12:04:41Z</time>
      </trkpt>
      <trkpt lat="44.21797" lon="6.06589">
        <ele>872.53</ele>
        <time>2021-05-06T12:04:57Z</time>
      </trkpt>
      <trkpt lat="44.21806" lon="6.06601">
        <ele>874.94</ele>
        <time>2021-05-06T12:05:17Z</time>
      </trkpt>
      <trkpt lat="44.21813" lon="6.06608">
        <ele>876.86</ele>
        <time>2021-05-06T12:05:34Z</time>
      </trkpt>
      <trkpt lat="44.2182" lon="6.06613">
        <ele>879.26</ele>
        <time>2021-05-06T12:05:51Z</time>
      </trkpt>
      <trkpt lat="44.21829" lon="6.06615">
        <ele>881.19</ele>
        <time>2021-05-06T12:06:06Z</time>
      </trkpt>
      <trkpt lat="44.21842" lon="6.06618">
        <ele>883.59</ele>
        <time>2021-05-06T12:06:22Z</time>
      </trkpt>
      <trkpt lat="44.2185" lon="6.0662">
        <ele>885.51</ele>
        <time>2021-05-06T12:06:38Z</time>
      </trkpt>
      <trkpt lat="44.21861" lon="6.06628">
        <ele>885.99</ele>
        <time>2021-05-06T12:06:53Z</time>
      </trkpt>
      <trkpt lat="44.2187" lon="6.06637">
        <ele>887.91</ele>
        <time>2021-05-06T12:07:10Z</time>
      </trkpt>
      <trkpt lat="44.21879" lon="6.06642">
        <ele>889.36</ele>
        <time>2021-05-06T12:07:26Z</time>
      </trkpt>
      <trkpt lat="44.21888" lon="6.06648">
        <ele>891.28</ele>
        <time>2021-05-06T12:07:42Z</time>
      </trkpt>
      <trkpt lat="44.21894" lon="6.06658">
        <ele>892.72</ele>
        <time>2021-05-06T12:07:57Z</time>
      </trkpt>
      <trkpt lat="44.21901" lon="6.06667">
        <ele>894.16</ele>
        <time>2021-05-06T12:08:12Z</time>
      </trkpt>
      <trkpt lat="44.21909" lon="6.06672">
        <ele>895.61</ele>
        <time>2021-05-06T12:08:28Z</time>
      </trkpt>
      <trkpt lat="44.21918" lon="6.06677">
        <ele>897.53</ele>
        <time>2021-05-06T12:08:44Z</time>
      </trkpt>
      <trkpt lat="44.21929" lon="6.06683">
        <ele>898.49</ele>
        <time>2021-05-06T12:09:03Z</time>
      </trkpt>
      <trkpt lat="44.21934" lon="6.06689">
        <ele>899.93</ele>
        <time>2021-05-06T12:09:18Z</time>
      </trkpt>
      <trkpt lat="44.2194" lon="6.06697">
        <ele>900.89</ele>
        <time>2021-05-06T12:09:32Z</time>
      </trkpt>
      <trkpt lat="44.21941" lon="6.067">
        <ele>901.37</ele>
        <time>2021-05-06T12:09:49Z</time>
      </trkpt>
      <trkpt lat="44.21949" lon="6.06707">
        <ele>902.82</ele>
        <time>2021-05-06T12:10:15Z</time>
      </trkpt>
      <trkpt lat="44.21956" lon="6.06717">
        <ele>905.22</ele>
        <time>2021-05-06T12:10:30Z</time>
      </trkpt>
      <trkpt lat="44.21959" lon="6.06721">
        <ele>906.66</ele>
        <time>2021-05-06T12:10:47Z</time>
      </trkpt>
      <trkpt lat="44.21961" lon="6.06718">
        <ele>907.62</ele>
        <time>2021-05-06T12:11:03Z</time>
      </trkpt>
      <trkpt lat="44.21963" lon="6.06712">
        <ele>909.06</ele>
        <time>2021-05-06T12:11:17Z</time>
      </trkpt>
      <trkpt lat="44.21969" lon="6.06717">
        <ele>910.99</ele>
        <time>2021-05-06T12:11:30Z</time>
      </trkpt>
      <trkpt lat="44.21976" lon="6.0672">
        <ele>912.91</ele>
        <time>2021-05-06T12:11:46Z</time>
      </trkpt>
      <trkpt lat="44.21984" lon="6.06725">
        <ele>914.83</ele>
        <time>2021-05-06T12:12:05Z</time>
      </trkpt>
      <trkpt lat="44.21992" lon="6.06734">
        <ele>916.27</ele>
        <time>2021-05-06T12:12:21Z</time>
      </trkpt>
      <trkpt lat="44.21999" lon="6.06742">
        <ele>918.68</ele>
        <time>2021-05-06T12:12:39Z</time>
      </trkpt>
      <trkpt lat="44.22005" lon="6.06749">
        <ele>921.08</ele>
        <time>2021-05-06T12:12:57Z</time>
      </trkpt>
      <trkpt lat="44.22008" lon="6.06758">
        <ele>922.04</ele>
        <time>2021-05-06T12:13:12Z</time>
      </trkpt>
      <trkpt lat="44.22011" lon="6.06763">
        <ele>923</ele>
        <time>2021-05-06T12:13:29Z</time>
      </trkpt>
      <trkpt lat="44.22012" lon="6.06765">
        <ele>922.52</ele>
        <time>2021-05-06T12:14:04Z</time>
      </trkpt>
      <trkpt lat="44.22012" lon="6.06763">
        <ele>922.52</ele>
        <time>2021-05-06T12:14:25Z</time>
      </trkpt>
      <trkpt lat="44.22014" lon="6.0676">
        <ele>922.52</ele>
        <time>2021-05-06T12:14:47Z</time>
      </trkpt>
      <trkpt lat="44.22012" lon="6.06764">
        <ele>922.52</ele>
        <time>2021-05-06T12:15:24Z</time>
      </trkpt>
      <trkpt lat="44.2202" lon="6.06768">
        <ele>923.96</ele>
        <time>2021-05-06T12:15:42Z</time>
      </trkpt>
      <trkpt lat="44.22028" lon="6.06767">
        <ele>925.89</ele>
        <time>2021-05-06T12:15:58Z</time>
      </trkpt>
      <trkpt lat="44.22035" lon="6.06768">
        <ele>927.33</ele>
        <time>2021-05-06T12:16:13Z</time>
      </trkpt>
      <trkpt lat="44.22045" lon="6.06771">
        <ele>928.77</ele>
        <time>2021-05-06T12:16:28Z</time>
      </trkpt>
      <trkpt lat="44.22051" lon="6.06777">
        <ele>930.21</ele>
        <time>2021-05-06T12:16:42Z</time>
      </trkpt>
      <trkpt lat="44.22057" lon="6.06783">
        <ele>931.65</ele>
        <time>2021-05-06T12:16:58Z</time>
      </trkpt>
      <trkpt lat="44.22065" lon="6.06788">
        <ele>933.58</ele>
        <time>2021-05-06T12:17:15Z</time>
      </trkpt>
      <trkpt lat="44.22067" lon="6.06788">
        <ele>934.06</ele>
        <time>2021-05-06T12:17:30Z</time>
      </trkpt>
      <trkpt lat="44.22073" lon="6.06791">
        <ele>935.02</ele>
        <time>2021-05-06T12:17:47Z</time>
      </trkpt>
      <trkpt lat="44.22071" lon="6.06793">
        <ele>935.5</ele>
        <time>2021-05-06T12:18:11Z</time>
      </trkpt>
      <trkpt lat="44.22072" lon="6.06796">
        <ele>934.54</ele>
        <time>2021-05-06T12:18:34Z</time>
      </trkpt>
      <trkpt lat="44.22071" lon="6.06803">
        <ele>934.54</ele>
        <time>2021-05-06T12:19:09Z</time>
      </trkpt>
      <trkpt lat="44.22072" lon="6.06807">
        <ele>934.54</ele>
        <time>2021-05-06T12:19:37Z</time>
      </trkpt>
      <trkpt lat="44.22069" lon="6.06795">
        <ele>935.5</ele>
        <time>2021-05-06T12:19:52Z</time>
      </trkpt>
      <trkpt lat="44.22074" lon="6.06789">
        <ele>935.5</ele>
        <time>2021-05-06T12:20:14Z</time>
      </trkpt>
      <trkpt lat="44.22081" lon="6.06793">
        <ele>936.94</ele>
        <time>2021-05-06T12:20:32Z</time>
      </trkpt>
      <trkpt lat="44.22091" lon="6.06803">
        <ele>940.31</ele>
        <time>2021-05-06T12:20:49Z</time>
      </trkpt>
      <trkpt lat="44.22093" lon="6.06799">
        <ele>940.79</ele>
        <time>2021-05-06T12:21:02Z</time>
      </trkpt>
      <trkpt lat="44.22087" lon="6.0679">
        <ele>942.71</ele>
        <time>2021-05-06T12:21:16Z</time>
      </trkpt>
      <trkpt lat="44.22093" lon="6.06789">
        <ele>944.63</ele>
        <time>2021-05-06T12:21:30Z</time>
      </trkpt>
      <trkpt lat="44.22102" lon="6.06789">
        <ele>947.04</ele>
        <time>2021-05-06T12:21:47Z</time>
      </trkpt>
      <trkpt lat="44.22109" lon="6.06791">
        <ele>949.44</ele>
        <time>2021-05-06T12:22:03Z</time>
      </trkpt>
      <trkpt lat="44.22117" lon="6.06793">
        <ele>951.36</ele>
        <time>2021-05-06T12:22:21Z</time>
      </trkpt>
      <trkpt lat="44.22127" lon="6.06794">
        <ele>952.8</ele>
        <time>2021-05-06T12:22:37Z</time>
      </trkpt>
      <trkpt lat="44.22134" lon="6.06797">
        <ele>954.25</ele>
        <time>2021-05-06T12:22:55Z</time>
      </trkpt>
      <trkpt lat="44.22141" lon="6.06798">
        <ele>955.69</ele>
        <time>2021-05-06T12:23:10Z</time>
      </trkpt>
      <trkpt lat="44.22142" lon="6.06799">
        <ele>955.69</ele>
        <time>2021-05-06T12:23:37Z</time>
      </trkpt>
      <trkpt lat="44.22146" lon="6.06796">
        <ele>956.17</ele>
        <time>2021-05-06T12:24:07Z</time>
      </trkpt>
      <trkpt lat="44.22143" lon="6.06797">
        <ele>956.17</ele>
        <time>2021-05-06T12:24:44Z</time>
      </trkpt>
      <trkpt lat="44.22137" lon="6.06802">
        <ele>956.65</ele>
        <time>2021-05-06T12:25:09Z</time>
      </trkpt>
      <trkpt lat="44.2214" lon="6.06805">
        <ele>956.65</ele>
        <time>2021-05-06T12:25:22Z</time>
      </trkpt>
      <trkpt lat="44.22153" lon="6.06803">
        <ele>959.53</ele>
        <time>2021-05-06T12:25:36Z</time>
      </trkpt>
      <trkpt lat="44.22163" lon="6.06801">
        <ele>962.9</ele>
        <time>2021-05-06T12:25:52Z</time>
      </trkpt>
      <trkpt lat="44.22171" lon="6.06801">
        <ele>965.3</ele>
        <time>2021-05-06T12:26:10Z</time>
      </trkpt>
      <trkpt lat="44.2217" lon="6.06809">
        <ele>965.78</ele>
        <time>2021-05-06T12:26:32Z</time>
      </trkpt>
      <trkpt lat="44.22178" lon="6.06814">
        <ele>967.7</ele>
        <time>2021-05-06T12:26:48Z</time>
      </trkpt>
      <trkpt lat="44.22184" lon="6.06821">
        <ele>969.15</ele>
        <time>2021-05-06T12:27:06Z</time>
      </trkpt>
      <trkpt lat="44.22183" lon="6.06821">
        <ele>968.67</ele>
        <time>2021-05-06T12:27:22Z</time>
      </trkpt>
      <trkpt lat="44.22184" lon="6.06816">
        <ele>968.18</ele>
        <time>2021-05-06T12:27:55Z</time>
      </trkpt>
      <trkpt lat="44.22177" lon="6.06821">
        <ele>968.67</ele>
        <time>2021-05-06T12:28:24Z</time>
      </trkpt>
      <trkpt lat="44.22185" lon="6.06818">
        <ele>969.15</ele>
        <time>2021-05-06T12:28:40Z</time>
      </trkpt>
      <trkpt lat="44.22181" lon="6.06824">
        <ele>969.15</ele>
        <time>2021-05-06T12:29:06Z</time>
      </trkpt>
      <trkpt lat="44.22182" lon="6.06819">
        <ele>969.15</ele>
        <time>2021-05-06T12:29:38Z</time>
      </trkpt>
      <trkpt lat="44.22185" lon="6.06817">
        <ele>969.15</ele>
        <time>2021-05-06T12:30:04Z</time>
      </trkpt>
      <trkpt lat="44.22184" lon="6.06824">
        <ele>970.11</ele>
        <time>2021-05-06T12:30:34Z</time>
      </trkpt>
      <trkpt lat="44.2219" lon="6.06836">
        <ele>972.03</ele>
        <time>2021-05-06T12:30:49Z</time>
      </trkpt>
      <trkpt lat="44.22201" lon="6.06842">
        <ele>974.43</ele>
        <time>2021-05-06T12:31:04Z</time>
      </trkpt>
      <trkpt lat="44.22208" lon="6.06849">
        <ele>976.84</ele>
        <time>2021-05-06T12:31:21Z</time>
      </trkpt>
      <trkpt lat="44.22204" lon="6.06836">
        <ele>978.76</ele>
        <time>2021-05-06T12:31:38Z</time>
      </trkpt>
      <trkpt lat="44.22204" lon="6.06822">
        <ele>979.72</ele>
        <time>2021-05-06T12:31:54Z</time>
      </trkpt>
      <trkpt lat="44.22201" lon="6.06809">
        <ele>981.64</ele>
        <time>2021-05-06T12:32:11Z</time>
      </trkpt>
      <trkpt lat="44.22206" lon="6.06808">
        <ele>982.6</ele>
        <time>2021-05-06T12:32:23Z</time>
      </trkpt>
      <trkpt lat="44.22211" lon="6.06814">
        <ele>984.53</ele>
        <time>2021-05-06T12:32:39Z</time>
      </trkpt>
      <trkpt lat="44.22215" lon="6.06823">
        <ele>985.97</ele>
        <time>2021-05-06T12:32:53Z</time>
      </trkpt>
      <trkpt lat="44.22218" lon="6.06831">
        <ele>987.89</ele>
        <time>2021-05-06T12:33:09Z</time>
      </trkpt>
      <trkpt lat="44.22224" lon="6.06841">
        <ele>989.81</ele>
        <time>2021-05-06T12:33:26Z</time>
      </trkpt>
      <trkpt lat="44.22232" lon="6.06844">
        <ele>991.74</ele>
        <time>2021-05-06T12:33:42Z</time>
      </trkpt>
      <trkpt lat="44.22237" lon="6.06844">
        <ele>994.14</ele>
        <time>2021-05-06T12:33:57Z</time>
      </trkpt>
      <trkpt lat="44.22238" lon="6.06838">
        <ele>995.58</ele>
        <time>2021-05-06T12:34:12Z</time>
      </trkpt>
      <trkpt lat="44.2224" lon="6.0683">
        <ele>997.99</ele>
        <time>2021-05-06T12:34:29Z</time>
      </trkpt>
      <trkpt lat="44.22246" lon="6.06833">
        <ele>1000.39</ele>
        <time>2021-05-06T12:34:42Z</time>
      </trkpt>
      <trkpt lat="44.22251" lon="6.06828">
        <ele>1002.79</ele>
        <time>2021-05-06T12:34:55Z</time>
      </trkpt>
      <trkpt lat="44.22254" lon="6.06826">
        <ele>1002.79</ele>
        <time>2021-05-06T12:35:07Z</time>
      </trkpt>
      <trkpt lat="44.22258" lon="6.06816">
        <ele>1005.2</ele>
        <time>2021-05-06T12:35:27Z</time>
      </trkpt>
      <trkpt lat="44.22254" lon="6.06809">
        <ele>1007.12</ele>
        <time>2021-05-06T12:35:45Z</time>
      </trkpt>
      <trkpt lat="44.22247" lon="6.06805">
        <ele>1009.04</ele>
        <time>2021-05-06T12:36:00Z</time>
      </trkpt>
      <trkpt lat="44.22245" lon="6.06799">
        <ele>1011.44</ele>
        <time>2021-05-06T12:36:17Z</time>
      </trkpt>
      <trkpt lat="44.22247" lon="6.06796">
        <ele>1011.93</ele>
        <time>2021-05-06T12:36:33Z</time>
      </trkpt>
      <trkpt lat="44.22245" lon="6.06791">
        <ele>1013.85</ele>
        <time>2021-05-06T12:36:50Z</time>
      </trkpt>
      <trkpt lat="44.22244" lon="6.06784">
        <ele>1016.25</ele>
        <time>2021-05-06T12:37:11Z</time>
      </trkpt>
      <trkpt lat="44.22242" lon="6.06782">
        <ele>1016.73</ele>
        <time>2021-05-06T12:37:40Z</time>
      </trkpt>
      <trkpt lat="44.22241" lon="6.06779">
        <ele>1017.21</ele>
        <time>2021-05-06T12:38:07Z</time>
      </trkpt>
      <trkpt lat="44.22241" lon="6.06781">
        <ele>1017.21</ele>
        <time>2021-05-06T12:38:33Z</time>
      </trkpt>
      <trkpt lat="44.22241" lon="6.06773">
        <ele>1018.65</ele>
        <time>2021-05-06T12:38:45Z</time>
      </trkpt>
      <trkpt lat="44.22241" lon="6.06766">
        <ele>1018.65</ele>
        <time>2021-05-06T12:39:08Z</time>
      </trkpt>
      <trkpt lat="44.22238" lon="6.06757">
        <ele>1020.58</ele>
        <time>2021-05-06T12:39:23Z</time>
      </trkpt>
      <trkpt lat="44.22232" lon="6.06753">
        <ele>1022.02</ele>
        <time>2021-05-06T12:39:36Z</time>
      </trkpt>
      <trkpt lat="44.22232" lon="6.06742">
        <ele>1023.94</ele>
        <time>2021-05-06T12:39:53Z</time>
      </trkpt>
      <trkpt lat="44.22239" lon="6.06735">
        <ele>1026.83</ele>
        <time>2021-05-06T12:40:12Z</time>
      </trkpt>
      <trkpt lat="44.22234" lon="6.0673">
        <ele>1028.75</ele>
        <time>2021-05-06T12:40:28Z</time>
      </trkpt>
      <trkpt lat="44.22231" lon="6.06723">
        <ele>1030.67</ele>
        <time>2021-05-06T12:40:42Z</time>
      </trkpt>
      <trkpt lat="44.22235" lon="6.06715">
        <ele>1034.04</ele>
        <time>2021-05-06T12:40:58Z</time>
      </trkpt>
      <trkpt lat="44.22242" lon="6.06711">
        <ele>1034.52</ele>
        <time>2021-05-06T12:41:13Z</time>
      </trkpt>
      <trkpt lat="44.22246" lon="6.0671">
        <ele>1035.96</ele>
        <time>2021-05-06T12:41:27Z</time>
      </trkpt>
      <trkpt lat="44.22248" lon="6.06704">
        <ele>1037.4</ele>
        <time>2021-05-06T12:41:42Z</time>
      </trkpt>
      <trkpt lat="44.22249" lon="6.06699">
        <ele>1038.36</ele>
        <time>2021-05-06T12:41:57Z</time>
      </trkpt>
      <trkpt lat="44.22252" lon="6.06695">
        <ele>1039.8</ele>
        <time>2021-05-06T12:42:10Z</time>
      </trkpt>
      <trkpt lat="44.22258" lon="6.06695">
        <ele>1042.21</ele>
        <time>2021-05-06T12:42:27Z</time>
      </trkpt>
      <trkpt lat="44.22263" lon="6.06695">
        <ele>1043.65</ele>
        <time>2021-05-06T12:42:42Z</time>
      </trkpt>
      <trkpt lat="44.22264" lon="6.06692">
        <ele>1045.09</ele>
        <time>2021-05-06T12:42:59Z</time>
      </trkpt>
      <trkpt lat="44.22267" lon="6.06695">
        <ele>1045.09</ele>
        <time>2021-05-06T12:43:19Z</time>
      </trkpt>
      <trkpt lat="44.22267" lon="6.06696">
        <ele>1045.09</ele>
        <time>2021-05-06T12:43:49Z</time>
      </trkpt>
      <trkpt lat="44.22268" lon="6.06697">
        <ele>1045.57</ele>
        <time>2021-05-06T12:44:11Z</time>
      </trkpt>
      <trkpt lat="44.22271" lon="6.06695">
        <ele>1046.53</ele>
        <time>2021-05-06T12:44:34Z</time>
      </trkpt>
      <trkpt lat="44.22276" lon="6.06697">
        <ele>1048.45</ele>
        <time>2021-05-06T12:44:48Z</time>
      </trkpt>
      <trkpt lat="44.22277" lon="6.0669">
        <ele>1050.38</ele>
        <time>2021-05-06T12:45:04Z</time>
      </trkpt>
      <trkpt lat="44.22279" lon="6.0668">
        <ele>1053.26</ele>
        <time>2021-05-06T12:45:21Z</time>
      </trkpt>
      <trkpt lat="44.22276" lon="6.06669">
        <ele>1054.7</ele>
        <time>2021-05-06T12:45:36Z</time>
      </trkpt>
      <trkpt lat="44.22272" lon="6.06659">
        <ele>1056.63</ele>
        <time>2021-05-06T12:45:51Z</time>
      </trkpt>
      <trkpt lat="44.22266" lon="6.06647">
        <ele>1058.07</ele>
        <time>2021-05-06T12:46:07Z</time>
      </trkpt>
      <trkpt lat="44.22259" lon="6.06642">
        <ele>1059.03</ele>
        <time>2021-05-06T12:46:21Z</time>
      </trkpt>
      <trkpt lat="44.22261" lon="6.06634">
        <ele>1060.47</ele>
        <time>2021-05-06T12:46:34Z</time>
      </trkpt>
      <trkpt lat="44.22268" lon="6.0663">
        <ele>1062.39</ele>
        <time>2021-05-06T12:46:49Z</time>
      </trkpt>
      <trkpt lat="44.22279" lon="6.06628">
        <ele>1064.32</ele>
        <time>2021-05-06T12:47:05Z</time>
      </trkpt>
      <trkpt lat="44.22287" lon="6.06633">
        <ele>1065.76</ele>
        <time>2021-05-06T12:47:21Z</time>
      </trkpt>
      <trkpt lat="44.22295" lon="6.06632">
        <ele>1066.72</ele>
        <time>2021-05-06T12:47:36Z</time>
      </trkpt>
      <trkpt lat="44.22304" lon="6.06625">
        <ele>1068.16</ele>
        <time>2021-05-06T12:47:50Z</time>
      </trkpt>
      <trkpt lat="44.22314" lon="6.06612">
        <ele>1068.64</ele>
        <time>2021-05-06T12:48:07Z</time>
      </trkpt>
      <trkpt lat="44.22325" lon="6.06601">
        <ele>1069.12</ele>
        <time>2021-05-06T12:48:23Z</time>
      </trkpt>
      <trkpt lat="44.22336" lon="6.06588">
        <ele>1070.57</ele>
        <time>2021-05-06T12:48:40Z</time>
      </trkpt>
      <trkpt lat="44.22346" lon="6.0658">
        <ele>1071.53</ele>
        <time>2021-05-06T12:48:55Z</time>
      </trkpt>
      <trkpt lat="44.22355" lon="6.06571">
        <ele>1072.49</ele>
        <time>2021-05-06T12:49:10Z</time>
      </trkpt>
      <trkpt lat="44.22366" lon="6.06563">
        <ele>1072.49</ele>
        <time>2021-05-06T12:49:25Z</time>
      </trkpt>
      <trkpt lat="44.22378" lon="6.06562">
        <ele>1072.97</ele>
        <time>2021-05-06T12:49:40Z</time>
      </trkpt>
      <trkpt lat="44.22392" lon="6.06559">
        <ele>1073.45</ele>
        <time>2021-05-06T12:49:57Z</time>
      </trkpt>
      <trkpt lat="44.22404" lon="6.06557">
        <ele>1073.45</ele>
        <time>2021-05-06T12:50:13Z</time>
      </trkpt>
      <trkpt lat="44.22407" lon="6.06556">
        <ele>1073.93</ele>
        <time>2021-05-06T12:50:25Z</time>
      </trkpt>
      <trkpt lat="44.22406" lon="6.06556">
        <ele>1072.97</ele>
        <time>2021-05-06T12:50:40Z</time>
      </trkpt>
      <trkpt lat="44.22409" lon="6.06551">
        <ele>1073.45</ele>
        <time>2021-05-06T12:51:09Z</time>
      </trkpt>
      <trkpt lat="44.22405" lon="6.06552">
        <ele>1073.45</ele>
        <time>2021-05-06T12:51:40Z</time>
      </trkpt>
      <trkpt lat="44.22405" lon="6.06549">
        <ele>1073.93</ele>
        <time>2021-05-06T12:52:22Z</time>
      </trkpt>
      <trkpt lat="44.22407" lon="6.06554">
        <ele>1073.93</ele>
        <time>2021-05-06T12:53:12Z</time>
      </trkpt>
      <trkpt lat="44.22405" lon="6.0655">
        <ele>1074.41</ele>
        <time>2021-05-06T12:53:44Z</time>
      </trkpt>
      <trkpt lat="44.22407" lon="6.0655">
        <ele>1074.41</ele>
        <time>2021-05-06T12:54:20Z</time>
      </trkpt>
      <trkpt lat="44.22407" lon="6.06551">
        <ele>1074.41</ele>
        <time>2021-05-06T12:55:00Z</time>
      </trkpt>
      <trkpt lat="44.22407" lon="6.06551">
        <ele>1074.41</ele>
        <time>2021-05-06T12:55:39Z</time>
      </trkpt>
      <trkpt lat="44.22404" lon="6.06548">
        <ele>1074.89</ele>
        <time>2021-05-06T12:56:14Z</time>
      </trkpt>
      <trkpt lat="44.22404" lon="6.06547">
        <ele>1075.37</ele>
        <time>2021-05-06T12:56:59Z</time>
      </trkpt>
      <trkpt lat="44.22406" lon="6.06549">
        <ele>1075.37</ele>
        <time>2021-05-06T12:57:34Z</time>
      </trkpt>
      <trkpt lat="44.22406" lon="6.06551">
        <ele>1076.33</ele>
        <time>2021-05-06T12:58:02Z</time>
      </trkpt>
      <trkpt lat="44.2241" lon="6.06555">
        <ele>1076.81</ele>
        <time>2021-05-06T12:58:22Z</time>
      </trkpt>
      <trkpt lat="44.22409" lon="6.06558">
        <ele>1076.81</ele>
        <time>2021-05-06T12:58:43Z</time>
      </trkpt>
      <trkpt lat="44.2241" lon="6.06559">
        <ele>1077.29</ele>
        <time>2021-05-06T12:58:58Z</time>
      </trkpt>
      <trkpt lat="44.22419" lon="6.06553">
        <ele>1077.29</ele>
        <time>2021-05-06T12:59:11Z</time>
      </trkpt>
      <trkpt lat="44.22429" lon="6.06551">
        <ele>1077.78</ele>
        <time>2021-05-06T12:59:26Z</time>
      </trkpt>
      <trkpt lat="44.22441" lon="6.06551">
        <ele>1078.26</ele>
        <time>2021-05-06T12:59:41Z</time>
      </trkpt>
      <trkpt lat="44.22443" lon="6.0655">
        <ele>1078.26</ele>
        <time>2021-05-06T12:59:43Z</time>
      </trkpt>
      <trkpt lat="44.22456" lon="6.06551">
        <ele>1078.26</ele>
        <time>2021-05-06T12:59:59Z</time>
      </trkpt>
      <trkpt lat="44.22468" lon="6.06553">
        <ele>1079.22</ele>
        <time>2021-05-06T13:00:14Z</time>
      </trkpt>
      <trkpt lat="44.22478" lon="6.06556">
        <ele>1080.18</ele>
        <time>2021-05-06T13:00:29Z</time>
      </trkpt>
      <trkpt lat="44.22489" lon="6.06563">
        <ele>1081.62</ele>
        <time>2021-05-06T13:00:45Z</time>
      </trkpt>
      <trkpt lat="44.22501" lon="6.06575">
        <ele>1081.62</ele>
        <time>2021-05-06T13:01:03Z</time>
      </trkpt>
      <trkpt lat="44.22513" lon="6.06575">
        <ele>1081.62</ele>
        <time>2021-05-06T13:01:19Z</time>
      </trkpt>
      <trkpt lat="44.22526" lon="6.0658">
        <ele>1081.14</ele>
        <time>2021-05-06T13:01:34Z</time>
      </trkpt>
      <trkpt lat="44.22536" lon="6.06586">
        <ele>1079.7</ele>
        <time>2021-05-06T13:01:51Z</time>
      </trkpt>
      <trkpt lat="44.22538" lon="6.06575">
        <ele>1078.74</ele>
        <time>2021-05-06T13:02:07Z</time>
      </trkpt>
      <trkpt lat="44.22539" lon="6.06567">
        <ele>1077.78</ele>
        <time>2021-05-06T13:02:20Z</time>
      </trkpt>
      <trkpt lat="44.22535" lon="6.06551">
        <ele>1078.74</ele>
        <time>2021-05-06T13:02:36Z</time>
      </trkpt>
      <trkpt lat="44.22535" lon="6.06549">
        <ele>1078.74</ele>
        <time>2021-05-06T13:02:38Z</time>
      </trkpt>
      <trkpt lat="44.2254" lon="6.06532">
        <ele>1079.22</ele>
        <time>2021-05-06T13:02:53Z</time>
      </trkpt>
      <trkpt lat="44.22546" lon="6.06521">
        <ele>1080.18</ele>
        <time>2021-05-06T13:03:07Z</time>
      </trkpt>
      <trkpt lat="44.22554" lon="6.06511">
        <ele>1081.62</ele>
        <time>2021-05-06T13:03:22Z</time>
      </trkpt>
      <trkpt lat="44.22562" lon="6.06504">
        <ele>1083.54</ele>
        <time>2021-05-06T13:03:36Z</time>
      </trkpt>
      <trkpt lat="44.22571" lon="6.06497">
        <ele>1085.47</ele>
        <time>2021-05-06T13:03:50Z</time>
      </trkpt>
      <trkpt lat="44.22573" lon="6.06493">
        <ele>1085.95</ele>
        <time>2021-05-06T13:03:59Z</time>
      </trkpt>
      <trkpt lat="44.22577" lon="6.0648">
        <ele>1086.43</ele>
        <time>2021-05-06T13:04:14Z</time>
      </trkpt>
      <trkpt lat="44.22583" lon="6.06472">
        <ele>1086.43</ele>
        <time>2021-05-06T13:04:31Z</time>
      </trkpt>
      <trkpt lat="44.22594" lon="6.06461">
        <ele>1085.47</ele>
        <time>2021-05-06T13:04:46Z</time>
      </trkpt>
      <trkpt lat="44.22611" lon="6.06448">
        <ele>1085.47</ele>
        <time>2021-05-06T13:05:04Z</time>
      </trkpt>
      <trkpt lat="44.22627" lon="6.06441">
        <ele>1086.91</ele>
        <time>2021-05-06T13:05:22Z</time>
      </trkpt>
      <trkpt lat="44.22629" lon="6.06433">
        <ele>1086.91</ele>
        <time>2021-05-06T13:05:29Z</time>
      </trkpt>
      <trkpt lat="44.22633" lon="6.06407">
        <ele>1084.99</ele>
        <time>2021-05-06T13:05:48Z</time>
      </trkpt>
      <trkpt lat="44.22641" lon="6.06385">
        <ele>1083.54</ele>
        <time>2021-05-06T13:06:06Z</time>
      </trkpt>
      <trkpt lat="44.22653" lon="6.06373">
        <ele>1082.58</ele>
        <time>2021-05-06T13:06:22Z</time>
      </trkpt>
      <trkpt lat="44.22655" lon="6.06371">
        <ele>1082.58</ele>
        <time>2021-05-06T13:06:24Z</time>
      </trkpt>
      <trkpt lat="44.22656" lon="6.06345">
        <ele>1082.58</ele>
        <time>2021-05-06T13:06:42Z</time>
      </trkpt>
      <trkpt lat="44.22656" lon="6.06344">
        <ele>1082.58</ele>
        <time>2021-05-06T13:06:43Z</time>
      </trkpt>
      <trkpt lat="44.2266" lon="6.06335">
        <ele>1081.62</ele>
        <time>2021-05-06T13:06:50Z</time>
      </trkpt>
      <trkpt lat="44.22671" lon="6.06327">
        <ele>1080.66</ele>
        <time>2021-05-06T13:07:02Z</time>
      </trkpt>
      <trkpt lat="44.22689" lon="6.06315">
        <ele>1080.66</ele>
        <time>2021-05-06T13:07:22Z</time>
      </trkpt>
      <trkpt lat="44.22701" lon="6.06307">
        <ele>1081.14</ele>
        <time>2021-05-06T13:07:36Z</time>
      </trkpt>
      <trkpt lat="44.22716" lon="6.06298">
        <ele>1082.1</ele>
        <time>2021-05-06T13:07:53Z</time>
      </trkpt>
      <trkpt lat="44.22719" lon="6.06294">
        <ele>1081.62</ele>
        <time>2021-05-06T13:07:58Z</time>
      </trkpt>
      <trkpt lat="44.22725" lon="6.06278">
        <ele>1082.58</ele>
        <time>2021-05-06T13:08:13Z</time>
      </trkpt>
      <trkpt lat="44.2273" lon="6.06265">
        <ele>1083.54</ele>
        <time>2021-05-06T13:08:25Z</time>
      </trkpt>
      <trkpt lat="44.22731" lon="6.06261">
        <ele>1084.02</ele>
        <time>2021-05-06T13:08:28Z</time>
      </trkpt>
      <trkpt lat="44.22737" lon="6.06242">
        <ele>1084.5</ele>
        <time>2021-05-06T13:08:45Z</time>
      </trkpt>
      <trkpt lat="44.22745" lon="6.06226">
        <ele>1085.47</ele>
        <time>2021-05-06T13:09:02Z</time>
      </trkpt>
      <trkpt lat="44.22753" lon="6.06206">
        <ele>1086.91</ele>
        <time>2021-05-06T13:09:20Z</time>
      </trkpt>
      <trkpt lat="44.22759" lon="6.06188">
        <ele>1087.87</ele>
        <time>2021-05-06T13:09:37Z</time>
      </trkpt>
      <trkpt lat="44.22766" lon="6.06171">
        <ele>1089.31</ele>
        <time>2021-05-06T13:09:55Z</time>
      </trkpt>
      <trkpt lat="44.22774" lon="6.06157">
        <ele>1090.75</ele>
        <time>2021-05-06T13:10:12Z</time>
      </trkpt>
      <trkpt lat="44.22784" lon="6.06148">
        <ele>1091.71</ele>
        <time>2021-05-06T13:10:29Z</time>
      </trkpt>
      <trkpt lat="44.22787" lon="6.06145">
        <ele>1091.71</ele>
        <time>2021-05-06T13:10:34Z</time>
      </trkpt>
      <trkpt lat="44.22801" lon="6.06135">
        <ele>1092.2</ele>
        <time>2021-05-06T13:10:52Z</time>
      </trkpt>
      <trkpt lat="44.22814" lon="6.06125">
        <ele>1092.68</ele>
        <time>2021-05-06T13:11:08Z</time>
      </trkpt>
      <trkpt lat="44.22826" lon="6.06117">
        <ele>1094.12</ele>
        <time>2021-05-06T13:11:24Z</time>
      </trkpt>
      <trkpt lat="44.22837" lon="6.06109">
        <ele>1094.6</ele>
        <time>2021-05-06T13:11:40Z</time>
      </trkpt>
      <trkpt lat="44.22845" lon="6.06099">
        <ele>1096.04</ele>
        <time>2021-05-06T13:11:56Z</time>
      </trkpt>
      <trkpt lat="44.2285" lon="6.06091">
        <ele>1097</ele>
        <time>2021-05-06T13:12:09Z</time>
      </trkpt>
      <trkpt lat="44.2286" lon="6.06091">
        <ele>1097.48</ele>
        <time>2021-05-06T13:12:19Z</time>
      </trkpt>
      <trkpt lat="44.22875" lon="6.06097">
        <ele>1097.48</ele>
        <time>2021-05-06T13:12:36Z</time>
      </trkpt>
      <trkpt lat="44.2289" lon="6.06099">
        <ele>1097.96</ele>
        <time>2021-05-06T13:12:52Z</time>
      </trkpt>
      <trkpt lat="44.22908" lon="6.06095">
        <ele>1098.44</ele>
        <time>2021-05-06T13:13:11Z</time>
      </trkpt>
      <trkpt lat="44.22926" lon="6.0609">
        <ele>1098.92</ele>
        <time>2021-05-06T13:13:29Z</time>
      </trkpt>
      <trkpt lat="44.22945" lon="6.0608">
        <ele>1098.92</ele>
        <time>2021-05-06T13:13:49Z</time>
      </trkpt>
      <trkpt lat="44.22958" lon="6.06071">
        <ele>1098.44</ele>
        <time>2021-05-06T13:14:06Z</time>
      </trkpt>
      <trkpt lat="44.22972" lon="6.06059">
        <ele>1097.48</ele>
        <time>2021-05-06T13:14:23Z</time>
      </trkpt>
      <trkpt lat="44.22994" lon="6.06048">
        <ele>1095.08</ele>
        <time>2021-05-06T13:14:46Z</time>
      </trkpt>
      <trkpt lat="44.23013" lon="6.06041">
        <ele>1093.16</ele>
        <time>2021-05-06T13:15:05Z</time>
      </trkpt>
      <trkpt lat="44.23029" lon="6.06036">
        <ele>1091.23</ele>
        <time>2021-05-06T13:15:22Z</time>
      </trkpt>
      <trkpt lat="44.23044" lon="6.06035">
        <ele>1089.79</ele>
        <time>2021-05-06T13:15:39Z</time>
      </trkpt>
      <trkpt lat="44.2306" lon="6.06033">
        <ele>1088.35</ele>
        <time>2021-05-06T13:15:56Z</time>
      </trkpt>
      <trkpt lat="44.23077" lon="6.06034">
        <ele>1086.43</ele>
        <time>2021-05-06T13:16:16Z</time>
      </trkpt>
      <trkpt lat="44.23089" lon="6.06033">
        <ele>1084.99</ele>
        <time>2021-05-06T13:16:30Z</time>
      </trkpt>
      <trkpt lat="44.23099" lon="6.0602">
        <ele>1083.54</ele>
        <time>2021-05-06T13:16:46Z</time>
      </trkpt>
      <trkpt lat="44.23107" lon="6.06013">
        <ele>1082.1</ele>
        <time>2021-05-06T13:16:59Z</time>
      </trkpt>
      <trkpt lat="44.2311" lon="6.06011">
        <ele>1081.62</ele>
        <time>2021-05-06T13:17:02Z</time>
      </trkpt>
      <trkpt lat="44.23121" lon="6.0601">
        <ele>1080.18</ele>
        <time>2021-05-06T13:17:15Z</time>
      </trkpt>
      <trkpt lat="44.23121" lon="6.0601">
        <ele>1081.14</ele>
        <time>2021-05-06T13:17:16Z</time>
      </trkpt>
      <trkpt lat="44.23123" lon="6.06009">
        <ele>1079.7</ele>
        <time>2021-05-06T13:17:19Z</time>
      </trkpt>
      <trkpt lat="44.23146" lon="6.0601">
        <ele>1077.29</ele>
        <time>2021-05-06T13:17:40Z</time>
      </trkpt>
      <trkpt lat="44.23162" lon="6.0601">
        <ele>1075.37</ele>
        <time>2021-05-06T13:17:56Z</time>
      </trkpt>
      <trkpt lat="44.23178" lon="6.06009">
        <ele>1074.89</ele>
        <time>2021-05-06T13:18:12Z</time>
      </trkpt>
      <trkpt lat="44.23194" lon="6.05997">
        <ele>1074.89</ele>
        <time>2021-05-06T13:18:30Z</time>
      </trkpt>
      <trkpt lat="44.23208" lon="6.05979">
        <ele>1075.37</ele>
        <time>2021-05-06T13:18:47Z</time>
      </trkpt>
      <trkpt lat="44.2321" lon="6.05973">
        <ele>1075.85</ele>
        <time>2021-05-06T13:18:59Z</time>
      </trkpt>
      <trkpt lat="44.23216" lon="6.05952">
        <ele>1078.26</ele>
        <time>2021-05-06T13:19:17Z</time>
      </trkpt>
      <trkpt lat="44.23225" lon="6.05934">
        <ele>1077.29</ele>
        <time>2021-05-06T13:19:33Z</time>
      </trkpt>
      <trkpt lat="44.23226" lon="6.05933">
        <ele>1077.78</ele>
        <time>2021-05-06T13:19:35Z</time>
      </trkpt>
      <trkpt lat="44.23241" lon="6.05926">
        <ele>1079.22</ele>
        <time>2021-05-06T13:19:52Z</time>
      </trkpt>
      <trkpt lat="44.23254" lon="6.05916">
        <ele>1080.18</ele>
        <time>2021-05-06T13:20:09Z</time>
      </trkpt>
      <trkpt lat="44.23269" lon="6.05905">
        <ele>1080.66</ele>
        <time>2021-05-06T13:20:26Z</time>
      </trkpt>
      <trkpt lat="44.23289" lon="6.05896">
        <ele>1081.14</ele>
        <time>2021-05-06T13:20:47Z</time>
      </trkpt>
      <trkpt lat="44.23303" lon="6.05896">
        <ele>1082.1</ele>
        <time>2021-05-06T13:21:02Z</time>
      </trkpt>
      <trkpt lat="44.2332" lon="6.05895">
        <ele>1083.54</ele>
        <time>2021-05-06T13:21:19Z</time>
      </trkpt>
      <trkpt lat="44.23335" lon="6.05895">
        <ele>1084.5</ele>
        <time>2021-05-06T13:21:35Z</time>
      </trkpt>
      <trkpt lat="44.23352" lon="6.05895">
        <ele>1085.47</ele>
        <time>2021-05-06T13:21:52Z</time>
      </trkpt>
      <trkpt lat="44.23368" lon="6.05895">
        <ele>1086.91</ele>
        <time>2021-05-06T13:22:09Z</time>
      </trkpt>
      <trkpt lat="44.23386" lon="6.05893">
        <ele>1087.87</ele>
        <time>2021-05-06T13:22:28Z</time>
      </trkpt>
      <trkpt lat="44.23404" lon="6.05894">
        <ele>1088.35</ele>
        <time>2021-05-06T13:22:47Z</time>
      </trkpt>
      <trkpt lat="44.23423" lon="6.05892">
        <ele>1088.83</ele>
        <time>2021-05-06T13:23:06Z</time>
      </trkpt>
      <trkpt lat="44.2344" lon="6.05886">
        <ele>1089.79</ele>
        <time>2021-05-06T13:23:25Z</time>
      </trkpt>
      <trkpt lat="44.23459" lon="6.05881">
        <ele>1089.79</ele>
        <time>2021-05-06T13:23:44Z</time>
      </trkpt>
      <trkpt lat="44.23478" lon="6.05874">
        <ele>1090.75</ele>
        <time>2021-05-06T13:24:03Z</time>
      </trkpt>
      <trkpt lat="44.23484" lon="6.05876">
        <ele>1090.75</ele>
        <time>2021-05-06T13:24:20Z</time>
      </trkpt>
      <trkpt lat="44.23486" lon="6.05875">
        <ele>1090.27</ele>
        <time>2021-05-06T13:24:33Z</time>
      </trkpt>
      <trkpt lat="44.23488" lon="6.05876">
        <ele>1090.75</ele>
        <time>2021-05-06T13:24:47Z</time>
      </trkpt>
      <trkpt lat="44.23486" lon="6.05875">
        <ele>1090.27</ele>
        <time>2021-05-06T13:25:13Z</time>
      </trkpt>
      <trkpt lat="44.23496" lon="6.05869">
        <ele>1090.75</ele>
        <time>2021-05-06T13:25:27Z</time>
      </trkpt>
      <trkpt lat="44.23504" lon="6.05866">
        <ele>1091.23</ele>
        <time>2021-05-06T13:25:40Z</time>
      </trkpt>
      <trkpt lat="44.2352" lon="6.0586">
        <ele>1092.2</ele>
        <time>2021-05-06T13:25:57Z</time>
      </trkpt>
      <trkpt lat="44.23528" lon="6.05859">
        <ele>1092.68</ele>
        <time>2021-05-06T13:26:09Z</time>
      </trkpt>
      <trkpt lat="44.2353" lon="6.05857">
        <ele>1092.68</ele>
        <time>2021-05-06T13:26:11Z</time>
      </trkpt>
      <trkpt lat="44.23534" lon="6.05857">
        <ele>1092.68</ele>
        <time>2021-05-06T13:26:15Z</time>
      </trkpt>
      <trkpt lat="44.23551" lon="6.05849">
        <ele>1093.64</ele>
        <time>2021-05-06T13:26:33Z</time>
      </trkpt>
      <trkpt lat="44.23566" lon="6.05843">
        <ele>1094.12</ele>
        <time>2021-05-06T13:26:49Z</time>
      </trkpt>
      <trkpt lat="44.23569" lon="6.05843">
        <ele>1094.6</ele>
        <time>2021-05-06T13:26:52Z</time>
      </trkpt>
      <trkpt lat="44.23588" lon="6.05837">
        <ele>1095.08</ele>
        <time>2021-05-06T13:27:10Z</time>
      </trkpt>
      <trkpt lat="44.23602" lon="6.05833">
        <ele>1096.04</ele>
        <time>2021-05-06T13:27:23Z</time>
      </trkpt>
      <trkpt lat="44.23614" lon="6.05828">
        <ele>1096.52</ele>
        <time>2021-05-06T13:27:37Z</time>
      </trkpt>
      <trkpt lat="44.23627" lon="6.05821">
        <ele>1097.48</ele>
        <time>2021-05-06T13:27:51Z</time>
      </trkpt>
      <trkpt lat="44.2363" lon="6.05818">
        <ele>1097.48</ele>
        <time>2021-05-06T13:27:55Z</time>
      </trkpt>
      <trkpt lat="44.23637" lon="6.05814">
        <ele>1097.96</ele>
        <time>2021-05-06T13:28:03Z</time>
      </trkpt>
      <trkpt lat="44.23648" lon="6.05809">
        <ele>1098.44</ele>
        <time>2021-05-06T13:28:13Z</time>
      </trkpt>
      <trkpt lat="44.23656" lon="6.05805">
        <ele>1098.92</ele>
        <time>2021-05-06T13:28:24Z</time>
      </trkpt>
      <trkpt lat="44.23659" lon="6.05802">
        <ele>1098.92</ele>
        <time>2021-05-06T13:28:28Z</time>
      </trkpt>
      <trkpt lat="44.23673" lon="6.05795">
        <ele>1100.37</ele>
        <time>2021-05-06T13:28:43Z</time>
      </trkpt>
      <trkpt lat="44.23681" lon="6.0579">
        <ele>1101.33</ele>
        <time>2021-05-06T13:28:54Z</time>
      </trkpt>
      <trkpt lat="44.23693" lon="6.05783">
        <ele>1102.29</ele>
        <time>2021-05-06T13:29:08Z</time>
      </trkpt>
      <trkpt lat="44.23703" lon="6.05776">
        <ele>1102.77</ele>
        <time>2021-05-06T13:29:20Z</time>
      </trkpt>
      <trkpt lat="44.23718" lon="6.05774">
        <ele>1103.73</ele>
        <time>2021-05-06T13:29:35Z</time>
      </trkpt>
      <trkpt lat="44.23731" lon="6.05773">
        <ele>1104.69</ele>
        <time>2021-05-06T13:29:51Z</time>
      </trkpt>
      <trkpt lat="44.23735" lon="6.05767">
        <ele>1104.69</ele>
        <time>2021-05-06T13:30:06Z</time>
      </trkpt>
      <trkpt lat="44.23742" lon="6.05767">
        <ele>1105.65</ele>
        <time>2021-05-06T13:30:20Z</time>
      </trkpt>
      <trkpt lat="44.23741" lon="6.05769">
        <ele>1105.65</ele>
        <time>2021-05-06T13:30:43Z</time>
      </trkpt>
      <trkpt lat="44.2374" lon="6.05768">
        <ele>1105.65</ele>
        <time>2021-05-06T13:30:58Z</time>
      </trkpt>
      <trkpt lat="44.23742" lon="6.05768">
        <ele>1105.65</ele>
        <time>2021-05-06T13:31:23Z</time>
      </trkpt>
      <trkpt lat="44.23746" lon="6.05766">
        <ele>1106.13</ele>
        <time>2021-05-06T13:31:42Z</time>
      </trkpt>
      <trkpt lat="44.23757" lon="6.05765">
        <ele>1106.61</ele>
        <time>2021-05-06T13:31:56Z</time>
      </trkpt>
      <trkpt lat="44.23766" lon="6.0576">
        <ele>1107.58</ele>
        <time>2021-05-06T13:32:07Z</time>
      </trkpt>
      <trkpt lat="44.23775" lon="6.05748">
        <ele>1108.06</ele>
        <time>2021-05-06T13:32:22Z</time>
      </trkpt>
      <trkpt lat="44.23782" lon="6.05739">
        <ele>1107.58</ele>
        <time>2021-05-06T13:32:37Z</time>
      </trkpt>
      <trkpt lat="44.23782" lon="6.05736">
        <ele>1108.06</ele>
        <time>2021-05-06T13:32:49Z</time>
      </trkpt>
      <trkpt lat="44.23782" lon="6.05734">
        <ele>1108.54</ele>
        <time>2021-05-06T13:33:03Z</time>
      </trkpt>
      <trkpt lat="44.23783" lon="6.05729">
        <ele>1109.02</ele>
        <time>2021-05-06T13:33:17Z</time>
      </trkpt>
      <trkpt lat="44.23785" lon="6.0572">
        <ele>1108.06</ele>
        <time>2021-05-06T13:33:32Z</time>
      </trkpt>
      <trkpt lat="44.23785" lon="6.0571">
        <ele>1108.54</ele>
        <time>2021-05-06T13:33:45Z</time>
      </trkpt>
      <trkpt lat="44.23788" lon="6.05707">
        <ele>1109.02</ele>
        <time>2021-05-06T13:34:02Z</time>
      </trkpt>
      <trkpt lat="44.23792" lon="6.05702">
        <ele>1109.02</ele>
        <time>2021-05-06T13:34:16Z</time>
      </trkpt>
      <trkpt lat="44.23802" lon="6.05693">
        <ele>1109.98</ele>
        <time>2021-05-06T13:34:30Z</time>
      </trkpt>
      <trkpt lat="44.23803" lon="6.05692">
        <ele>1109.98</ele>
        <time>2021-05-06T13:34:31Z</time>
      </trkpt>
      <trkpt lat="44.23806" lon="6.05687">
        <ele>1109.98</ele>
        <time>2021-05-06T13:34:36Z</time>
      </trkpt>
      <trkpt lat="44.23817" lon="6.05672">
        <ele>1110.46</ele>
        <time>2021-05-06T13:34:52Z</time>
      </trkpt>
      <trkpt lat="44.23818" lon="6.05669">
        <ele>1110.46</ele>
        <time>2021-05-06T13:34:54Z</time>
      </trkpt>
      <trkpt lat="44.23831" lon="6.05653">
        <ele>1110.46</ele>
        <time>2021-05-06T13:35:10Z</time>
      </trkpt>
      <trkpt lat="44.23835" lon="6.05648">
        <ele>1110.94</ele>
        <time>2021-05-06T13:35:16Z</time>
      </trkpt>
      <trkpt lat="44.23839" lon="6.05642">
        <ele>1110.94</ele>
        <time>2021-05-06T13:35:21Z</time>
      </trkpt>
      <trkpt lat="44.23842" lon="6.05635">
        <ele>1112.38</ele>
        <time>2021-05-06T13:35:27Z</time>
      </trkpt>
      <trkpt lat="44.23845" lon="6.05633">
        <ele>1111.42</ele>
        <time>2021-05-06T13:35:31Z</time>
      </trkpt>
      <trkpt lat="44.23849" lon="6.05631">
        <ele>1111.42</ele>
        <time>2021-05-06T13:35:36Z</time>
      </trkpt>
      <trkpt lat="44.2386" lon="6.0562">
        <ele>1111.9</ele>
        <time>2021-05-06T13:35:50Z</time>
      </trkpt>
      <trkpt lat="44.23869" lon="6.05605">
        <ele>1112.86</ele>
        <time>2021-05-06T13:36:04Z</time>
      </trkpt>
      <trkpt lat="44.23877" lon="6.05589">
        <ele>1113.34</ele>
        <time>2021-05-06T13:36:20Z</time>
      </trkpt>
      <trkpt lat="44.2388" lon="6.05581">
        <ele>1114.31</ele>
        <time>2021-05-06T13:36:33Z</time>
      </trkpt>
      <trkpt lat="44.2388" lon="6.05578">
        <ele>1113.82</ele>
        <time>2021-05-06T13:36:36Z</time>
      </trkpt>
      <trkpt lat="44.23882" lon="6.05563">
        <ele>1113.34</ele>
        <time>2021-05-06T13:36:50Z</time>
      </trkpt>
      <trkpt lat="44.2389" lon="6.0555">
        <ele>1112.38</ele>
        <time>2021-05-06T13:37:05Z</time>
      </trkpt>
      <trkpt lat="44.23897" lon="6.05532">
        <ele>1111.42</ele>
        <time>2021-05-06T13:37:23Z</time>
      </trkpt>
      <trkpt lat="44.23906" lon="6.05517">
        <ele>1109.98</ele>
        <time>2021-05-06T13:37:39Z</time>
      </trkpt>
      <trkpt lat="44.23907" lon="6.05515">
        <ele>1110.46</ele>
        <time>2021-05-06T13:37:41Z</time>
      </trkpt>
      <trkpt lat="44.23916" lon="6.05504">
        <ele>1109.5</ele>
        <time>2021-05-06T13:37:56Z</time>
      </trkpt>
      <trkpt lat="44.23927" lon="6.05489">
        <ele>1109.02</ele>
        <time>2021-05-06T13:38:12Z</time>
      </trkpt>
      <trkpt lat="44.23935" lon="6.05477">
        <ele>1108.54</ele>
        <time>2021-05-06T13:38:25Z</time>
      </trkpt>
      <trkpt lat="44.23937" lon="6.05474">
        <ele>1108.54</ele>
        <time>2021-05-06T13:38:28Z</time>
      </trkpt>
      <trkpt lat="44.23942" lon="6.05459">
        <ele>1108.06</ele>
        <time>2021-05-06T13:38:42Z</time>
      </trkpt>
      <trkpt lat="44.23948" lon="6.05442">
        <ele>1108.54</ele>
        <time>2021-05-06T13:38:56Z</time>
      </trkpt>
      <trkpt lat="44.23952" lon="6.05428">
        <ele>1109.02</ele>
        <time>2021-05-06T13:39:10Z</time>
      </trkpt>
      <trkpt lat="44.23953" lon="6.05419">
        <ele>1109.02</ele>
        <time>2021-05-06T13:39:25Z</time>
      </trkpt>
      <trkpt lat="44.23959" lon="6.05411">
        <ele>1109.5</ele>
        <time>2021-05-06T13:39:39Z</time>
      </trkpt>
      <trkpt lat="44.23962" lon="6.05401">
        <ele>1109.98</ele>
        <time>2021-05-06T13:39:54Z</time>
      </trkpt>
      <trkpt lat="44.23973" lon="6.05393">
        <ele>1109.02</ele>
        <time>2021-05-06T13:40:08Z</time>
      </trkpt>
      <trkpt lat="44.23984" lon="6.0538">
        <ele>1108.06</ele>
        <time>2021-05-06T13:40:26Z</time>
      </trkpt>
      <trkpt lat="44.2399" lon="6.05372">
        <ele>1108.06</ele>
        <time>2021-05-06T13:40:39Z</time>
      </trkpt>
      <trkpt lat="44.23993" lon="6.05365">
        <ele>1108.06</ele>
        <time>2021-05-06T13:40:49Z</time>
      </trkpt>
      <trkpt lat="44.24002" lon="6.05352">
        <ele>1108.06</ele>
        <time>2021-05-06T13:41:04Z</time>
      </trkpt>
      <trkpt lat="44.24012" lon="6.0534">
        <ele>1108.06</ele>
        <time>2021-05-06T13:41:18Z</time>
      </trkpt>
      <trkpt lat="44.24017" lon="6.05336">
        <ele>1108.54</ele>
        <time>2021-05-06T13:41:24Z</time>
      </trkpt>
      <trkpt lat="44.24028" lon="6.05321">
        <ele>1108.06</ele>
        <time>2021-05-06T13:41:40Z</time>
      </trkpt>
      <trkpt lat="44.24037" lon="6.0531">
        <ele>1108.54</ele>
        <time>2021-05-06T13:41:53Z</time>
      </trkpt>
      <trkpt lat="44.24045" lon="6.05299">
        <ele>1108.06</ele>
        <time>2021-05-06T13:42:05Z</time>
      </trkpt>
      <trkpt lat="44.2405" lon="6.05288">
        <ele>1108.06</ele>
        <time>2021-05-06T13:42:15Z</time>
      </trkpt>
      <trkpt lat="44.24055" lon="6.05272">
        <ele>1108.06</ele>
        <time>2021-05-06T13:42:27Z</time>
      </trkpt>
      <trkpt lat="44.24057" lon="6.05269">
        <ele>1107.58</ele>
        <time>2021-05-06T13:42:29Z</time>
      </trkpt>
      <trkpt lat="44.2406" lon="6.05261">
        <ele>1107.1</ele>
        <time>2021-05-06T13:42:35Z</time>
      </trkpt>
      <trkpt lat="44.24061" lon="6.0526">
        <ele>1107.1</ele>
        <time>2021-05-06T13:42:36Z</time>
      </trkpt>
      <trkpt lat="44.24061" lon="6.05258">
        <ele>1107.1</ele>
        <time>2021-05-06T13:42:37Z</time>
      </trkpt>
      <trkpt lat="44.24063" lon="6.05252">
        <ele>1107.1</ele>
        <time>2021-05-06T13:42:42Z</time>
      </trkpt>
      <trkpt lat="44.24065" lon="6.05248">
        <ele>1106.61</ele>
        <time>2021-05-06T13:42:44Z</time>
      </trkpt>
      <trkpt lat="44.24072" lon="6.05234">
        <ele>1106.13</ele>
        <time>2021-05-06T13:42:56Z</time>
      </trkpt>
      <trkpt lat="44.24073" lon="6.05232">
        <ele>1106.13</ele>
        <time>2021-05-06T13:42:58Z</time>
      </trkpt>
      <trkpt lat="44.24074" lon="6.05231">
        <ele>1105.65</ele>
        <time>2021-05-06T13:42:59Z</time>
      </trkpt>
      <trkpt lat="44.24084" lon="6.05221">
        <ele>1104.69</ele>
        <time>2021-05-06T13:43:11Z</time>
      </trkpt>
      <trkpt lat="44.24097" lon="6.05218">
        <ele>1105.17</ele>
        <time>2021-05-06T13:43:24Z</time>
      </trkpt>
      <trkpt lat="44.24113" lon="6.05227">
        <ele>1104.21</ele>
        <time>2021-05-06T13:43:41Z</time>
      </trkpt>
      <trkpt lat="44.24131" lon="6.05241">
        <ele>1103.25</ele>
        <time>2021-05-06T13:44:01Z</time>
      </trkpt>
      <trkpt lat="44.24148" lon="6.0525">
        <ele>1102.77</ele>
        <time>2021-05-06T13:44:18Z</time>
      </trkpt>
      <trkpt lat="44.24164" lon="6.05263">
        <ele>1102.29</ele>
        <time>2021-05-06T13:44:37Z</time>
      </trkpt>
      <trkpt lat="44.24183" lon="6.05275">
        <ele>1101.33</ele>
        <time>2021-05-06T13:44:57Z</time>
      </trkpt>
      <trkpt lat="44.24198" lon="6.05284">
        <ele>1100.85</ele>
        <time>2021-05-06T13:45:14Z</time>
      </trkpt>
      <trkpt lat="44.24219" lon="6.05299">
        <ele>1099.89</ele>
        <time>2021-05-06T13:45:37Z</time>
      </trkpt>
      <trkpt lat="44.24234" lon="6.05307">
        <ele>1099.4</ele>
        <time>2021-05-06T13:45:53Z</time>
      </trkpt>
      <trkpt lat="44.24241" lon="6.05311">
        <ele>1099.4</ele>
        <time>2021-05-06T13:46:00Z</time>
      </trkpt>
      <trkpt lat="44.24258" lon="6.05312">
        <ele>1099.4</ele>
        <time>2021-05-06T13:46:15Z</time>
      </trkpt>
      <trkpt lat="44.24276" lon="6.0531">
        <ele>1098.44</ele>
        <time>2021-05-06T13:46:33Z</time>
      </trkpt>
      <trkpt lat="44.24277" lon="6.0531">
        <ele>1098.44</ele>
        <time>2021-05-06T13:46:34Z</time>
      </trkpt>
      <trkpt lat="44.2429" lon="6.05306">
        <ele>1097.96</ele>
        <time>2021-05-06T13:46:48Z</time>
      </trkpt>
      <trkpt lat="44.24306" lon="6.05303">
        <ele>1097.96</ele>
        <time>2021-05-06T13:47:05Z</time>
      </trkpt>
      <trkpt lat="44.24325" lon="6.05301">
        <ele>1097.96</ele>
        <time>2021-05-06T13:47:23Z</time>
      </trkpt>
      <trkpt lat="44.24343" lon="6.05297">
        <ele>1097.96</ele>
        <time>2021-05-06T13:47:42Z</time>
      </trkpt>
      <trkpt lat="44.24346" lon="6.05296">
        <ele>1097.96</ele>
        <time>2021-05-06T13:47:45Z</time>
      </trkpt>
      <trkpt lat="44.24362" lon="6.05289">
        <ele>1097.96</ele>
        <time>2021-05-06T13:48:01Z</time>
      </trkpt>
      <trkpt lat="44.24365" lon="6.05287">
        <ele>1098.44</ele>
        <time>2021-05-06T13:48:04Z</time>
      </trkpt>
      <trkpt lat="44.24375" lon="6.05277">
        <ele>1099.4</ele>
        <time>2021-05-06T13:48:18Z</time>
      </trkpt>
      <trkpt lat="44.24381" lon="6.05276">
        <ele>1099.89</ele>
        <time>2021-05-06T13:48:25Z</time>
      </trkpt>
      <trkpt lat="44.24391" lon="6.05274">
        <ele>1100.37</ele>
        <time>2021-05-06T13:48:38Z</time>
      </trkpt>
      <trkpt lat="44.24408" lon="6.05272">
        <ele>1101.81</ele>
        <time>2021-05-06T13:48:54Z</time>
      </trkpt>
      <trkpt lat="44.24419" lon="6.0527">
        <ele>1102.77</ele>
        <time>2021-05-06T13:49:07Z</time>
      </trkpt>
      <trkpt lat="44.2443" lon="6.05269">
        <ele>1104.21</ele>
        <time>2021-05-06T13:49:23Z</time>
      </trkpt>
      <trkpt lat="44.2444" lon="6.05267">
        <ele>1105.65</ele>
        <time>2021-05-06T13:49:38Z</time>
      </trkpt>
      <trkpt lat="44.24447" lon="6.05258">
        <ele>1107.58</ele>
        <time>2021-05-06T13:49:54Z</time>
      </trkpt>
      <trkpt lat="44.2445" lon="6.05249">
        <ele>1109.02</ele>
        <time>2021-05-06T13:50:06Z</time>
      </trkpt>
      <trkpt lat="44.24452" lon="6.05237">
        <ele>1110.46</ele>
        <time>2021-05-06T13:50:21Z</time>
      </trkpt>
      <trkpt lat="44.24458" lon="6.05233">
        <ele>1112.38</ele>
        <time>2021-05-06T13:50:35Z</time>
      </trkpt>
      <trkpt lat="44.24462" lon="6.05242">
        <ele>1113.82</ele>
        <time>2021-05-06T13:50:49Z</time>
      </trkpt>
      <trkpt lat="44.2447" lon="6.05252">
        <ele>1114.79</ele>
        <time>2021-05-06T13:51:05Z</time>
      </trkpt>
      <trkpt lat="44.24482" lon="6.05245">
        <ele>1115.75</ele>
        <time>2021-05-06T13:51:20Z</time>
      </trkpt>
      <trkpt lat="44.24492" lon="6.05242">
        <ele>1118.15</ele>
        <time>2021-05-06T13:51:34Z</time>
      </trkpt>
      <trkpt lat="44.24497" lon="6.05253">
        <ele>1118.15</ele>
        <time>2021-05-06T13:51:46Z</time>
      </trkpt>
      <trkpt lat="44.24502" lon="6.05261">
        <ele>1118.15</ele>
        <time>2021-05-06T13:52:04Z</time>
      </trkpt>
      <trkpt lat="44.24502" lon="6.05261">
        <ele>1118.63</ele>
        <time>2021-05-06T13:52:27Z</time>
      </trkpt>
      <trkpt lat="44.24501" lon="6.05261">
        <ele>1118.63</ele>
        <time>2021-05-06T13:52:45Z</time>
      </trkpt>
      <trkpt lat="44.24501" lon="6.05262">
        <ele>1118.15</ele>
        <time>2021-05-06T13:52:59Z</time>
      </trkpt>
      <trkpt lat="44.245" lon="6.05265">
        <ele>1117.67</ele>
        <time>2021-05-06T13:53:15Z</time>
      </trkpt>
      <trkpt lat="44.24499" lon="6.05265">
        <ele>1118.15</ele>
        <time>2021-05-06T13:53:31Z</time>
      </trkpt>
      <trkpt lat="44.24499" lon="6.05265">
        <ele>1118.15</ele>
        <time>2021-05-06T13:53:49Z</time>
      </trkpt>
      <trkpt lat="44.24497" lon="6.05261">
        <ele>1118.15</ele>
        <time>2021-05-06T13:54:15Z</time>
      </trkpt>
      <trkpt lat="44.24492" lon="6.05262">
        <ele>1118.63</ele>
        <time>2021-05-06T13:54:52Z</time>
      </trkpt>
      <trkpt lat="44.24491" lon="6.05263">
        <ele>1118.63</ele>
        <time>2021-05-06T13:55:22Z</time>
      </trkpt>
      <trkpt lat="44.24495" lon="6.05267">
        <ele>1119.11</ele>
        <time>2021-05-06T13:55:48Z</time>
      </trkpt>
      <trkpt lat="44.24498" lon="6.05265">
        <ele>1119.11</ele>
        <time>2021-05-06T13:56:16Z</time>
      </trkpt>
      <trkpt lat="44.24499" lon="6.05262">
        <ele>1119.11</ele>
        <time>2021-05-06T13:56:45Z</time>
      </trkpt>
      <trkpt lat="44.24499" lon="6.05264">
        <ele>1119.11</ele>
        <time>2021-05-06T13:57:14Z</time>
      </trkpt>
      <trkpt lat="44.24497" lon="6.05259">
        <ele>1119.11</ele>
        <time>2021-05-06T13:57:47Z</time>
      </trkpt>
      <trkpt lat="44.24497" lon="6.05255">
        <ele>1119.59</ele>
        <time>2021-05-06T13:58:11Z</time>
      </trkpt>
      <trkpt lat="44.24495" lon="6.05255">
        <ele>1119.59</ele>
        <time>2021-05-06T13:58:22Z</time>
      </trkpt>
    </trkseg>
  </trk>
</gpx>